Provisional Data: Kitchen Creek near Huntington Mills, PA


Please select a monitoring station.
Please select start date.
Please select start date.

Toggle Unit: C/F Toggle Unit: C/F
Sample Time Temperature (C) Temperature (F) Specific Conductivity (mS/cm) pH   Turbidity (NTU+) DO (mg/L)
10/22/2021 12:00:00 AM 13.04 55.472 0.048 6.72 1.76 10.12
10/22/2021 12:15:00 AM 13.04 55.472 0.05 6.75 2.85 10.11
10/22/2021 12:30:00 AM 13.04 55.472 0.05 6.73 2.96 10.12
10/22/2021 12:45:00 AM 13.04 55.472 0.043 6.73 2.15 10.12
10/22/2021 1:00:00 AM 13.04 55.472 0.044 6.73 2.67 10.11
10/22/2021 1:15:00 AM 13.04 55.472 0.05 6.72 1.68 10.11
10/22/2021 1:30:00 AM 13.04 55.472 0.047 6.73 3.48 10.12
10/22/2021 1:45:00 AM 13.03 55.454 0.049 6.69 2.95 10.12
10/22/2021 2:00:00 AM 13.02 55.436 0.05 6.71 2.39 10.12
10/22/2021 2:15:00 AM 13.02 55.436 0.047 6.71 2.24 10.12
10/22/2021 2:30:00 AM 13.02 55.436 0.048 6.71 2.33 10.12
10/22/2021 2:45:00 AM 13.01 55.418 0.049 6.72 2.72 10.13
10/22/2021 3:00:00 AM 13 55.4 0.048 6.71 2.7 10.13
10/22/2021 3:15:00 AM 13 55.4 0.05 6.73 1.85 10.13
10/22/2021 3:30:00 AM 12.98 55.364 0.049 6.73 2.79 10.14
10/22/2021 3:45:00 AM 12.97 55.346 0.05 6.72 2.45 10.14
10/22/2021 4:00:00 AM 12.95 55.31 0.05 6.72 1.82 10.14
10/22/2021 4:15:00 AM 12.92 55.256 0.05 6.73 2.62 10.15
10/22/2021 4:30:00 AM 12.9 55.22 0.05 6.72 1.94 10.15
10/22/2021 4:45:00 AM 12.87 55.166 0.05 6.73 2.68 10.16
10/22/2021 5:00:00 AM 12.83 55.094 0.048 6.75 3.22 10.17
10/22/2021 5:15:00 AM 12.8 55.04 0.048 6.73 2.51 10.19
10/22/2021 5:30:00 AM 12.77 54.986 0.049 6.72 2.96 10.19
10/22/2021 5:45:00 AM 12.73 54.914 0.044 6.73 3.21 10.2
10/22/2021 6:00:00 AM 12.69 54.842 0.049 6.74 2.12 10.21
10/22/2021 6:15:00 AM 12.65 54.77 0.049 6.72 1.97 10.23
10/22/2021 6:30:00 AM 12.62 54.716 0.049 6.72 2.28 10.24
10/22/2021 6:45:00 AM 12.59 54.662 0.047 6.73 2.81 10.24
10/22/2021 7:00:00 AM 12.56 54.608 0.049 6.75 2.52 10.25
10/22/2021 7:15:00 AM 12.54 54.572 0.046 6.73 2.89 10.26
10/22/2021 7:30:00 AM 12.52 54.536 0.047 6.73 1.95 10.28
10/22/2021 7:45:00 AM 12.51 54.518 0.047 6.75 1.77 10.29
10/22/2021 8:00:00 AM 12.5 54.5 0.047 6.75 1.99 10.32
10/22/2021 8:15:00 AM 12.49 54.482 0.042 6.75 3.25 10.36
10/22/2021 8:30:00 AM 12.49 54.482 0.049 6.77 2.99 10.41
10/22/2021 8:45:00 AM 12.5 54.5 0.042 6.78 2.92 10.46
10/22/2021 9:00:00 AM 12.5 54.5 0.049 6.8 2.4 10.5
10/22/2021 9:15:00 AM 12.51 54.518 0.049 6.81 1.77 10.49
10/22/2021 9:30:00 AM 12.52 54.536 0.049 6.79 2.52 10.49
10/22/2021 9:45:00 AM 12.54 54.572 0.048 6.8 2.37 10.5
10/22/2021 10:00:00 AM 12.57 54.626 0.047 6.82 2.29 10.54
10/22/2021 10:15:00 AM 12.61 54.698 0.049 6.83 3.53 10.57
10/22/2021 10:30:00 AM 12.63 54.734 0.046 6.85 3.43 10.57
10/22/2021 10:45:00 AM 12.67 54.806 0.046 6.86 2.05 10.58
10/22/2021 11:00:00 AM 12.72 54.896 0.049 6.88 2.51 10.59
10/22/2021 11:15:00 AM 12.75 54.95 0.049 6.88 2.65 10.58
10/22/2021 11:30:00 AM 12.82 55.076 0.049 6.9 1.91 10.58
10/22/2021 11:45:00 AM 12.88 55.184 0.046 6.9 2.18 10.59
10/22/2021 12:00:00 PM 12.97 55.346 0.047 6.85 2.59 10.59
10/22/2021 12:15:00 PM 13.07 55.526 0.049 6.95 3.22 10.58
10/22/2021 12:30:00 PM 13.22 55.796 0.049 6.92 2.37 10.56
10/22/2021 12:45:00 PM 13.32 55.976 0.047 6.94 2.74 10.53
10/22/2021 1:00:00 PM 13.42 56.156 0.048 6.97 2.44 10.51
10/22/2021 1:15:00 PM 13.46 56.228 0.049 6.96 2.14 10.49
10/22/2021 1:30:00 PM 13.44 56.192 0.046 6.91 2.66 10.41
10/22/2021 1:45:00 PM 13.42 56.156 0.048 6.91 2.53 10.39
10/22/2021 2:00:00 PM 13.4 56.12 0.044 6.91 1.97 10.37
10/22/2021 2:15:00 PM 13.38 56.084 0.039 6.91 2.5 10.37
10/22/2021 2:30:00 PM 13.37 56.066 0.04 6.88 2.75 10.36
10/22/2021 2:45:00 PM 13.34 56.012 0.047 6.87 1.77 10.34
10/22/2021 3:00:00 PM 13.31 55.958 0.047 6.88 2.46 10.35
10/22/2021 3:15:00 PM 13.31 55.958 0.046 6.87 2.63 10.37
10/22/2021 3:30:00 PM 13.31 55.958 0.049 6.87 3.58 10.37
10/22/2021 3:45:00 PM 13.31 55.958 0.049 6.88 1.98 10.35
10/22/2021 4:00:00 PM 13.31 55.958 0.048 6.89 1.85 10.37
10/22/2021 4:15:00 PM 13.3 55.94 0.049 6.9 2.66 10.34
10/22/2021 4:30:00 PM 13.29 55.922 0.049 6.87 2.69 10.32
10/22/2021 4:45:00 PM 13.27 55.886 0.049 6.85 3.26 10.28
10/22/2021 5:00:00 PM 13.25 55.85 0.046 6.84 3.03 10.29
10/22/2021 5:15:00 PM 13.24 55.832 0.041 6.85 2.33 10.28
10/22/2021 5:30:00 PM 13.22 55.796 0.049 6.82 2.5 10.27
10/22/2021 5:45:00 PM 13.2 55.76 0.049 6.81 2.02 10.25
10/22/2021 6:00:00 PM 13.16 55.688 0.047 6.81 2.25 10.22
10/22/2021 6:15:00 PM 13.12 55.616 0.047 6.8 2.37 10.2
10/22/2021 6:30:00 PM 13.07 55.526 0.049 6.79 2.3 10.19
10/22/2021 6:45:00 PM 13.02 55.436 0.048 6.77 3.32 10.18
10/22/2021 7:00:00 PM 12.98 55.364 0.05 6.78 2.05 10.18
10/22/2021 7:15:00 PM 12.93 55.274 0.05 6.77 2 10.19
10/22/2021 7:30:00 PM 12.88 55.184 0.049 6.77 3.03 10.2
10/22/2021 7:45:00 PM 12.84 55.112 0.05 6.75 2.08 10.21
10/22/2021 8:00:00 PM 12.81 55.058 0.045 6.58 2.46 10.21
10/22/2021 8:15:00 PM 12.79 55.022 0.05 6.75 2.2 10.23
10/22/2021 8:30:00 PM 12.76 54.968 0.05 6.75 2.72 10.23
10/22/2021 8:45:00 PM 12.74 54.932 0.049 6.75 2.84 10.24
10/22/2021 9:00:00 PM 12.72 54.896 0.05 6.75 2.4 10.25
10/22/2021 9:15:00 PM 12.7 54.86 0.047 6.75 2.24 10.26
10/22/2021 9:30:00 PM 12.67 54.806 0.044 6.75 2.94 10.26
10/22/2021 9:45:00 PM 12.64 54.752 0.05 6.74 2.72 10.27
10/22/2021 10:00:00 PM 12.6 54.68 0.049 6.72 2.27 10.27
10/22/2021 10:15:00 PM 12.57 54.626 0.05 6.75 1.68 10.29
10/22/2021 10:30:00 PM 12.53 54.554 0.049 6.72 2.67 10.29
10/22/2021 10:45:00 PM 12.49 54.482 0.049 6.74 1.85 10.3
10/22/2021 11:00:00 PM 12.45 54.41 0.05 6.73 1.77 10.31
10/22/2021 11:15:00 PM 12.42 54.356 0.049 6.73 2.47 10.32
10/22/2021 11:30:00 PM 12.37 54.266 0.05 6.75 2.07 10.33
10/22/2021 11:45:00 PM 12.32 54.176 0.05 6.74 3.02 10.34
10/23/2021 12:00:00 AM 12.27 54.086 0.05 6.75 2.7 10.35
10/23/2021 12:15:00 AM 12.22 53.996 0.047 6.75 2.34 10.36
10/23/2021 12:30:00 AM 12.18 53.924 0.05 6.66 3.3 10.38
10/23/2021 12:45:00 AM 12.14 53.852 0.05 6.75 2.67 10.39
10/23/2021 1:00:00 AM 12.11 53.798 0.048 6.74 2.61 10.4
10/23/2021 1:15:00 AM 12.07 53.726 0.05 6.74 1.74 10.41
10/23/2021 1:30:00 AM 12.04 53.672 0.05 6.75 1.94 10.42
10/23/2021 1:45:00 AM 12.02 53.636 0.05 6.74 2.44 10.42
10/23/2021 2:00:00 AM 11.99 53.582 0.05 6.76 2.59 10.43
10/23/2021 2:15:00 AM 11.96 53.528 0.05 6.73 2.67 10.43
10/23/2021 2:30:00 AM 11.93 53.474 0.05 6.75 2.17 10.44
10/23/2021 2:45:00 AM 11.9 53.42 0.05 6.77 2.25 10.45
10/23/2021 3:00:00 AM 11.87 53.366 0.05 6.75 2.43 10.45
10/23/2021 3:15:00 AM 11.84 53.312 0.05 6.74 3.77 10.46
10/23/2021 3:30:00 AM 11.81 53.258 0.05 6.76 2.79 10.47
10/23/2021 3:45:00 AM 11.78 53.204 0.049 6.74 2.68 10.49
10/23/2021 4:00:00 AM 11.74 53.132 0.05 6.75 2.22 10.49
10/23/2021 4:15:00 AM 11.71 53.078 0.05 6.74 2.06 10.51
10/23/2021 4:30:00 AM 11.68 53.024 0.05 6.76 2.05 10.52
10/23/2021 4:45:00 AM 11.65 52.97 0.048 6.77 2.72 10.52
10/23/2021 5:00:00 AM 11.61 52.898 0.048 6.75 1.87 10.53
10/23/2021 5:15:00 AM 11.58 52.844 0.05 6.74 3.97 10.53
10/23/2021 5:30:00 AM 11.55 52.79 0.05 6.74 2.8 10.54
10/23/2021 5:45:00 AM 11.52 52.736 0.048 6.72 2.94 10.55
10/23/2021 6:00:00 AM 11.49 52.682 0.046 6.74 2.22 10.57
10/23/2021 6:15:00 AM 11.46 52.628 0.047 6.74 2.57 10.58
10/23/2021 6:30:00 AM 11.43 52.574 0.049 6.75 2.81 10.59
10/23/2021 6:45:00 AM 11.4 52.52 0.047 6.76 3 10.59
10/23/2021 7:00:00 AM 11.37 52.466 0.049 6.75 3.06 10.6
10/23/2021 7:15:00 AM 11.34 52.412 0.05 6.73 1.62 10.61
10/23/2021 7:30:00 AM 11.31 52.358 0.047 6.75 2.33 10.62
10/23/2021 7:45:00 AM 11.28 52.304 0.049 6.75 2.51 10.64
10/23/2021 8:00:00 AM 11.26 52.268 0.05 6.76 2.44 10.66
10/23/2021 8:15:00 AM 11.23 52.214 0.05 6.78 2.53 10.7
10/23/2021 8:30:00 AM 11.22 52.196 0.046 6.78 2.69 10.77
10/23/2021 8:45:00 AM 11.21 52.178 0.044 6.77 3.03 10.82
10/23/2021 9:00:00 AM 11.2 52.16 0.047 6.81 3.45 10.86
10/23/2021 9:15:00 AM 11.19 52.142 0.05 6.8 2.38 10.89
10/23/2021 9:30:00 AM 11.19 52.142 0.049 6.86 1.83 10.93
10/23/2021 9:45:00 AM 11.19 52.142 0.049 6.84 2.88 10.95
10/23/2021 10:00:00 AM 11.22 52.196 0.049 6.88 1.96 10.99
10/23/2021 10:15:00 AM 11.23 52.214 0.049 6.89 2.49 11
10/23/2021 10:30:00 AM 11.25 52.25 0.049 6.87 2.69 11.01
10/23/2021 10:45:00 AM 11.26 52.268 0.049 6.88 2.49 10.97
10/23/2021 11:00:00 AM 11.28 52.304 0.047 6.88 2.08 10.97
10/23/2021 11:15:00 AM 11.3 52.34 0.049 6.89 2.64 10.98
10/23/2021 11:30:00 AM 11.32 52.376 0.046 6.91 2.34 10.99
10/23/2021 11:45:00 AM 11.34 52.412 0.046 6.9 2.46 10.99
10/23/2021 12:00:00 PM 11.36 52.448 0.045 6.9 3.59 10.99
10/23/2021 12:15:00 PM 11.37 52.466 0.048 6.9 1.82 10.98
10/23/2021 12:30:00 PM 11.39 52.502 0.045 6.91 2.22 10.96
10/23/2021 12:45:00 PM 11.4 52.52 0.049 6.91 2.63 10.94
10/23/2021 1:00:00 PM 11.41 52.538 0.049 6.89 1.87 10.92
10/23/2021 1:15:00 PM 11.43 52.574 0.049 6.9 2.95 10.94
10/23/2021 1:30:00 PM 11.45 52.61 0.049 6.9 1.63 10.94
10/23/2021 1:45:00 PM 11.45 52.61 0.046 6.9 2 10.92
10/23/2021 2:00:00 PM 11.46 52.628 0.049 6.91 2.61 10.9
10/23/2021 2:15:00 PM 11.45 52.61 0.049 6.88 1.74 10.87
10/23/2021 2:30:00 PM 11.45 52.61 0.049 6.9 2.53 10.85
10/23/2021 2:45:00 PM 11.45 52.61 0.048 6.86 1.74 10.82
10/23/2021 3:00:00 PM 11.45 52.61 0.048 6.86 2.07 10.83
10/23/2021 3:15:00 PM 11.44 52.592 0.049 6.87 2.57 10.81
10/23/2021 3:30:00 PM 11.43 52.574 0.049 6.86 1.88 10.81
10/23/2021 3:45:00 PM 11.42 52.556 0.048 6.84 1.85 10.78
10/23/2021 4:00:00 PM 11.41 52.538 0.049 6.85 1.71 10.8
10/23/2021 4:15:00 PM 11.41 52.538 0.048 6.85 2.5 10.81
10/23/2021 4:30:00 PM 11.4 52.52 0.046 6.85 2.2 10.76
10/23/2021 4:45:00 PM 11.4 52.52 0.048 6.85 2.46 10.76
10/23/2021 5:00:00 PM 11.39 52.502 0.049 6.84 1.83 10.74
10/23/2021 5:15:00 PM 11.38 52.484 0.048 6.84 2.74 10.73
10/23/2021 5:30:00 PM 11.38 52.484 0.049 6.82 1.6 10.72
10/23/2021 5:45:00 PM 11.36 52.448 0.049 6.79 2.49 10.68
10/23/2021 6:00:00 PM 11.35 52.43 0.05 6.8 1.64 10.65
10/23/2021 6:15:00 PM 11.33 52.394 0.05 6.79 3.2 10.64
10/23/2021 6:30:00 PM 11.31 52.358 0.05 6.8 1.58 10.64
10/23/2021 6:45:00 PM 11.28 52.304 0.05 6.78 2.91 10.63
10/23/2021 7:00:00 PM 11.25 52.25 0.05 6.77 1.83 10.64
10/23/2021 7:15:00 PM 11.21 52.178 0.05 6.77 2.58 10.65
10/23/2021 7:30:00 PM 11.16 52.088 0.05 6.78 2.23 10.66
10/23/2021 7:45:00 PM 11.12 52.016 0.047 6.76 2.65 10.67
10/23/2021 8:00:00 PM 11.08 51.944 0.05 6.76 2.4 10.68
10/23/2021 8:15:00 PM 11.03 51.854 0.05 6.75 1.88 10.69
10/23/2021 8:30:00 PM 10.99 51.782 0.05 6.77 2.19 10.7
10/23/2021 8:45:00 PM 10.94 51.692 0.05 6.76 2.71 10.72
10/23/2021 9:00:00 PM 10.89 51.602 0.05 6.76 2.69 10.73
10/23/2021 9:15:00 PM 10.84 51.512 0.05 6.76 1.89 10.74
10/23/2021 9:30:00 PM 10.79 51.422 0.05 6.76 1.63 10.75
10/23/2021 9:45:00 PM 10.75 51.35 0.05 6.75 2.59 10.77
10/23/2021 10:00:00 PM 10.71 51.278 0.05 6.74 3.03 10.78
10/23/2021 10:15:00 PM 10.68 51.224 0.05 6.74 2.01 10.8
10/23/2021 10:30:00 PM 10.65 51.17 0.048 6.76 2.56 10.81
10/23/2021 10:45:00 PM 10.62 51.116 0.05 6.75 1.83 10.81
10/23/2021 11:00:00 PM 10.59 51.062 0.05 6.75 2.43 10.82
10/23/2021 11:15:00 PM 10.55 50.99 0.05 6.74 1.97 10.83
10/23/2021 11:30:00 PM 10.52 50.936 0.05 6.74 3.23 10.84
10/23/2021 11:45:00 PM 10.49 50.882 0.05 6.75 1.77 10.85
10/24/2021 12:00:00 AM 10.47 50.846 0.049 6.74 1.78 10.85
10/24/2021 12:15:00 AM 10.44 50.792 0.05 6.76 2.73 10.86
10/24/2021 12:30:00 AM 10.42 50.756 0.05 6.74 1.61 10.87
10/24/2021 12:45:00 AM 10.39 50.702 0.05 6.75 1.59 10.88
10/24/2021 1:00:00 AM 10.35 50.63 0.05 6.74 1.6 10.89
10/24/2021 1:15:00 AM 10.33 50.594 0.047 6.74 2.46 10.9
10/24/2021 1:30:00 AM 10.29 50.522 0.05 6.73 3.28 10.91
10/24/2021 1:45:00 AM 10.26 50.468 0.05 6.74 2.43 10.92
10/24/2021 2:00:00 AM 10.24 50.432 0.049 6.74 3.3 10.93
10/24/2021 2:15:00 AM 10.21 50.378 0.049 6.75 2.71 10.94
10/24/2021 2:30:00 AM 10.19 50.342 0.05 6.74 1.76 10.95
10/24/2021 2:45:00 AM 10.17 50.306 0.048 6.74 2.03 10.96
10/24/2021 3:00:00 AM 10.14 50.252 0.05 6.75 2.85 10.96
10/24/2021 3:15:00 AM 10.12 50.216 0.05 6.74 2.51 10.97
10/24/2021 3:30:00 AM 10.11 50.198 0.05 6.72 2.49 10.98
10/24/2021 3:45:00 AM 10.09 50.162 0.048 6.73 2.35 10.98
10/24/2021 4:00:00 AM 10.08 50.144 0.048 6.74 2.51 10.98
10/24/2021 4:15:00 AM 10.07 50.126 0.048 6.74 2.13 10.99
10/24/2021 4:30:00 AM 10.06 50.108 0.05 6.71 1.76 10.99
10/24/2021 4:45:00 AM 10.05 50.09 0.046 6.73 2.19 10.99
10/24/2021 5:00:00 AM 10.05 50.09 0.05 6.76 2.56 11
10/24/2021 5:15:00 AM 10.04 50.072 0.048 6.73 2.17 11
10/24/2021 5:30:00 AM 10.04 50.072 0.05 6.74 1.72 11
10/24/2021 5:45:00 AM 10.03 50.054 0.05 6.74 2.73 11
10/24/2021 6:00:00 AM 10.03 50.054 0.042 6.75 2.41 11.01
10/24/2021 6:15:00 AM 10.02 50.036 0.049 6.75 3.03 11.01
10/24/2021 6:30:00 AM 10 50 0.05 6.75 2.89 11.01
10/24/2021 6:45:00 AM 9.99 49.982 0.048 6.74 1.92 11.02
10/24/2021 7:00:00 AM 9.97 49.946 0.05 6.75 2.79 11.02
10/24/2021 7:15:00 AM 9.95 49.91 0.05 6.74 2.07 11.03
10/24/2021 7:30:00 AM 9.93 49.874 0.05 6.72 3.5 11.04
10/24/2021 7:45:00 AM 9.92 49.856 0.05 6.72 2.79 11.06
10/24/2021 8:00:00 AM 9.9 49.82 0.049 6.75 2.24 11.09
10/24/2021 8:15:00 AM 9.88 49.784 0.047 6.77 1.85 11.13
10/24/2021 8:30:00 AM 9.87 49.766 0.044 6.77 1.89 11.17
10/24/2021 8:45:00 AM 9.86 49.748 0.046 6.78 2 11.2
10/24/2021 9:00:00 AM 9.85 49.73 0.05 6.79 2.1 11.25
10/24/2021 9:15:00 AM 9.85 49.73 0.05 6.81 2.35 11.27
10/24/2021 9:30:00 AM 9.86 49.748 0.047 6.82 2.06 11.31
10/24/2021 9:45:00 AM 9.87 49.766 0.048 6.82 1.73 11.34
10/24/2021 10:00:00 AM 9.9 49.82 0.048 6.84 1.71 11.39
10/24/2021 10:15:00 AM 9.93 49.874 0.049 6.84 1.57 11.4
10/24/2021 10:30:00 AM 9.95 49.91 0.049 6.85 1.7 11.39
10/24/2021 10:45:00 AM 9.97 49.946 0.049 6.86 1.55 11.38
10/24/2021 11:00:00 AM 10 50 0.047 6.88 2.1 11.38
10/24/2021 11:15:00 AM 10.04 50.072 0.049 6.9 1.8 11.39
10/24/2021 11:30:00 AM 10.07 50.126 0.049 6.88 2.21 11.38
10/24/2021 11:45:00 AM 10.1 50.18 0.049 6.88 1.87 11.35
10/24/2021 12:00:00 PM 10.13 50.234 0.049 6.88 1.54 11.35
10/24/2021 12:15:00 PM 10.16 50.288 0.049 6.9 1.6 11.35
10/24/2021 12:30:00 PM 10.2 50.36 0.049 6.88 2.39 11.34
10/24/2021 12:45:00 PM 10.22 50.396 0.049 6.75 1.58 11.29
10/24/2021 1:00:00 PM 10.24 50.432 0.048 6.86 1.83 11.26
10/24/2021 1:15:00 PM 10.25 50.45 0.049 6.88 1.67 11.26
10/24/2021 1:30:00 PM 10.27 50.486 0.049 6.89 1.91 11.23
10/24/2021 1:45:00 PM 10.28 50.504 0.048 6.85 2.02 11.21
10/24/2021 2:00:00 PM 10.29 50.522 0.049 6.85 2.5 11.21
10/24/2021 2:15:00 PM 10.3 50.54 0.049 6.84 2.33 11.19
10/24/2021 2:30:00 PM 10.32 50.576 0.049 6.83 1.57 11.19
10/24/2021 2:45:00 PM 10.33 50.594 0.049 6.85 2.53 11.18
10/24/2021 3:00:00 PM 10.34 50.612 0.048 6.85 1.72 11.2
10/24/2021 3:15:00 PM 10.36 50.648 0.049 6.86 1.58 11.21
10/24/2021 3:30:00 PM 10.37 50.666 0.046 6.85 2.49 11.18
10/24/2021 3:45:00 PM 10.38 50.684 0.049 6.86 2.08 11.17
10/24/2021 4:00:00 PM 10.39 50.702 0.049 6.85 1.61 11.15
10/24/2021 4:15:00 PM 10.39 50.702 0.049 6.79 2.37 11.12
10/24/2021 4:30:00 PM 10.41 50.738 0.048 6.82 1.81 11.14
10/24/2021 4:45:00 PM 10.42 50.756 0.049 6.84 1.68 11.12
10/24/2021 5:00:00 PM 10.42 50.756 0.049 6.84 1.59 11.07
10/24/2021 5:15:00 PM 10.41 50.738 0.049 6.8 2.05 11.04
10/24/2021 5:30:00 PM 10.41 50.738 0.047 6.8 2.04 11.01
10/24/2021 5:45:00 PM 10.41 50.738 0.049 6.81 2.3 11
10/24/2021 6:00:00 PM 10.4 50.72 0.049 6.82 1.56 10.97
10/24/2021 6:15:00 PM 10.4 50.72 0.049 6.79 1.57 10.95
10/24/2021 6:30:00 PM 10.39 50.702 0.05 6.76 2.51 10.94
10/24/2021 6:45:00 PM 10.38 50.684 0.05 6.77 1.66 10.93
10/24/2021 7:00:00 PM 10.38 50.684 0.05 6.77 1.96 10.92
10/24/2021 7:15:00 PM 10.37 50.666 0.05 6.77 2.41 10.93
10/24/2021 7:30:00 PM 10.37 50.666 0.05 6.76 1.81 10.93
10/24/2021 7:45:00 PM 10.36 50.648 0.048 6.71 2.62 10.92
10/24/2021 8:00:00 PM 10.36 50.648 0.047 6.74 2.32 10.92
10/24/2021 8:15:00 PM 10.36 50.648 0.05 6.75 1.81 10.92
10/24/2021 8:30:00 PM 10.35 50.63 0.05 6.75 1.73 10.91
10/24/2021 8:45:00 PM 10.35 50.63 0.047 6.74 2.07 10.91
10/24/2021 9:00:00 PM 10.35 50.63 0.047 6.74 2.29 10.91
10/24/2021 9:15:00 PM 10.35 50.63 0.046 6.74 2.65 10.91
10/24/2021 9:30:00 PM 10.35 50.63 0.05 6.75 2.19 10.9
10/24/2021 9:45:00 PM 10.36 50.648 0.049 6.75 1.9 10.91
10/24/2021 10:00:00 PM 10.36 50.648 0.047 6.74 2.8 10.91
10/24/2021 10:15:00 PM 10.36 50.648 0.049 6.76 3.57 10.9
10/24/2021 10:30:00 PM 10.36 50.648 0.05 6.74 3.27 10.9
10/24/2021 10:45:00 PM 10.36 50.648 0.05 6.74 2.3 10.9
10/24/2021 11:00:00 PM 10.37 50.666 0.045 6.74 2.49 10.89
10/24/2021 11:15:00 PM 10.38 50.684 0.041 6.58 2.47 10.89
10/24/2021 11:30:00 PM 10.38 50.684 0.05 6.72 2.62 10.89
10/24/2021 11:45:00 PM 10.39 50.702 0.05 6.74 2.57 10.88
10/25/2021 12:00:00 AM 10.39 50.702 0.048 6.75 2.12 10.88
10/25/2021 12:15:00 AM 10.4 50.72 0.05 6.73 3.1 10.88
10/25/2021 12:30:00 AM 10.41 50.738 0.05 6.74 2.74 10.88
10/25/2021 12:45:00 AM 10.41 50.738 0.05 6.73 2.79 10.88
10/25/2021 1:00:00 AM 10.42 50.756 0.048 6.73 2.1 10.87
10/25/2021 1:15:00 AM 10.43 50.774 0.048 6.75 2.39 10.87
10/25/2021 1:30:00 AM 10.43 50.774 0.049 6.73 2.8 10.86
10/25/2021 1:45:00 AM 10.44 50.792 0.048 6.74 3.36 10.86
10/25/2021 2:00:00 AM 10.45 50.81 0.05 6.69 2.25 10.86
10/25/2021 2:15:00 AM 10.46 50.828 0.05 6.74 5.02 10.86
10/25/2021 2:30:00 AM 10.47 50.846 0.045 6.74 3.52 10.85
10/25/2021 2:45:00 AM 10.48 50.864 0.05 6.73 1.99 10.85
10/25/2021 3:00:00 AM 10.48 50.864 0.046 6.72 2.11 10.85
10/25/2021 3:15:00 AM 10.49 50.882 0.05 6.76 2.72 10.84
10/25/2021 3:30:00 AM 10.5 50.9 0.048 6.71 3.54 10.84
10/25/2021 3:45:00 AM 10.5 50.9 0.048 6.73 2.97 10.84
10/25/2021 4:00:00 AM 10.49 50.882 0.049 6.71 2.14 10.83
10/25/2021 4:15:00 AM 10.49 50.882 0.05 6.7 1.99 10.84
10/25/2021 4:30:00 AM 10.48 50.864 0.05 6.71 2.35 10.84
10/25/2021 4:45:00 AM 10.47 50.846 0.05 6.7 2.44 10.84
10/25/2021 5:00:00 AM 10.46 50.828 0.05 6.73 2.36 10.85
10/25/2021 5:15:00 AM 10.44 50.792 0.05 6.72 2.37 10.85
10/25/2021 5:30:00 AM 10.43 50.774 0.05 6.69 3.53 10.85
10/25/2021 5:45:00 AM 10.42 50.756 0.048 6.71 2.5 10.86
10/25/2021 6:00:00 AM 10.4 50.72 0.05 6.73 3.06 10.86
10/25/2021 6:15:00 AM 10.39 50.702 0.05 6.72 2.9 10.87
10/25/2021 6:30:00 AM 10.37 50.666 0.05 6.71 3.21 10.87
10/25/2021 6:45:00 AM 10.36 50.648 0.05 6.71 2.33 10.87
10/25/2021 7:00:00 AM 10.34 50.612 0.046 6.72 2.99 10.88
10/25/2021 7:15:00 AM 10.32 50.576 0.05 6.73 2.29 10.88
10/25/2021 7:30:00 AM 10.3 50.54 0.048 6.72 2.89 10.89
10/25/2021 7:45:00 AM 10.29 50.522 0.048 6.71 4.36 10.9
10/25/2021 8:00:00 AM 10.27 50.486 0.048 6.72 2.69 10.92
10/25/2021 8:15:00 AM 10.26 50.468 0.044 6.71 3.15 10.94
10/25/2021 8:30:00 AM 10.24 50.432 0.047 6.72 2.91 10.95
10/25/2021 8:45:00 AM 10.23 50.414 0.051 6.75 3.09 10.97
10/25/2021 9:00:00 AM 10.22 50.396 0.045 6.73 4.31 11
10/25/2021 9:15:00 AM 10.21 50.378 0.051 6.73 4.16 11.02
10/25/2021 9:30:00 AM 10.23 50.414 0.05 6.76 2.95 11.08
10/25/2021 9:45:00 AM 10.26 50.468 0.048 6.77 2.28 11.12
10/25/2021 10:00:00 AM 10.3 50.54 0.042 6.78 3.56 11.14
10/25/2021 10:15:00 AM 10.35 50.63 0.049 6.8 2.53 11.15
10/25/2021 10:30:00 AM 10.41 50.738 0.05 6.8 1.91 11.15
10/25/2021 10:45:00 AM 10.47 50.846 0.05 6.68 2.45 11.14
10/25/2021 11:00:00 AM 10.56 51.008 0.05 6.8 2.59 11.13
10/25/2021 11:15:00 AM 10.67 51.206 0.05 6.81 2.15 11.12
10/25/2021 11:30:00 AM 10.81 51.458 0.05 6.83 4.37 11.1
10/25/2021 11:45:00 AM 10.98 51.764 0.05 6.85 2.83 11.07
10/25/2021 12:00:00 PM 11.15 52.07 0.048 6.87 3.6 11.04
10/25/2021 12:15:00 PM 11.34 52.412 0.05 6.88 2.19 11
10/25/2021 12:30:00 PM 11.52 52.736 0.047 6.91 3.14 10.96
10/25/2021 12:45:00 PM 11.67 53.006 0.05 6.9 2.85 10.93
10/25/2021 1:00:00 PM 11.81 53.258 0.048 6.9 3.73 10.88
10/25/2021 1:15:00 PM 11.92 53.456 0.048 6.83 1.94 10.83
10/25/2021 1:30:00 PM 12.01 53.618 0.046 6.91 2.43 10.79
10/25/2021 1:45:00 PM 12.07 53.726 0.044 6.91 2.63 10.77
10/25/2021 2:00:00 PM 12.11 53.798 0.049 6.89 2.42 10.74
10/25/2021 2:15:00 PM 12.13 53.834 0.041 6.91 2.96 10.71
10/25/2021 2:30:00 PM 12.15 53.87 0.049 6.89 3.16 10.68
10/25/2021 2:45:00 PM 12.17 53.906 0.049 6.89 1.85 10.65
10/25/2021 3:00:00 PM 12.19 53.942 0.049 6.88 3.39 10.64
10/25/2021 3:15:00 PM 12.24 54.032 0.048 6.87 1.97 10.63
10/25/2021 3:30:00 PM 12.26 54.068 0.042 6.86 3.05 10.6
10/25/2021 3:45:00 PM 12.31 54.158 0.049 6.87 3.66 10.63
10/25/2021 4:00:00 PM 12.34 54.212 0.043 6.88 2.72 10.62
10/25/2021 4:15:00 PM 12.37 54.266 0.049 6.89 2.38 10.6
10/25/2021 4:30:00 PM 12.39 54.302 0.049 6.88 2.11 10.55
10/25/2021 4:45:00 PM 12.4 54.32 0.049 6.85 2.06 10.54
10/25/2021 5:00:00 PM 12.4 54.32 0.049 6.84 2.63 10.5
10/25/2021 5:15:00 PM 12.41 54.338 0.044 6.82 2.32 10.46
10/25/2021 5:30:00 PM 12.41 54.338 0.049 6.81 2.75 10.43
10/25/2021 5:45:00 PM 12.41 54.338 0.049 6.8 3.14 10.4
10/25/2021 6:00:00 PM 12.4 54.32 0.049 6.78 2.62 10.36
10/25/2021 6:15:00 PM 12.38 54.284 0.048 6.76 3.32 10.33
10/25/2021 6:30:00 PM 12.36 54.248 0.049 6.75 2.8 10.32
10/25/2021 6:45:00 PM 12.35 54.23 0.05 6.75 4.62 10.31
10/25/2021 7:00:00 PM 12.34 54.212 0.048 6.74 3.04 10.3
10/25/2021 7:15:00 PM 12.33 54.194 0.049 6.74 3.48 10.3
10/25/2021 7:30:00 PM 12.32 54.176 0.037 6.73 2.67 10.3
10/25/2021 7:45:00 PM 12.31 54.158 0.049 6.72 2.83 10.3
10/25/2021 8:00:00 PM 12.31 54.158 0.045 6.72 5.68 10.29
10/25/2021 8:15:00 PM 12.3 54.14 0.043 6.72 3.26 10.3
10/25/2021 8:30:00 PM 12.3 54.14 0.047 6.72 2.54 10.29
10/25/2021 8:45:00 PM 12.3 54.14 0.041 6.71 3.08 10.29
10/25/2021 9:00:00 PM 12.3 54.14 0.044 6.7 2.88 10.29
10/25/2021 9:15:00 PM 12.31 54.158 0.042 6.7 2.7 10.29
10/25/2021 9:30:00 PM 12.32 54.176 0.044 6.71 2.68 10.28
10/25/2021 9:45:00 PM 12.32 54.176 0.04 6.7 3.11 10.28
10/25/2021 10:00:00 PM 12.33 54.194 0.043 6.69 2.34 10.28
10/25/2021 10:15:00 PM 12.34 54.212 0.045 6.69 2.48 10.28
10/25/2021 10:30:00 PM 12.35 54.23 0.046 6.69 2.63 10.27
10/25/2021 10:45:00 PM 12.36 54.248 0.044 6.69 2.86 10.27
10/25/2021 11:00:00 PM 12.38 54.284 0.046 6.69 3.51 10.26
10/25/2021 11:15:00 PM 12.39 54.302 0.049 6.68 2.96 10.25
10/25/2021 11:30:00 PM 12.41 54.338 0.041 6.68 2.71 10.24
10/25/2021 11:45:00 PM 12.42 54.356 0.048 6.7 3.1 10.24
10/26/2021 12:00:00 AM 12.43 54.374 0.048 6.72 3.27 10.24
10/26/2021 12:15:00 AM 12.44 54.392 0.049 6.73 3.81 10.23
10/26/2021 12:30:00 AM 12.45 54.41 0.049 6.75 2.8 10.22
10/26/2021 12:45:00 AM 12.46 54.428 0.048 6.75 2.77 10.22
10/26/2021 1:00:00 AM 12.46 54.428 0.047 6.74 2.66 10.21
10/26/2021 1:15:00 AM 12.46 54.428 0.047 6.74 2.21 10.21
10/26/2021 1:30:00 AM 12.47 54.446 0.041 6.75 2.81 10.21
10/26/2021 1:45:00 AM 12.47 54.446 0.047 6.74 2.53 10.2
10/26/2021 2:00:00 AM 12.47 54.446 0.047 6.73 2.15 10.2
10/26/2021 2:15:00 AM 12.48 54.464 0.047 6.74 2.14 10.2
10/26/2021 2:30:00 AM 12.48 54.464 0.043 6.73 3.2 10.2
10/26/2021 2:45:00 AM 12.48 54.464 0.042 6.73 2.85 10.19
10/26/2021 3:00:00 AM 12.48 54.464 0.039 6.73 3.06 10.19
10/26/2021 3:15:00 AM 12.49 54.482 0.039 6.73 3.2 10.19
10/26/2021 3:30:00 AM 12.49 54.482 0.042 6.73 3.25 10.19
10/26/2021 3:45:00 AM 12.49 54.482 0.047 6.73 3.36 10.19
10/26/2021 4:00:00 AM 12.5 54.5 0.047 6.72 2.17 10.19
10/26/2021 4:15:00 AM 12.5 54.5 0.045 6.72 3.19 10.18
10/26/2021 4:30:00 AM 12.51 54.518 0.049 6.69 3.36 10.19
10/26/2021 4:45:00 AM 12.51 54.518 0.048 6.73 2.84 10.18
10/26/2021 5:00:00 AM 12.51 54.518 0.05 6.72 2.69 10.18
10/26/2021 5:15:00 AM 12.52 54.536 0.048 6.71 3.45 10.18
10/26/2021 5:30:00 AM 12.52 54.536 0.05 6.71 3.16 10.18
10/26/2021 5:45:00 AM 12.52 54.536 0.05 6.71 2.33 10.18
10/26/2021 6:00:00 AM 12.53 54.554 0.05 6.69 2.57 10.18
10/26/2021 6:15:00 AM 12.53 54.554 0.039 6.69 3.01 10.18
10/26/2021 6:30:00 AM 12.54 54.572 0.048 6.69 2.29 10.18
10/26/2021 6:45:00 AM 12.54 54.572 0.041 6.69 2.75 10.17
10/26/2021 7:00:00 AM 12.55 54.59 0.05 6.71 2.68 10.17
10/26/2021 7:15:00 AM 12.56 54.608 0.05 6.68 2.77 10.17
10/26/2021 7:30:00 AM 12.56 54.608 0.05 6.68 3.49 10.16
10/26/2021 7:45:00 AM 12.57 54.626 0.049 6.68 3.23 10.16
10/26/2021 8:00:00 AM 12.58 54.644 0.046 6.68 2.57 10.16
10/26/2021 8:15:00 AM 12.59 54.662 0.047 6.69 2.7 10.16
10/26/2021 8:30:00 AM 12.6 54.68 0.048 6.69 2.86 10.18
10/26/2021 8:45:00 AM 12.61 54.698 0.047 6.7 2.62 10.19
10/26/2021 9:00:00 AM 12.62 54.716 0.045 6.71 3.19 10.2
10/26/2021 9:15:00 AM 12.64 54.752 0.05 6.71 2.55 10.21
10/26/2021 9:30:00 AM 12.65 54.77 0.05 6.7 3.27 10.21
10/26/2021 9:45:00 AM 12.66 54.788 0.05 6.71 2.39 10.21
10/26/2021 10:00:00 AM 12.68 54.824 0.044 6.72 3.57 10.2
10/26/2021 10:15:00 AM 12.7 54.86 0.05 6.76 3.03 10.21
10/26/2021 10:30:00 AM 12.71 54.878 0.05 6.74 2.32 10.21
10/26/2021 10:45:00 AM 12.73 54.914 0.05 6.75 89.45 10.19
10/26/2021 11:00:00 AM 12.74 54.932 0.049 6.69 3.24 10.21
10/26/2021 11:15:00 AM 12.76 54.968 0.047 6.78 3.56 10.24
10/26/2021 11:30:00 AM 12.78 55.004 0.049 6.79 2.59 10.26
10/26/2021 11:45:00 AM 12.8 55.04 0.049 6.81 4.1 10.24
10/26/2021 12:00:00 PM 12.82 55.076 0.05 6.83 4.73 10.25
10/26/2021 12:15:00 PM 12.84 55.112 0.05 6.84 4.22 10.23
10/26/2021 12:30:00 PM 12.84 55.112 0.046 6.84 4.25 10.24
10/26/2021 12:45:00 PM 12.85 55.13 0.05 6.84 3.94 10.26
10/26/2021 1:00:00 PM 12.85 55.13 0.05 6.85 4.39 10.24
10/26/2021 1:15:00 PM 12.83 55.094 0.049 6.82 3.75 10.23
10/26/2021 1:30:00 PM 12.81 55.058 0.049 6.86 4.95 10.23
10/26/2021 1:45:00 PM 12.78 55.004 0.049 6.84 5.44 10.23
10/26/2021 2:00:00 PM 12.75 54.95 0.049 6.86 5.48 10.23
10/26/2021 2:15:00 PM 12.71 54.878 0.047 6.84 6.32 10.24
10/26/2021 2:30:00 PM 12.67 54.806 0.048 6.84 6.89 10.26
10/26/2021 2:45:00 PM 12.63 54.734 0.047 6.84 5.39 10.27
10/26/2021 3:00:00 PM 12.6 54.68 0.039 6.83 5.01 10.29
10/26/2021 3:15:00 PM 12.57 54.626 0.039 6.85 5.62 10.32
10/26/2021 3:30:00 PM 12.54 54.572 0.047 6.83 5.41 10.34
10/26/2021 3:45:00 PM 12.52 54.536 0.044 6.85 5.61 10.36
10/26/2021 4:00:00 PM 12.49 54.482 0.047 6.88 4.83 10.37
10/26/2021 4:15:00 PM 12.47 54.446 0.043 6.84 5.61 10.38
10/26/2021 4:30:00 PM 12.43 54.374 0.047 6.83 5.32 10.39
10/26/2021 4:45:00 PM 12.39 54.302 0.047 6.83 5.08 10.38
10/26/2021 5:00:00 PM 12.35 54.23 0.044 6.82 5.09 10.37
10/26/2021 5:15:00 PM 12.31 54.158 0.047 6.83 7.2 10.36
10/26/2021 5:30:00 PM 12.26 54.068 0.047 6.8 6.13 10.36
10/26/2021 5:45:00 PM 12.22 53.996 0.043 6.81 5.5 10.36
10/26/2021 6:00:00 PM 12.18 53.924 0.047 6.79 6.05 10.35
10/26/2021 6:15:00 PM 12.13 53.834 0.046 6.77 5.56 10.35
10/26/2021 6:30:00 PM 12.09 53.762 0.047 6.77 5.93 10.35
10/26/2021 6:45:00 PM 12.05 53.69 0.044 6.76 6.15 10.35
10/26/2021 7:00:00 PM 12.01 53.618 0.044 6.75 5.63 10.36
10/26/2021 7:15:00 PM 11.96 53.528 0.044 6.74 5.81 10.38
10/26/2021 7:30:00 PM 11.92 53.456 0.044 6.77 5.08 10.39
10/26/2021 7:45:00 PM 11.88 53.384 0.04 6.74 5.51 10.4
10/26/2021 8:00:00 PM 11.84 53.312 0.039 6.72 5.53 10.41
10/26/2021 8:15:00 PM 11.8 53.24 0.043 6.73 4.96 10.41
10/26/2021 8:30:00 PM 11.76 53.168 0.043 6.72 5.35 10.44
10/26/2021 8:45:00 PM 11.72 53.096 0.044 6.72 4.79 10.45
10/26/2021 9:00:00 PM 11.68 53.024 0.043 6.7 4.83 10.45
10/26/2021 9:15:00 PM 11.64 52.952 0.046 6.7 4.41 10.47
10/26/2021 9:30:00 PM 11.61 52.898 0.038 6.71 5.56 10.49
10/26/2021 9:45:00 PM 11.57 52.826 0.046 6.67 3.77 10.49
10/26/2021 10:00:00 PM 11.53 52.754 0.044 6.69 4.79 10.5
10/26/2021 10:15:00 PM 11.5 52.7 0.042 6.7 4.84 10.52
10/26/2021 10:30:00 PM 11.47 52.646 0.046 6.68 3.64 10.52
10/26/2021 10:45:00 PM 11.44 52.592 0.043 6.68 4.46 10.54
10/26/2021 11:00:00 PM 11.41 52.538 0.042 6.69 4.3 10.55
10/26/2021 11:15:00 PM 11.38 52.484 0.043 6.68 5.39 10.55
10/26/2021 11:30:00 PM 11.35 52.43 0.042 6.68 4.97 10.56
10/26/2021 11:45:00 PM 11.32 52.376 0.039 6.67 4.58 10.57
10/27/2021 12:00:00 AM 11.29 52.322 0.045 6.66 5.32 10.58
10/27/2021 12:15:00 AM 11.27 52.286 0.045 6.68 4.5 10.59
10/27/2021 12:30:00 AM 11.24 52.232 0.039 6.66 4.33 10.6
10/27/2021 12:45:00 AM 11.22 52.196 0.044 6.63 4.71 10.61
10/27/2021 1:00:00 AM 11.19 52.142 0.042 6.65 5.02 10.62
10/27/2021 1:15:00 AM 11.17 52.106 0.04 6.66 3.84 10.63
10/27/2021 1:30:00 AM 11.15 52.07 0.039 6.65 4.73 10.63
10/27/2021 1:45:00 AM 11.17 52.106 0.044 6.65 4.95 10.63
10/27/2021 2:00:00 AM 11.19 52.142 0.042 6.6 4.23 10.62
10/27/2021 2:15:00 AM 11.23 52.214 0.043 6.67 4.55 10.62
10/27/2021 2:30:00 AM 11.26 52.268 0.044 6.64 4.01 10.61
10/27/2021 2:45:00 AM 11.29 52.322 0.044 6.63 3.79 10.61
10/27/2021 3:00:00 AM 11.3 52.34 0.044 6.63 3.88 10.6
10/27/2021 3:15:00 AM 11.3 52.34 0.044 6.62 4.22 10.6
10/27/2021 3:30:00 AM 11.3 52.34 0.043 6.63 3.67 10.6
10/27/2021 3:45:00 AM 11.31 52.358 0.04 6.62 6.09 10.59
10/27/2021 4:00:00 AM 11.31 52.358 0.042 6.62 3.25 10.59
10/27/2021 4:15:00 AM 11.32 52.376 0.043 6.6 4.43 10.6
10/27/2021 4:30:00 AM 11.32 52.376 0.043 6.6 3.8 10.6
10/27/2021 4:45:00 AM 11.33 52.394 0.041 6.61 3.57 10.6
10/27/2021 5:00:00 AM 11.35 52.43 0.043 6.59 3.77 10.6
10/27/2021 5:15:00 AM 11.36 52.448 0.041 6.6 4.86 10.6
10/27/2021 5:30:00 AM 11.38 52.484 0.042 6.57 3.91 10.61
10/27/2021 5:45:00 AM 11.4 52.52 0.043 6.63 3.51 10.59
10/27/2021 6:00:00 AM 11.41 52.538 0.043 6.61 4.04 10.59
10/27/2021 6:15:00 AM 11.43 52.574 0.037 6.59 3.76 10.6
10/27/2021 6:30:00 AM 11.44 52.592 0.035 6.6 3.72 10.58
10/27/2021 6:45:00 AM 11.45 52.61 0.035 6.61 3.87 10.58
10/27/2021 7:00:00 AM 11.46 52.628 0.043 6.6 3.21 10.6
10/27/2021 7:15:00 AM 11.46 52.628 0.041 6.6 3.24 10.6
10/27/2021 7:30:00 AM 11.46 52.628 0.04 6.61 4.32 10.59
10/27/2021 7:45:00 AM 11.47 52.646 0.034 6.6 3.48 10.59
10/27/2021 8:00:00 AM 11.47 52.646 0.04 6.61 3.32 10.61
10/27/2021 8:15:00 AM 11.47 52.646 0.043 6.61 4.18 10.6
10/27/2021 8:30:00 AM 11.47 52.646 0.035 6.65 3.63 10.62
10/27/2021 8:45:00 AM 11.48 52.664 0.041 6.62 3.51 10.63
10/27/2021 9:00:00 AM 11.48 52.664 0.043 6.63 3.73 10.66
10/27/2021 9:15:00 AM 11.48 52.664 0.042 6.63 4.24 10.67
10/27/2021 9:30:00 AM 11.49 52.682 0.043 6.64 3.39 10.69
10/27/2021 9:45:00 AM 11.5 52.7 0.041 6.65 3.8 10.7
10/27/2021 10:00:00 AM 11.51 52.718 0.043 6.64 4.31 10.7
10/27/2021 10:15:00 AM 11.52 52.736 0.038 6.64 3.96 10.7
10/27/2021 10:30:00 AM 11.54 52.772 0.043 6.66 3.91 10.72
10/27/2021 10:45:00 AM 11.56 52.808 0.04 6.66 3.1 10.74
10/27/2021 11:00:00 AM 11.58 52.844 0.041 6.67 2.96 10.75
10/27/2021 11:15:00 AM 11.63 52.934 0.042 6.68 3.61 10.75
10/27/2021 11:30:00 AM 11.68 53.024 0.043 6.69 3.8 10.77
10/27/2021 11:45:00 AM 11.76 53.168 0.041 6.7 4 10.75
10/27/2021 12:00:00 PM 11.88 53.384 0.041 6.71 3.65 10.74
10/27/2021 12:15:00 PM 11.98 53.564 0.041 6.71 3.65 10.73
10/27/2021 12:30:00 PM 12 53.6 0.043 6.71 3.66 10.71
10/27/2021 12:45:00 PM 12.09 53.762 0.04 6.72 3.3 10.71
10/27/2021 1:00:00 PM 12.18 53.924 0.041 6.72 3.42 10.69
10/27/2021 1:15:00 PM 12.18 53.924 0.039 6.75 3.47 10.68
10/27/2021 1:30:00 PM 12.17 53.906 0.036 6.71 3.72 10.68
10/27/2021 1:45:00 PM 12.19 53.942 0.039 6.72 3.53 10.68
10/27/2021 2:00:00 PM 12.18 53.924 0.043 6.69 2.99 10.66
10/27/2021 2:15:00 PM 12.17 53.906 0.043 6.7 2.72 10.65
10/27/2021 2:30:00 PM 12.16 53.888 0.043 6.69 4.07 10.62
10/27/2021 2:45:00 PM 12.15 53.87 0.043 6.67 2.9 10.6
10/27/2021 3:00:00 PM 12.13 53.834 0.039 6.66 3.42 10.58
10/27/2021 3:15:00 PM 12.11 53.798 0.043 6.67 4.22 10.57
10/27/2021 3:30:00 PM 12.08 53.744 0.043 6.66 4.92 10.57
10/27/2021 3:45:00 PM 12.05 53.69 0.036 6.68 3.35 10.56
10/27/2021 4:00:00 PM 12.03 53.654 0.043 6.67 3.98 10.55
10/27/2021 4:15:00 PM 12.01 53.618 0.043 6.67 3.83 10.54
10/27/2021 4:30:00 PM 11.99 53.582 0.033 6.67 3.19 10.54
10/27/2021 4:45:00 PM 11.97 53.546 0.042 6.65 3.26 10.54
10/27/2021 5:00:00 PM 11.95 53.51 0.043 6.64 3.55 10.54
10/27/2021 5:15:00 PM 11.94 53.492 0.041 6.62 3.3 10.53
10/27/2021 5:30:00 PM 11.91 53.438 0.043 6.63 3.45 10.53
10/27/2021 5:45:00 PM 11.89 53.402 0.044 6.62 3.16 10.52
10/27/2021 6:00:00 PM 11.87 53.366 0.042 6.61 3.31 10.52
10/27/2021 6:15:00 PM 11.84 53.312 0.043 6.61 2.58 10.52
10/27/2021 6:30:00 PM 11.81 53.258 0.041 6.62 3.67 10.53
10/27/2021 6:45:00 PM 11.79 53.222 0.04 6.6 3.57 10.53
10/27/2021 7:00:00 PM 11.78 53.204 0.044 6.59 3.6 10.52
10/27/2021 7:15:00 PM 11.75 53.15 0.042 6.62 2.96 10.55
10/27/2021 7:30:00 PM 11.72 53.096 0.044 6.61 4.5 10.54
10/27/2021 7:45:00 PM 11.69 53.042 0.04 6.6 3.87 10.57
10/27/2021 8:00:00 PM 11.67 53.006 0.044 6.6 3.77 10.58
10/27/2021 8:15:00 PM 11.64 52.952 0.043 6.53 3.86 10.56
10/27/2021 8:30:00 PM 11.61 52.898 0.042 6.6 2.77 10.58
10/27/2021 8:45:00 PM 11.58 52.844 0.044 6.61 3.59 10.6
10/27/2021 9:00:00 PM 11.54 52.772 0.042 6.43 4.46 10.6
10/27/2021 9:15:00 PM 11.51 52.718 0.044 6.59 5.05 10.6
10/27/2021 9:30:00 PM 11.47 52.646 0.042 6.59 3.61 10.6
10/27/2021 9:45:00 PM 11.44 52.592 0.042 6.59 2.81 10.61
10/27/2021 10:00:00 PM 11.4 52.52 0.042 6.6 3.26 10.62
10/27/2021 10:15:00 PM 11.36 52.448 0.044 6.62 3.58 10.64
10/27/2021 10:30:00 PM 11.32 52.376 0.044 6.61 2.29 10.64
10/27/2021 10:45:00 PM 11.28 52.304 0.043 6.58 2.52 10.66
10/27/2021 11:00:00 PM 11.24 52.232 0.044 6.6 3.7 10.67
10/27/2021 11:15:00 PM 11.2 52.16 0.044 6.59 3.66 10.68
10/27/2021 11:30:00 PM 11.15 52.07 0.044 6.59 3.53 10.7
10/27/2021 11:45:00 PM 11.12 52.016 0.041 6.6 3.45 10.71
10/28/2021 12:00:00 AM 11.07 51.926 0.041 6.59 3.29 10.72
10/28/2021 12:15:00 AM 11.03 51.854 0.044 6.59 5.23 10.73
10/28/2021 12:30:00 AM 10.99 51.782 0.044 6.59 4.46 10.73
10/28/2021 12:45:00 AM 10.95 51.71 0.039 6.59 3.6 10.74
10/28/2021 1:00:00 AM 10.9 51.62 0.04 6.58 3.04 10.75
10/28/2021 1:15:00 AM 10.86 51.548 0.044 6.59 3.38 10.77
10/28/2021 1:30:00 AM 10.82 51.476 0.044 6.6 3.73 10.78
10/28/2021 1:45:00 AM 10.77 51.386 0.044 6.6 3.58 10.8
10/28/2021 2:00:00 AM 10.73 51.314 0.042 6.59 2.45 10.81
10/28/2021 2:15:00 AM 10.68 51.224 0.044 6.59 3.5 10.82
10/28/2021 2:30:00 AM 10.63 51.134 0.039 6.59 2.66 10.83
10/28/2021 2:45:00 AM 10.59 51.062 0.043 6.6 3.36 10.85
10/28/2021 3:00:00 AM 10.54 50.972 0.042 6.57 3.58 10.86
10/28/2021 3:15:00 AM 10.49 50.882 0.042 6.56 3.04 10.87
10/28/2021 3:30:00 AM 10.44 50.792 0.044 6.55 3.87 10.88
10/28/2021 3:45:00 AM 10.39 50.702 0.042 6.58 2.45 10.89
10/28/2021 4:00:00 AM 10.35 50.63 0.044 6.59 2.48 10.91
10/28/2021 4:15:00 AM 10.3 50.54 0.044 6.57 2.9 10.92
10/28/2021 4:30:00 AM 10.25 50.45 0.044 6.57 2.17 10.94
10/28/2021 4:45:00 AM 10.2 50.36 0.045 6.59 2.53 10.95
10/28/2021 5:00:00 AM 10.15 50.27 0.045 6.58 2.52 10.97
10/28/2021 5:15:00 AM 10.1 50.18 0.04 6.58 3.03 10.98
10/28/2021 5:30:00 AM 10.04 50.072 0.045 6.59 2.16 10.99
10/28/2021 5:45:00 AM 10 50 0.044 6.6 3.02 11
10/28/2021 6:00:00 AM 9.95 49.91 0.044 6.59 2.25 11.01
10/28/2021 6:15:00 AM 9.89 49.802 0.045 6.58 4.48 11.03
10/28/2021 6:30:00 AM 9.84 49.712 0.045 6.57 3.35 11.04
10/28/2021 6:45:00 AM 9.79 49.622 0.039 6.57 3.25 11.06
10/28/2021 7:00:00 AM 9.74 49.532 0.036 6.59 3.13 11.08
10/28/2021 7:15:00 AM 9.68 49.424 0.045 6.57 3.05 11.09
10/28/2021 7:30:00 AM 9.63 49.334 0.045 6.57 2.56 11.11
10/28/2021 7:45:00 AM 9.59 49.262 0.044 6.55 2.51 11.13
10/28/2021 8:00:00 AM 9.54 49.172 0.045 6.52 3.55 11.15
10/28/2021 8:15:00 AM 9.5 49.1 0.045 6.54 2.5 11.18
10/28/2021 8:30:00 AM 9.46 49.028 0.042 6.55 3.49 11.2
10/28/2021 8:45:00 AM 9.44 48.992 0.044 6.55 3.6 11.23
10/28/2021 9:00:00 AM 9.42 48.956 0.045 6.57 2.99 11.26
10/28/2021 9:15:00 AM 9.41 48.938 0.045 6.58 2.82 11.28
10/28/2021 9:30:00 AM 9.41 48.938 0.045 6.59 3.24 11.3
10/28/2021 9:45:00 AM 9.43 48.974 0.033 6.61 2.95 11.31
10/28/2021 10:00:00 AM 9.46 49.028 0.045 6.63 2.67 11.33
10/28/2021 10:15:00 AM 9.5 49.1 0.045 6.57 2.39 11.33
10/28/2021 10:30:00 AM 9.55 49.19 0.037 6.64 3.14 11.34
10/28/2021 10:45:00 AM 9.61 49.298 0.045 6.66 4.12 11.33
10/28/2021 11:00:00 AM 9.69 49.442 0.042 6.66 2.21 11.32
10/28/2021 11:15:00 AM 9.8 49.64 0.041 6.68 2.89 11.3
10/28/2021 11:30:00 AM 9.92 49.856 0.044 6.69 2.22 11.29
10/28/2021 11:45:00 AM 10.05 50.09 0.045 6.69 2.03 11.27
10/28/2021 12:00:00 PM 10.19 50.342 0.045 6.7 2.99 11.25
10/28/2021 12:15:00 PM 10.32 50.576 0.045 6.72 2.36 11.21
10/28/2021 12:30:00 PM 10.45 50.81 0.036 6.72 2.7 11.18
10/28/2021 12:45:00 PM 10.56 51.008 0.045 6.72 2.07 11.16
10/28/2021 1:00:00 PM 10.64 51.152 0.044 6.73 2.7 11.14
10/28/2021 1:15:00 PM 10.69 51.242 0.036 6.74 2.79 11.11
10/28/2021 1:30:00 PM 10.72 51.296 0.045 6.74 2.11 11.1
10/28/2021 1:45:00 PM 10.74 51.332 0.042 6.73 2.64 11.09
10/28/2021 2:00:00 PM 10.77 51.386 0.045 6.74 2.42 11.07
10/28/2021 2:15:00 PM 10.79 51.422 0.042 6.72 2.76 11.04
10/28/2021 2:30:00 PM 10.82 51.476 0.045 6.75 3.2 11.02
10/28/2021 2:45:00 PM 10.85 51.53 0.045 6.73 1.96 11
10/28/2021 3:00:00 PM 10.88 51.584 0.045 6.72 3.67 10.97
10/28/2021 3:15:00 PM 10.9 51.62 0.036 6.72 3.18 10.96
10/28/2021 3:30:00 PM 10.91 51.638 0.045 6.71 3.77 10.93
10/28/2021 3:45:00 PM 10.91 51.638 0.045 6.73 3.89 10.91
10/28/2021 4:00:00 PM 10.91 51.638 0.045 6.69 2.13 10.9
10/28/2021 4:15:00 PM 10.9 51.62 0.044 6.68 2.17 10.89
10/28/2021 4:30:00 PM 10.9 51.62 0.045 6.68 2.05 10.88
10/28/2021 4:45:00 PM 10.9 51.62 0.045 6.68 2.33 10.88
10/28/2021 5:00:00 PM 10.91 51.638 0.045 6.67 2.28 10.91
10/28/2021 5:15:00 PM 10.92 51.656 0.044 6.69 2.21 10.9
10/28/2021 5:30:00 PM 10.92 51.656 0.045 6.68 1.97 10.86
10/28/2021 5:45:00 PM 10.91 51.638 0.045 6.66 2.15 10.82
10/28/2021 6:00:00 PM 10.91 51.638 0.045 6.65 2.01 10.79
10/28/2021 6:15:00 PM 10.9 51.62 0.045 6.64 3.16 10.77
10/28/2021 6:30:00 PM 10.89 51.602 0.046 6.64 2.56 10.77
10/28/2021 6:45:00 PM 10.89 51.602 0.046 6.65 2.54 10.76
10/28/2021 7:00:00 PM 10.89 51.602 0.043 6.62 2.58 10.76
10/28/2021 7:15:00 PM 10.89 51.602 0.043 6.61 2.81 10.75
10/28/2021 7:30:00 PM 10.89 51.602 0.043 6.62 2.74 10.75
10/28/2021 7:45:00 PM 10.9 51.62 0.046 6.64 2.4 10.75
10/28/2021 8:00:00 PM 10.89 51.602 0.046 6.63 2.92 10.75
10/28/2021 8:15:00 PM 10.89 51.602 0.046 6.64 2.39 10.75
10/28/2021 8:30:00 PM 10.88 51.584 0.043 6.62 2.78 10.75
10/28/2021 8:45:00 PM 10.87 51.566 0.046 6.62 3.29 10.75
10/28/2021 9:00:00 PM 10.86 51.548 0.046 6.62 2.76 10.75
10/28/2021 9:15:00 PM 10.85 51.53 0.046 6.63 3.36 10.76
10/28/2021 9:30:00 PM 10.83 51.494 0.046 6.63 3.44 10.76
10/28/2021 9:45:00 PM 10.81 51.458 0.043 6.63 2.86 10.77
10/28/2021 10:00:00 PM 10.79 51.422 0.046 6.63 3.25 10.78
10/28/2021 10:15:00 PM 10.77 51.386 0.046 6.63 2.98 10.79
10/28/2021 10:30:00 PM 10.74 51.332 0.045 6.62 2.94 10.79
10/28/2021 10:45:00 PM 10.72 51.296 0.045 6.63 2.89 10.8
10/28/2021 11:00:00 PM 10.71 51.278 0.046 6.58 4.36 10.8
10/28/2021 11:15:00 PM 10.7 51.26 0.045 6.41 3.71 10.81
10/28/2021 11:30:00 PM 10.69 51.242 0.046 6.62 2.12 10.81
10/28/2021 11:45:00 PM 10.68 51.224 0.046 6.55 2.9 10.81
10/29/2021 12:00:00 AM 10.69 51.242 0.046 6.62 3.62 10.81
10/29/2021 12:15:00 AM 10.69 51.242 0.046 6.62 3.15 10.81
10/29/2021 12:30:00 AM 10.7 51.26 0.038 6.63 3.6 10.81
10/29/2021 12:45:00 AM 10.7 51.26 0.046 6.64 3.49 10.81
10/29/2021 1:00:00 AM 10.71 51.278 0.044 6.62 2.27 10.81
10/29/2021 1:15:00 AM 10.71 51.278 0.037 6.63 2.83 10.8
10/29/2021 1:30:00 AM 10.72 51.296 0.045 6.63 2.99 10.8
10/29/2021 1:45:00 AM 10.73 51.314 0.038 6.64 2.75 10.79
10/29/2021 2:00:00 AM 10.74 51.332 0.041 6.63 3.3 10.8
10/29/2021 2:15:00 AM 10.75 51.35 0.038 6.64 2.92 10.79
10/29/2021 2:30:00 AM 10.76 51.368 0.045 6.64 4.1 10.79
10/29/2021 2:45:00 AM 10.77 51.386 0.046 6.65 3.58 10.78
10/29/2021 3:00:00 AM 10.77 51.386 0.044 6.65 2.29 10.78
10/29/2021 3:15:00 AM 10.78 51.404 0.044 6.64 2.31 10.78
10/29/2021 3:30:00 AM 10.78 51.404 0.043 6.64 2.84 10.78
10/29/2021 3:45:00 AM 10.78 51.404 0.045 6.64 3.11 10.78
10/29/2021 4:00:00 AM 10.79 51.422 0.039 6.64 3.28 10.77
10/29/2021 4:15:00 AM 10.79 51.422 0.044 6.65 2.47 10.77
10/29/2021 4:30:00 AM 10.79 51.422 0.037 6.67 3.03 10.77
10/29/2021 4:45:00 AM 10.78 51.404 0.044 6.65 2.34 10.77
10/29/2021 5:00:00 AM 10.77 51.386 0.045 6.65 3.07 10.77
10/29/2021 5:15:00 AM 10.77 51.386 0.041 6.65 2.87 10.78
10/29/2021 5:30:00 AM 10.77 51.386 0.045 6.65 3.07 10.78
10/29/2021 5:45:00 AM 10.76 51.368 0.039 6.65 3.67 10.78
10/29/2021 6:00:00 AM 10.76 51.368 0.045 6.65 3.42 10.78
10/29/2021 6:15:00 AM 10.75 51.35 0.035 6.65 2.83 10.78
10/29/2021 6:30:00 AM 10.75 51.35 0.046 6.65 2.97 10.78
10/29/2021 6:45:00 AM 10.74 51.332 0.046 6.66 2.78 10.78
10/29/2021 7:00:00 AM 10.73 51.314 0.044 6.65 2.99 10.78
10/29/2021 7:15:00 AM 10.72 51.296 0.043 6.69 3.07 10.79
10/29/2021 7:30:00 AM 10.71 51.278 0.044 6.66 2.71 10.79
10/29/2021 7:45:00 AM 10.71 51.278 0.042 6.66 2.64 10.8
10/29/2021 8:00:00 AM 10.7 51.26 0.046 6.66 3.72 10.8
10/29/2021 8:15:00 AM 10.69 51.242 0.043 6.66 2.72 10.81
10/29/2021 8:30:00 AM 10.69 51.242 0.042 6.67 3.12 10.83
10/29/2021 8:45:00 AM 10.68 51.224 0.044 6.67 3.06 10.84
10/29/2021 9:00:00 AM 10.67 51.206 0.043 6.68 2.86 10.85
10/29/2021 9:15:00 AM 10.67 51.206 0.046 6.71 3.12 10.89
10/29/2021 9:30:00 AM 10.67 51.206 0.044 6.71 3.38 10.96
10/29/2021 9:45:00 AM 10.68 51.224 0.046 6.72 3.9 10.99
10/29/2021 10:00:00 AM 10.69 51.242 0.041 6.75 2.94 11.02
10/29/2021 10:15:00 AM 10.69 51.242 0.044 6.75 2.45 11.03
10/29/2021 10:30:00 AM 10.71 51.278 0.042 6.76 2.61 11.05
10/29/2021 10:45:00 AM 10.74 51.332 0.039 6.77 2.81 11.06
10/29/2021 11:00:00 AM 10.78 51.404 0.043 6.78 2.77 11.07
10/29/2021 11:15:00 AM 10.8 51.44 0.046 6.79 3.31 11.06
10/29/2021 11:30:00 AM 10.8 51.44 0.043 6.79 2.38 11.05
10/29/2021 11:45:00 AM 10.8 51.44 0.046 6.79 1.99 11.04
10/29/2021 12:00:00 PM 10.81 51.458 0.046 6.79 3.03 11.03
10/29/2021 12:15:00 PM 10.83 51.494 0.039 6.79 2.88 11.03
10/29/2021 12:30:00 PM 10.87 51.566 0.041 6.81 3.14 11.04
10/29/2021 12:45:00 PM 10.94 51.692 0.042 6.81 3.55 11.04
10/29/2021 1:00:00 PM 10.98 51.764 0.042 6.83 3.59 11.03
10/29/2021 1:15:00 PM 10.99 51.782 0.046 6.85 2.66 11.01
10/29/2021 1:30:00 PM 10.98 51.764 0.044 6.83 3.69 10.98
10/29/2021 1:45:00 PM 10.98 51.764 0.04 6.8 2.73 10.95
10/29/2021 2:00:00 PM 10.96 51.728 0.035 6.79 3.48 10.92
10/29/2021 2:15:00 PM 10.94 51.692 0.043 6.78 3.49 10.9
10/29/2021 2:30:00 PM 10.91 51.638 0.046 6.77 2.59 10.87
10/29/2021 2:45:00 PM 10.9 51.62 0.045 6.76 3.52 10.87
10/29/2021 3:00:00 PM 10.88 51.584 0.043 6.76 3.64 10.88
10/29/2021 3:15:00 PM 10.87 51.566 0.045 6.75 3.39 10.84
10/29/2021 3:30:00 PM 10.86 51.548 0.041 6.74 3.19 10.84
10/29/2021 3:45:00 PM 10.84 51.512 0.044 6.74 2.7 10.81
10/29/2021 4:00:00 PM 10.82 51.476 0.039 6.75 2.77 10.81
10/29/2021 4:15:00 PM 10.8 51.44 0.042 6.74 2.54 10.81
10/29/2021 4:30:00 PM 10.79 51.422 0.046 6.73 2.49 10.81
10/29/2021 4:45:00 PM 10.77 51.386 0.046 6.7 3.71 10.79
10/29/2021 5:00:00 PM 10.75 51.35 0.042 6.72 2.82 10.76
10/29/2021 5:15:00 PM 10.72 51.296 0.043 6.71 2.55 10.74
10/29/2021 5:30:00 PM 10.7 51.26 0.046 6.7 2.48 10.74
10/29/2021 5:45:00 PM 10.68 51.224 0.039 6.7 3.36 10.73
10/29/2021 6:00:00 PM 10.66 51.188 0.04 6.69 3.13 10.73
10/29/2021 6:15:00 PM 10.63 51.134 0.04 6.69 2.97 10.73
10/29/2021 6:30:00 PM 10.6 51.08 0.043 6.68 2.52 10.72
10/29/2021 6:45:00 PM 10.59 51.062 0.045 6.66 3.42 10.73
10/29/2021 7:00:00 PM 10.55 50.99 0.043 6.68 3.18 10.74
10/29/2021 7:15:00 PM 10.53 50.954 0.043 6.68 2.42 10.74
10/29/2021 7:30:00 PM 10.51 50.918 0.044 6.68 3.88 10.74
10/29/2021 7:45:00 PM 10.48 50.864 0.045 6.68 3 10.75
10/29/2021 8:00:00 PM 10.44 50.792 0.044 6.68 3.71 10.77
10/29/2021 8:15:00 PM 10.42 50.756 0.04 6.7 4.69 10.78
10/29/2021 8:30:00 PM 10.43 50.774 0.04 6.74 9.47 10.78
10/29/2021 8:45:00 PM 10.43 50.774 0.047 6.78 19.27 10.79
10/29/2021 9:00:00 PM 10.42 50.756 0.043 6.77 26.39 10.81
10/29/2021 9:15:00 PM 10.43 50.774 0.039 6.78 22.94 10.82
10/29/2021 9:30:00 PM 10.44 50.792 0.044 6.78 28.09 10.83
10/29/2021 9:45:00 PM 10.45 50.81 0.043 6.76 28.91 10.83
10/29/2021 10:00:00 PM 10.48 50.864 0.043 6.75 28.18 10.82
10/29/2021 10:15:00 PM 10.48 50.864 0.043 6.75 27.94 10.83
10/29/2021 10:30:00 PM 10.49 50.882 0.045 6.73 23.55 10.84
10/29/2021 10:45:00 PM 10.49 50.882 0.043 6.72 22.15 10.84
10/29/2021 11:00:00 PM 10.49 50.882 0.044 6.72 21.19 10.84
10/29/2021 11:15:00 PM 10.48 50.864 0.042 6.7 21.58 10.85
10/29/2021 11:30:00 PM 10.46 50.828 0.042 6.69 17.37 10.86
10/29/2021 11:45:00 PM 10.43 50.774 0.043 6.68 18.77 10.86
10/30/2021 12:00:00 AM 10.41 50.738 0.04 6.68 19.34 10.86
10/30/2021 12:15:00 AM 10.41 50.738 0.04 6.67 17.95 10.86
10/30/2021 12:30:00 AM 10.4 50.72 0.04 6.67 16.34 10.86
10/30/2021 12:45:00 AM 10.41 50.738 0.042 6.69 11.91 10.86
10/30/2021 1:00:00 AM 10.41 50.738 0.042 6.69 14.78 10.86
10/30/2021 1:15:00 AM 10.41 50.738 0.043 6.66 15.3 10.86
10/30/2021 1:30:00 AM 10.41 50.738 0.039 6.66 20.36 10.85
10/30/2021 1:45:00 AM 10.41 50.738 0.04 6.66 14.25 10.85
10/30/2021 2:00:00 AM 10.4 50.72 0.039 6.64 14.21 10.85
10/30/2021 2:15:00 AM 10.4 50.72 0.042 6.62 12.53 10.85
10/30/2021 2:30:00 AM 10.4 50.72 0.041 6.62 12.74 10.85
10/30/2021 2:45:00 AM 10.4 50.72 0.038 6.61 12.42 10.85
10/30/2021 3:00:00 AM 10.39 50.702 0.038 6.61 11.03 10.86
10/30/2021 3:15:00 AM 10.4 50.72 0.036 6.62 11.12 10.85
10/30/2021 3:30:00 AM 10.39 50.702 0.042 6.6 10.66 10.85
10/30/2021 3:45:00 AM 10.39 50.702 0.041 6.57 9.93 10.85
10/30/2021 4:00:00 AM 10.39 50.702 0.034 6.58 9.34 10.86
10/30/2021 4:15:00 AM 10.39 50.702 0.039 6.55 9.57 10.85
10/30/2021 4:30:00 AM 10.39 50.702 0.04 6.57 9.4 10.85
10/30/2021 4:45:00 AM 10.39 50.702 0.04 6.57 9.21 10.85
10/30/2021 5:00:00 AM 10.39 50.702 0.039 6.55 8.17 10.84
10/30/2021 5:15:00 AM 10.39 50.702 0.036 6.55 8.08 10.85
10/30/2021 5:30:00 AM 10.39 50.702 0.036 6.55 8.21 10.84
10/30/2021 5:45:00 AM 10.39 50.702 0.041 6.56 7.75 10.85
10/30/2021 6:00:00 AM 10.39 50.702 0.039 6.56 7.29 10.84
10/30/2021 6:15:00 AM 10.4 50.72 0.039 6.54 7.14 10.84
10/30/2021 6:30:00 AM 10.4 50.72 0.039 6.55 7.05 10.84
10/30/2021 6:45:00 AM 10.41 50.738 0.035 6.55 6.67 10.84
10/30/2021 7:00:00 AM 10.41 50.738 0.041 6.55 6.95 10.84
10/30/2021 7:15:00 AM 10.42 50.756 0.041 6.54 7.16 10.84
10/30/2021 7:30:00 AM 10.42 50.756 0.038 6.54 6.43 10.83
10/30/2021 7:45:00 AM 10.43 50.774 0.036 6.53 6.35 10.84
10/30/2021 8:00:00 AM 10.44 50.792 0.041 6.54 6.13 10.84
10/30/2021 8:15:00 AM 10.45 50.81 0.041 6.54 6.94 10.83
10/30/2021 8:30:00 AM 10.46 50.828 0.04 6.53 6.9 10.84
10/30/2021 8:45:00 AM 10.48 50.864 0.041 6.57 7.36 10.85
10/30/2021 9:00:00 AM 10.5 50.9 0.041 6.54 5.51 10.86
10/30/2021 9:15:00 AM 10.52 50.936 0.038 6.54 5.63 10.86
10/30/2021 9:30:00 AM 10.53 50.954 0.04 6.58 6.12 10.85
10/30/2021 9:45:00 AM 10.55 50.99 0.038 6.55 5.98 10.85
10/30/2021 10:00:00 AM 10.58 51.044 0.035 6.56 5.66 10.86
10/30/2021 10:15:00 AM 10.6 51.08 0.038 6.55 6.12 10.84
10/30/2021 10:30:00 AM 10.61 51.098 0.04 6.55 5.78 10.83
10/30/2021 10:45:00 AM 10.63 51.134 0.037 6.55 5.76 10.83
10/30/2021 11:00:00 AM 10.66 51.188 0.039 6.56 5.74 10.84
10/30/2021 11:15:00 AM 10.69 51.242 0.038 6.56 5.41 10.84
10/30/2021 11:30:00 AM 10.71 51.278 0.039 6.53 5.73 10.82
10/30/2021 11:45:00 AM 10.73 51.314 0.04 6.55 4.72 10.83
10/30/2021 12:00:00 PM 10.76 51.368 0.04 6.56 5.25 10.81
10/30/2021 12:15:00 PM 10.78 51.404 0.04 6.56 5.16 10.81
10/30/2021 12:30:00 PM 10.82 51.476 0.04 6.56 4.73 10.81
10/30/2021 12:45:00 PM 10.84 51.512 0.04 6.56 5.61 10.79
10/30/2021 1:00:00 PM 10.86 51.548 0.04 6.57 4.61 10.78
10/30/2021 1:15:00 PM 10.88 51.584 0.04 6.5 5.07 10.77
10/30/2021 1:30:00 PM 10.91 51.638 0.041 6.57 6.59 10.77
10/30/2021 1:45:00 PM 10.94 51.692 0.041 6.56 5.63 10.76
10/30/2021 2:00:00 PM 10.96 51.728 0.038 6.57 5.44 10.75
10/30/2021 2:15:00 PM 11 51.8 0.035 6.55 5.55 10.75
10/30/2021 2:30:00 PM 11.03 51.854 0.035 6.56 6.28 10.76
10/30/2021 2:45:00 PM 11.08 51.944 0.038 6.57 4.82 10.76
10/30/2021 3:00:00 PM 11.12 52.016 0.038 6.58 5.07 10.76
10/30/2021 3:15:00 PM 11.14 52.052 0.038 6.57 4.99 10.73
10/30/2021 3:30:00 PM 11.18 52.124 0.033 6.56 4.89 10.73
10/30/2021 3:45:00 PM 11.19 52.142 0.039 6.58 5.15 10.7
10/30/2021 4:00:00 PM 11.22 52.196 0.036 6.56 5.29 10.71
10/30/2021 4:15:00 PM 11.25 52.25 0.035 6.56 5.68 10.7
10/30/2021 4:30:00 PM 11.28 52.304 0.038 6.57 5.17 10.7
10/30/2021 4:45:00 PM 11.3 52.34 0.038 6.58 4.8 10.68
10/30/2021 5:00:00 PM 11.32 52.376 0.031 6.55 5.55 10.68
10/30/2021 5:15:00 PM 11.33 52.394 0.038 6.58 5.32 10.67
10/30/2021 5:30:00 PM 11.32 52.376 0.038 6.54 5.91 10.64
10/30/2021 5:45:00 PM 11.32 52.376 0.04 6.54 5.43 10.65
10/30/2021 6:00:00 PM 11.31 52.358 0.04 6.53 6.3 10.64
10/30/2021 6:15:00 PM 11.31 52.358 0.04 6.54 4.51 10.63
10/30/2021 6:30:00 PM 11.31 52.358 0.036 6.53 5.86 10.62
10/30/2021 6:45:00 PM 11.3 52.34 0.04 6.53 5.5 10.63
10/30/2021 7:00:00 PM 11.29 52.322 0.041 6.54 6.68 10.63
10/30/2021 7:15:00 PM 11.28 52.304 0.041 6.51 5.06 10.64
10/30/2021 7:30:00 PM 11.27 52.286 0.041 6.53 5.7 10.63
10/30/2021 7:45:00 PM 11.26 52.268 0.034 6.51 5.8 10.63
10/30/2021 8:00:00 PM 11.25 52.25 0.038 6.53 5.42 10.64
10/30/2021 8:15:00 PM 11.24 52.232 0.037 6.53 6.12 10.64
10/30/2021 8:30:00 PM 11.23 52.214 0.039 6.54 6.92 10.65
10/30/2021 8:45:00 PM 11.22 52.196 0.041 6.48 5.79 10.65
10/30/2021 9:00:00 PM 11.21 52.178 0.041 6.5 6.19 10.65
10/30/2021 9:15:00 PM 11.2 52.16 0.039 6.52 5.13 10.66
10/30/2021 9:30:00 PM 11.18 52.124 0.035 6.51 5.34 10.65
10/30/2021 9:45:00 PM 11.17 52.106 0.041 6.51 5.06 10.66
10/30/2021 10:00:00 PM 11.16 52.088 0.039 6.51 4.83 10.66
10/30/2021 10:15:00 PM 11.15 52.07 0.041 6.45 4.42 10.67
10/30/2021 10:30:00 PM 11.13 52.034 0.035 6.5 7.35 10.67
10/30/2021 10:45:00 PM 11.12 52.016 0.039 6.5 4.53 10.67
10/30/2021 11:00:00 PM 11.1 51.98 0.04 6.48 4.03 10.67
10/30/2021 11:15:00 PM 11.09 51.962 0.04 6.5 5 10.67
10/30/2021 11:30:00 PM 11.07 51.926 0.034 6.5 4.8 10.68
10/30/2021 11:45:00 PM 11.06 51.908 0.034 6.5 4.62 10.67
10/31/2021 12:00:00 AM 11.03 51.854 0.041 6.49 5.26 10.68
10/31/2021 12:15:00 AM 11.01 51.818 0.035 6.49 4.76 10.68
10/31/2021 12:30:00 AM 10.99 51.782 0.041 6.49 6.55 10.69
10/31/2021 12:45:00 AM 10.97 51.746 0.041 6.47 5.01 10.69
10/31/2021 1:00:00 AM 10.95 51.71 0.041 6.48 6.5 10.7
10/31/2021 1:15:00 AM 10.93 51.674 0.04 6.48 4.81 10.7
10/31/2021 1:30:00 AM 10.91 51.638 0.039 6.49 4.6 10.71
10/31/2021 1:45:00 AM 10.89 51.602 0.034 6.49 5.46 10.71
10/31/2021 2:00:00 AM 10.87 51.566 0.039 6.47 4.16 10.71
10/31/2021 2:15:00 AM 10.84 51.512 0.036 6.47 4.39 10.72
10/31/2021 2:30:00 AM 10.82 51.476 0.041 6.45 4.99 10.72
10/31/2021 2:45:00 AM 10.8 51.44 0.038 6.48 4.35 10.73
10/31/2021 3:00:00 AM 10.78 51.404 0.034 6.48 4.6 10.73
10/31/2021 3:15:00 AM 10.76 51.368 0.039 6.48 5.1 10.74
10/31/2021 3:30:00 AM 10.75 51.35 0.034 6.5 4.59 10.74
10/31/2021 3:45:00 AM 10.72 51.296 0.041 6.48 3.91 10.75
10/31/2021 4:00:00 AM 10.7 51.26 0.041 6.44 4.5 10.75
10/31/2021 4:15:00 AM 10.68 51.224 0.041 6.5 3.65 10.75
10/31/2021 4:30:00 AM 10.66 51.188 0.039 6.49 4.77 10.76
10/31/2021 4:45:00 AM 10.64 51.152 0.033 6.5 7.88 10.76
10/31/2021 5:00:00 AM 10.63 51.134 0.032 6.49 6.2 10.77
10/31/2021 5:15:00 AM 10.61 51.098 0.036 6.49 4.28 10.78
10/31/2021 5:30:00 AM 10.59 51.062 0.041 6.49 4.65 10.78
10/31/2021 5:45:00 AM 10.58 51.044 0.041 6.49 4.54 10.79
10/31/2021 6:00:00 AM 10.57 51.026 0.036 6.48 4.17 10.78
10/31/2021 6:15:00 AM 10.55 50.99 0.034 6.49 5.53 10.79
10/31/2021 6:30:00 AM 10.54 50.972 0.041 6.5 5.34 10.8
10/31/2021 6:45:00 AM 10.52 50.936 0.04 6.49 4.7 10.81
10/31/2021 7:00:00 AM 10.51 50.918 0.039 6.5 3.68 10.81
10/31/2021 7:15:00 AM 10.49 50.882 0.041 6.5 5.24 10.81
10/31/2021 7:30:00 AM 10.48 50.864 0.041 6.5 5.28 10.82
10/31/2021 7:45:00 AM 10.46 50.828 0.037 6.48 4.29 10.83
10/31/2021 8:00:00 AM 10.45 50.81 0.038 6.5 3.93 10.83
10/31/2021 8:15:00 AM 10.44 50.792 0.036 6.48 4.89 10.85
10/31/2021 8:30:00 AM 10.44 50.792 0.041 6.51 4.63 10.86
10/31/2021 8:45:00 AM 10.44 50.792 0.041 6.52 3.63 10.87
10/31/2021 9:00:00 AM 10.45 50.81 0.041 6.51 4.69 10.87
10/31/2021 9:15:00 AM 10.46 50.828 0.041 6.49 4.88 10.9
10/31/2021 9:30:00 AM 10.47 50.846 0.039 6.51 3.47 10.89
10/31/2021 9:45:00 AM 10.5 50.9 0.033 6.52 4.07 10.91
10/31/2021 10:00:00 AM 10.51 50.918 0.039 6.53 4.05 10.88
10/31/2021 10:15:00 AM 10.53 50.954 0.032 6.52 3.97 10.88
10/31/2021 10:30:00 AM 10.55 50.99 0.034 6.54 4.18 10.88
10/31/2021 10:45:00 AM 10.57 51.026 0.041 6.53 3.97 10.89
10/31/2021 11:00:00 AM 10.61 51.098 0.041 6.54 4.28 10.89
10/31/2021 11:15:00 AM 10.65 51.17 0.033 6.56 3.9 10.9
10/31/2021 11:30:00 AM 10.68 51.224 0.041 6.55 4.03 10.89
10/31/2021 11:45:00 AM 10.72 51.296 0.039 6.57 4.1 10.89
10/31/2021 12:00:00 PM 10.78 51.404 0.041 6.58 4 10.9
10/31/2021 12:15:00 PM 10.82 51.476 0.039 6.59 3.74 10.89
10/31/2021 12:30:00 PM 10.86 51.548 0.041 6.59 4.59 10.88
10/31/2021 12:45:00 PM 10.89 51.602 0.041 6.61 3.87 10.85
10/31/2021 1:00:00 PM 10.97 51.746 0.036 6.6 4.39 10.86
10/31/2021 1:15:00 PM 11.05 51.89 0.039 6.61 4.44 10.84
10/31/2021 1:30:00 PM 11.08 51.944 0.041 6.61 5.24 10.83
10/31/2021 1:45:00 PM 11.15 52.07 0.041 6.64 4.96 10.84
10/31/2021 2:00:00 PM 11.23 52.214 0.041 6.63 5.43 10.82
10/31/2021 2:15:00 PM 11.27 52.286 0.041 6.61 4.81 10.77
10/31/2021 2:30:00 PM 11.31 52.358 0.041 6.61 4.53 10.77
10/31/2021 2:45:00 PM 11.32 52.376 0.041 6.64 4.34 10.76
10/31/2021 3:00:00 PM 11.35 52.43 0.035 6.66 4.55 10.74
10/31/2021 3:15:00 PM 11.36 52.448 0.037 6.62 4.12 10.72
10/31/2021 3:30:00 PM 11.38 52.484 0.042 6.62 4.36 10.73
10/31/2021 3:45:00 PM 11.42 52.556 0.037 6.56 3.23 10.74
10/31/2021 4:00:00 PM 11.43 52.574 0.039 6.61 3.06 10.69
10/31/2021 4:15:00 PM 11.44 52.592 0.035 6.61 4.21 10.7
10/31/2021 4:30:00 PM 11.45 52.61 0.042 6.61 5.15 10.69
10/31/2021 4:45:00 PM 11.47 52.646 0.035 6.61 3.69 10.68
10/31/2021 5:00:00 PM 11.48 52.664 0.042 6.61 3.24 10.68
10/31/2021 5:15:00 PM 11.49 52.682 0.037 6.6 6.34 10.66
10/31/2021 5:30:00 PM 11.48 52.664 0.04 6.6 3.21 10.65
10/31/2021 5:45:00 PM 11.48 52.664 0.039 6.59 3.92 10.63
10/31/2021 6:00:00 PM 11.48 52.664 0.04 6.59 3.84 10.61
10/31/2021 6:15:00 PM 11.48 52.664 0.04 6.56 3.55 10.62
10/31/2021 6:30:00 PM 11.48 52.664 0.042 6.59 4.32 10.62
10/31/2021 6:45:00 PM 11.49 52.682 0.036 6.57 4.7 10.62
10/31/2021 7:00:00 PM 11.48 52.664 0.042 6.59 4.31 10.63
10/31/2021 7:15:00 PM 11.48 52.664 0.042 6.56 4.45 10.63
10/31/2021 7:30:00 PM 11.47 52.646 0.042 6.59 2.89 10.62
10/31/2021 7:45:00 PM 11.46 52.628 0.042 6.56 4.44 10.63
10/31/2021 8:00:00 PM 11.44 52.592 0.042 6.56 3.52 10.64
10/31/2021 8:15:00 PM 11.42 52.556 0.042 6.58 3.14 10.64
10/31/2021 8:30:00 PM 11.39 52.502 0.038 6.55 3.67 10.64
10/31/2021 8:45:00 PM 11.36 52.448 0.041 6.55 4.02 10.66
10/31/2021 9:00:00 PM 11.33 52.394 0.042 6.55 3.59 10.67
10/31/2021 9:15:00 PM 11.3 52.34 0.04 6.56 4.8 10.68
10/31/2021 9:30:00 PM 11.27 52.286 0.033 6.56 3.67 10.69
10/31/2021 9:45:00 PM 11.24 52.232 0.041 6.56 4.13 10.7
10/31/2021 10:00:00 PM 11.21 52.178 0.04 6.55 3.39 10.71
10/31/2021 10:15:00 PM 11.18 52.124 0.041 6.55 3.51 10.72
10/31/2021 10:30:00 PM 11.14 52.052 0.041 6.55 3.99 10.73
10/31/2021 10:45:00 PM 11.1 51.98 0.042 6.57 4.47 10.74
10/31/2021 11:00:00 PM 11.06 51.908 0.041 6.55 3.79 10.75
10/31/2021 11:15:00 PM 11.02 51.836 0.033 6.55 4.39 10.76
10/31/2021 11:30:00 PM 10.98 51.764 0.039 6.55 4.13 10.77
10/31/2021 11:45:00 PM 10.93 51.674 0.042 6.4 4.72 10.78
11/1/2021 12:00:00 AM 10.88 51.584 0.042 6.56 3.13 10.8
11/1/2021 12:15:00 AM 10.84 51.512 0.04 6.55 3.63 10.81
11/1/2021 12:30:00 AM 10.8 51.44 0.04 6.55 3.87 10.82
11/1/2021 12:45:00 AM 10.76 51.368 0.042 6.55 3.24 10.84
11/1/2021 1:00:00 AM 10.71 51.278 0.041 6.54 4.78 10.85
11/1/2021 1:15:00 AM 10.67 51.206 0.042 6.54 4.31 10.86
11/1/2021 1:30:00 AM 10.62 51.116 0.04 6.55 3.63 10.87
11/1/2021 1:45:00 AM 10.57 51.026 0.04 6.55 3.68 10.88
11/1/2021 2:00:00 AM 10.53 50.954 0.04 6.55 3.9 10.89
11/1/2021 2:15:00 AM 10.48 50.864 0.04 6.54 3.65 10.9
11/1/2021 2:30:00 AM 10.44 50.792 0.038 6.53 3.7 10.92
11/1/2021 2:45:00 AM 10.39 50.702 0.042 6.57 4.41 10.93
11/1/2021 3:00:00 AM 10.34 50.612 0.042 6.56 3.79 10.95
11/1/2021 3:15:00 AM 10.29 50.522 0.041 6.55 5.09 10.95
11/1/2021 3:30:00 AM 10.25 50.45 0.041 6.52 4.85 10.97
11/1/2021 3:45:00 AM 10.21 50.378 0.039 6.51 3.6 10.99
11/1/2021 4:00:00 AM 10.18 50.324 0.041 6.51 3.44 11
11/1/2021 4:15:00 AM 10.14 50.252 0.039 6.52 3.09 11.01
11/1/2021 4:30:00 AM 10.11 50.198 0.042 6.52 3.34 11.02
11/1/2021 4:45:00 AM 10.08 50.144 0.042 6.51 4.29 11.03
11/1/2021 5:00:00 AM 10.05 50.09 0.042 6.49 2.97 11.03
11/1/2021 5:15:00 AM 10.02 50.036 0.042 6.49 2.83 11.05
11/1/2021 5:30:00 AM 9.98 49.964 0.042 6.52 3.43 11.06
11/1/2021 5:45:00 AM 9.95 49.91 0.04 6.51 4.04 11.07
11/1/2021 6:00:00 AM 9.92 49.856 0.042 6.52 3.24 11.08
11/1/2021 6:15:00 AM 9.9 49.82 0.042 6.55 2.46 11.09
11/1/2021 6:30:00 AM 9.88 49.784 0.04 6.52 3.85 11.1
11/1/2021 6:45:00 AM 9.86 49.748 0.041 6.53 3.9 11.12
11/1/2021 7:00:00 AM 9.86 49.748 0.033 6.55 3.3 11.12
11/1/2021 7:15:00 AM 9.86 49.748 0.034 6.54 3.27 11.13
11/1/2021 7:30:00 AM 9.86 49.748 0.04 6.55 3.16 11.13
11/1/2021 7:45:00 AM 9.88 49.784 0.032 6.56 3.28 11.13
11/1/2021 8:00:00 AM 9.89 49.802 0.034 6.57 4.66 11.14
11/1/2021 8:15:00 AM 9.89 49.802 0.042 6.57 3.27 11.15
11/1/2021 8:30:00 AM 9.88 49.784 0.039 6.57 4.49 11.17
11/1/2021 8:45:00 AM 9.89 49.802 0.04 6.59 3.4 11.19
11/1/2021 9:00:00 AM 9.91 49.838 0.039 6.61 3 11.22
11/1/2021 9:15:00 AM 9.92 49.856 0.041 6.61 2.84 11.23
11/1/2021 9:30:00 AM 9.93 49.874 0.042 6.6 4.67 11.23
11/1/2021 9:45:00 AM 9.95 49.91 0.042 6.61 3.81 11.23
11/1/2021 10:00:00 AM 9.97 49.946 0.04 6.62 3.55 11.25
11/1/2021 10:15:00 AM 9.99 49.982 0.042 6.49 3.38 11.27
11/1/2021 10:30:00 AM 10.03 50.054 0.041 6.64 3.43 11.27
11/1/2021 10:45:00 AM 10.05 50.09 0.042 6.64 2.97 11.26
11/1/2021 11:00:00 AM 10.08 50.144 0.042 6.58 3.13 11.27
11/1/2021 11:15:00 AM 10.15 50.27 0.041 6.66 3.06 11.27
11/1/2021 11:30:00 AM 10.22 50.396 0.042 6.63 3.39 11.27
11/1/2021 11:45:00 AM 10.25 50.45 0.041 6.66 3.35 11.24
11/1/2021 12:00:00 PM 10.29 50.522 0.039 6.68 3.07 11.26
11/1/2021 12:15:00 PM 10.34 50.612 0.04 6.67 2.64 11.25
11/1/2021 12:30:00 PM 10.39 50.702 0.041 6.67 4.02 11.25
11/1/2021 12:45:00 PM 10.46 50.828 0.039 6.72 3.12 11.23
11/1/2021 1:00:00 PM 10.46 50.828 0.042 6.67 3.35 11.22
11/1/2021 1:15:00 PM 10.47 50.846 0.042 6.7 2.57 11.2
11/1/2021 1:30:00 PM 10.43 50.774 0.042 6.68 2.78 11.19
11/1/2021 1:45:00 PM 10.4 50.72 0.039 6.66 3.17 11.18
11/1/2021 2:00:00 PM 10.39 50.702 0.04 6.68 3.54 11.2
11/1/2021 2:15:00 PM 10.4 50.72 0.042 6.68 2.38 11.2
11/1/2021 2:30:00 PM 10.39 50.702 0.042 6.69 3.49 11.2
11/1/2021 2:45:00 PM 10.38 50.684 0.042 6.7 4.09 11.18
11/1/2021 3:00:00 PM 10.37 50.666 0.042 6.67 3.2 11.17
11/1/2021 3:15:00 PM 10.35 50.63 0.042 6.65 2.93 11.16
11/1/2021 3:30:00 PM 10.31 50.558 0.041 6.66 3.46 11.16
11/1/2021 3:45:00 PM 10.29 50.522 0.041 6.65 3.43 11.15
11/1/2021 4:00:00 PM 10.26 50.468 0.041 6.65 3.41 11.14
11/1/2021 4:15:00 PM 10.25 50.45 0.041 6.63 3.78 11.14
11/1/2021 4:30:00 PM 10.22 50.396 0.042 6.64 4.04 11.12
11/1/2021 4:45:00 PM 10.21 50.378 0.042 6.64 3.3 11.13
11/1/2021 5:00:00 PM 10.2 50.36 0.042 6.63 3.75 11.14
11/1/2021 5:15:00 PM 10.19 50.342 0.034 6.63 3.22 11.14
11/1/2021 5:30:00 PM 10.17 50.306 0.042 6.63 4.11 11.12
11/1/2021 5:45:00 PM 10.15 50.27 0.042 6.63 2.59 11.11
11/1/2021 6:00:00 PM 10.13 50.234 0.042 6.62 3.31 11.1
11/1/2021 6:15:00 PM 10.11 50.198 0.042 6.6 2.96 11.1
11/1/2021 6:30:00 PM 10.09 50.162 0.042 6.63 3.28 11.1
11/1/2021 6:45:00 PM 10.06 50.108 0.042 6.6 4.15 11.1
11/1/2021 7:00:00 PM 10.03 50.054 0.042 6.61 4.67 11.11
11/1/2021 7:15:00 PM 10 50 0.042 6.58 5.19 11.12
11/1/2021 7:30:00 PM 9.96 49.928 0.042 6.61 3.16 11.13
11/1/2021 7:45:00 PM 9.93 49.874 0.041 6.6 3.66 11.14
11/1/2021 8:00:00 PM 9.9 49.82 0.041 6.6 3.57 11.15
11/1/2021 8:15:00 PM 9.86 49.748 0.042 6.6 3.06 11.16
11/1/2021 8:30:00 PM 9.83 49.694 0.041 6.61 2.95 11.18
11/1/2021 8:45:00 PM 9.8 49.64 0.042 6.6 4.16 11.19
11/1/2021 9:00:00 PM 9.76 49.568 0.042 6.57 2.96 11.2
11/1/2021 9:15:00 PM 9.72 49.496 0.042 6.58 3.22 11.2
11/1/2021 9:30:00 PM 9.68 49.424 0.042 6.59 3.14 11.22
11/1/2021 9:45:00 PM 9.65 49.37 0.041 6.57 2.74 11.23
11/1/2021 10:00:00 PM 9.61 49.298 0.04 6.6 2.82 11.24
11/1/2021 10:15:00 PM 9.57 49.226 0.042 6.57 4.17 11.26
11/1/2021 10:30:00 PM 9.52 49.136 0.04 6.56 3 11.26
11/1/2021 10:45:00 PM 9.48 49.064 0.041 6.56 3.22 11.28
11/1/2021 11:00:00 PM 9.44 48.992 0.041 6.56 3.05 11.29
11/1/2021 11:15:00 PM 9.4 48.92 0.042 6.53 3.48 11.3
11/1/2021 11:30:00 PM 9.37 48.866 0.042 6.56 3.66 11.32
11/1/2021 11:45:00 PM 9.32 48.776 0.042 6.55 4.14 11.32
11/2/2021 12:00:00 AM 9.28 48.704 0.042 6.56 4.92 11.34
11/2/2021 12:15:00 AM 9.24 48.632 0.042 6.55 2.56 11.35
11/2/2021 12:30:00 AM 9.2 48.56 0.042 6.55 3.27 11.36
11/2/2021 12:45:00 AM 9.16 48.488 0.042 6.53 3.04 11.36
11/2/2021 1:00:00 AM 9.13 48.434 0.04 6.54 3.39 11.38
11/2/2021 1:15:00 AM 9.1 48.38 0.043 6.6 2.41 11.39
11/2/2021 1:30:00 AM 9.06 48.308 0.042 6.56 3.26 11.38
11/2/2021 1:45:00 AM 9.04 48.272 0.041 6.55 3.73 11.4
11/2/2021 2:00:00 AM 9.01 48.218 0.042 6.56 2.72 11.4
11/2/2021 2:15:00 AM 8.99 48.182 0.04 6.54 3.19 11.41
11/2/2021 2:30:00 AM 8.96 48.128 0.042 6.57 3.37 11.42
11/2/2021 2:45:00 AM 8.94 48.092 0.042 6.45 3.21 11.43
11/2/2021 3:00:00 AM 8.91 48.038 0.041 6.55 2.62 11.44
11/2/2021 3:15:00 AM 8.89 48.002 0.039 6.57 3.35 11.44
11/2/2021 3:30:00 AM 8.87 47.966 0.042 6.56 3.46 11.45
11/2/2021 3:45:00 AM 8.85 47.93 0.036 6.56 3.12 11.45
11/2/2021 4:00:00 AM 8.83 47.894 0.04 6.59 3.77 11.46
11/2/2021 4:15:00 AM 8.81 47.858 0.041 6.57 2.36 11.47
11/2/2021 4:30:00 AM 8.79 47.822 0.042 6.57 3.18 11.48
11/2/2021 4:45:00 AM 8.78 47.804 0.039 6.57 3.56 11.48
11/2/2021 5:00:00 AM 8.76 47.768 0.04 6.57 3.72 11.48
11/2/2021 5:15:00 AM 8.73 47.714 0.04 6.57 3.36 11.49
11/2/2021 5:30:00 AM 8.71 47.678 0.04 6.56 2.76 11.5
11/2/2021 5:45:00 AM 8.7 47.66 0.038 6.55 2.76 11.51
11/2/2021 6:00:00 AM 8.68 47.624 0.04 6.58 2.57 11.51
11/2/2021 6:15:00 AM 8.67 47.606 0.039 6.57 3.85 11.52
11/2/2021 6:30:00 AM 8.65 47.57 0.04 6.57 2.6 11.52
11/2/2021 6:45:00 AM 8.64 47.552 0.041 6.56 3.38 11.52
11/2/2021 7:00:00 AM 8.62 47.516 0.042 6.52 3.86 11.53
11/2/2021 7:15:00 AM 8.6 47.48 0.043 6.57 3.37 11.53
11/2/2021 7:30:00 AM 8.59 47.462 0.038 6.57 3.64 11.53
11/2/2021 7:45:00 AM 8.57 47.426 0.04 6.58 2.82 11.54
11/2/2021 8:00:00 AM 8.56 47.408 0.042 6.58 3.19 11.56
11/2/2021 8:15:00 AM 8.56 47.408 0.041 6.59 3.51 11.57
11/2/2021 8:30:00 AM 8.56 47.408 0.04 6.59 2.88 11.59
11/2/2021 8:45:00 AM 8.56 47.408 0.042 6.47 4.5 11.62
11/2/2021 9:00:00 AM 8.57 47.426 0.042 6.63 2.29 11.64
11/2/2021 9:15:00 AM 8.57 47.426 0.042 6.6 3.73 11.65
11/2/2021 9:30:00 AM 8.59 47.462 0.042 6.62 4.47 11.67
11/2/2021 9:45:00 AM 8.61 47.498 0.04 6.63 3.41 11.7
11/2/2021 10:00:00 AM 8.64 47.552 0.042 6.49 2.98 11.72
11/2/2021 10:15:00 AM 8.67 47.606 0.042 6.65 3.68 11.72
11/2/2021 10:30:00 AM 8.7 47.66 0.042 6.67 2.99 11.72
11/2/2021 10:45:00 AM 8.73 47.714 0.041 6.68 3.17 11.72
11/2/2021 11:00:00 AM 8.78 47.804 0.042 6.68 4.24 11.72
11/2/2021 11:15:00 AM 8.82 47.876 0.041 6.69 2.55 11.72
11/2/2021 11:30:00 AM 8.87 47.966 0.042 6.7 2.85 11.72
11/2/2021 11:45:00 AM 8.93 48.074 0.04 6.7 2.69 11.7
11/2/2021 12:00:00 PM 8.97 48.146 0.042 6.72 2.71 11.7
11/2/2021 12:15:00 PM 9.03 48.254 0.042 6.72 3.32 11.68
11/2/2021 12:30:00 PM 9.07 48.326 0.042 6.73 3.72 11.67
11/2/2021 12:45:00 PM 9.09 48.362 0.042 6.7 3.7 11.65
11/2/2021 1:00:00 PM 9.13 48.434 0.042 6.72 3.89 11.64
11/2/2021 1:15:00 PM 9.14 48.452 0.04 6.71 3.21 11.61
11/2/2021 1:30:00 PM 9.15 48.47 0.042 6.73 3.42 11.61
11/2/2021 1:45:00 PM 9.16 48.488 0.042 6.61 4.16 11.6
11/2/2021 2:00:00 PM 9.17 48.506 0.042 6.66 2.84 11.57
11/2/2021 2:15:00 PM 9.17 48.506 0.042 6.54 2.93 11.55
11/2/2021 2:30:00 PM 9.18 48.524 0.04 6.71 2.67 11.54
11/2/2021 2:45:00 PM 9.18 48.524 0.042 6.71 3.49 11.55
11/2/2021 3:00:00 PM 9.2 48.56 0.041 6.72 3.53 11.55
11/2/2021 3:15:00 PM 9.22 48.596 0.039 6.72 4.09 11.56
11/2/2021 3:30:00 PM 9.24 48.632 0.041 6.74 3.27 11.57
11/2/2021 3:45:00 PM 9.25 48.65 0.041 6.76 3.45 11.55
11/2/2021 4:00:00 PM 9.26 48.668 0.042 6.73 8.97 11.52
11/2/2021 4:15:00 PM 9.25 48.65 0.042 6.71 3.99 11.5
11/2/2021 4:30:00 PM 9.25 48.65 0.04 6.69 3.69 11.47
11/2/2021 4:45:00 PM 9.24 48.632 0.042 6.68 4.73 11.42
11/2/2021 5:00:00 PM 9.24 48.632 0.042 6.71 4.27 11.41
11/2/2021 5:15:00 PM 9.23 48.614 0.042 6.66 4.06 11.42
11/2/2021 5:30:00 PM 9.22 48.596 0.042 6.67 4.05 11.41
11/2/2021 5:45:00 PM 9.19 48.542 0.042 6.67 4.24 11.39
11/2/2021 6:00:00 PM 9.17 48.506 0.042 6.66 3.13 11.38
11/2/2021 6:15:00 PM 9.14 48.452 0.042 6.66 3.2 11.37
11/2/2021 6:30:00 PM 9.1 48.38 0.043 6.64 4.16 11.38
11/2/2021 6:45:00 PM 9.06 48.308 0.042 6.68 3.37 11.38
11/2/2021 7:00:00 PM 9.02 48.236 0.041 6.63 3.37 11.4
11/2/2021 7:15:00 PM 8.97 48.146 0.041 6.64 4.28 11.41
11/2/2021 7:30:00 PM 8.92 48.056 0.043 6.63 3.38 11.42
11/2/2021 7:45:00 PM 8.87 47.966 0.042 6.53 2.91 11.44
11/2/2021 8:00:00 PM 8.82 47.876 0.043 6.64 4.46 11.46
11/2/2021 8:15:00 PM 8.78 47.804 0.043 6.62 2.31 11.47
11/2/2021 8:30:00 PM 8.73 47.714 0.043 6.64 2.82 11.48
11/2/2021 8:45:00 PM 8.7 47.66 0.043 6.62 2.57 11.49
11/2/2021 9:00:00 PM 8.66 47.588 0.041 6.57 3.19 11.5
11/2/2021 9:15:00 PM 8.63 47.534 0.043 6.61 3.69 11.51
11/2/2021 9:30:00 PM 8.59 47.462 0.043 6.61 2.97 11.52
11/2/2021 9:45:00 PM 8.55 47.39 0.043 6.58 3.77 11.53
11/2/2021 10:00:00 PM 8.52 47.336 0.042 6.61 2.81 11.54
11/2/2021 10:15:00 PM 8.49 47.282 0.04 6.6 2.68 11.55
11/2/2021 10:30:00 PM 8.45 47.21 0.041 6.59 4.31 11.56
11/2/2021 10:45:00 PM 8.41 47.138 0.042 6.59 2.34 11.58
11/2/2021 11:00:00 PM 8.37 47.066 0.036 6.59 4.47 11.6
11/2/2021 11:15:00 PM 8.33 46.994 0.041 6.59 3.33 11.61
11/2/2021 11:30:00 PM 8.28 46.904 0.042 6.55 2.99 11.62
11/2/2021 11:45:00 PM 8.24 46.832 0.043 6.59 2.08 11.63
11/3/2021 12:00:00 AM 8.2 46.76 0.043 6.48 3.35 11.65
11/3/2021 12:15:00 AM 8.15 46.67 0.042 6.55 3.88 11.66
11/3/2021 12:30:00 AM 8.1 46.58 0.039 6.56 3.84 11.67
11/3/2021 12:45:00 AM 8.05 46.49 0.035 6.57 3.09 11.67
11/3/2021 1:00:00 AM 8 46.4 0.035 6.56 3.7 11.69
11/3/2021 1:15:00 AM 7.95 46.31 0.039 6.58 2.95 11.7
11/3/2021 1:30:00 AM 7.91 46.238 0.042 6.58 3.41 11.73
11/3/2021 1:45:00 AM 7.85 46.13 0.043 6.58 3.23 11.74
11/3/2021 2:00:00 AM 7.8 46.04 0.043 6.57 2.93 11.76
11/3/2021 2:15:00 AM 7.75 45.95 0.043 6.59 2.38 11.78
11/3/2021 2:30:00 AM 7.7 45.86 0.042 6.58 3.06 11.79
11/3/2021 2:45:00 AM 7.65 45.77 0.043 6.57 3.18 11.81
11/3/2021 3:00:00 AM 7.6 45.68 0.041 6.54 2.58 11.82
11/3/2021 3:15:00 AM 7.54 45.572 0.043 6.56 3.16 11.84
11/3/2021 3:30:00 AM 7.49 45.482 0.043 6.54 3.71 11.85
11/3/2021 3:45:00 AM 7.45 45.41 0.043 6.56 3.78 11.86
11/3/2021 4:00:00 AM 7.4 45.32 0.041 6.57 2.37 11.88
11/3/2021 4:15:00 AM 7.36 45.248 0.043 6.57 4.16 11.9
11/3/2021 4:30:00 AM 7.31 45.158 0.043 6.51 3.91 11.91
11/3/2021 4:45:00 AM 7.27 45.086 0.043 6.56 3.57 11.93
11/3/2021 5:00:00 AM 7.23 45.014 0.043 6.55 3.54 11.94
11/3/2021 5:15:00 AM 7.18 44.924 0.043 6.55 3.09 11.95
11/3/2021 5:30:00 AM 7.14 44.852 0.043 6.57 2.67 11.96
11/3/2021 5:45:00 AM 7.1 44.78 0.042 6.55 3.82 11.97
11/3/2021 6:00:00 AM 7.06 44.708 0.043 6.57 3.07 11.98
11/3/2021 6:15:00 AM 7.02 44.636 0.043 6.57 1.97 11.99
11/3/2021 6:30:00 AM 6.98 44.564 0.043 6.57 2.22 12.01
11/3/2021 6:45:00 AM 6.94 44.492 0.043 6.56 3.48 12.02
11/3/2021 7:00:00 AM 6.9 44.42 0.043 6.57 2.68 12.04
11/3/2021 7:15:00 AM 6.86 44.348 0.043 6.58 4.27 12.05
11/3/2021 7:30:00 AM 6.82 44.276 0.043 6.56 3.47 12.06
11/3/2021 7:45:00 AM 6.79 44.222 0.042 6.55 2.6 12.08
11/3/2021 8:00:00 AM 6.75 44.15 0.04 6.56 3.3 12.11
11/3/2021 8:15:00 AM 6.71 44.078 0.043 6.57 3.65 12.14
11/3/2021 8:30:00 AM 6.68 44.024 0.043 6.59 2.98 12.17
11/3/2021 8:45:00 AM 6.66 43.988 0.043 6.57 3.11 12.2
11/3/2021 9:00:00 AM 6.64 43.952 0.043 6.58 4.68 12.23
11/3/2021 9:15:00 AM 6.63 43.934 0.042 6.58 3.53 12.25
11/3/2021 9:30:00 AM 6.63 43.934 0.042 6.61 2.19 12.27
11/3/2021 9:45:00 AM 6.65 43.97 0.041 6.63 2.76 12.29
11/3/2021 10:00:00 AM 6.68 44.024 0.043 6.62 2.28 12.3
11/3/2021 10:15:00 AM 6.71 44.078 0.043 6.65 3.87 12.31
11/3/2021 10:30:00 AM 6.75 44.15 0.043 6.66 3.51 12.3
11/3/2021 10:45:00 AM 6.81 44.258 0.042 6.69 3.43 12.29
11/3/2021 11:00:00 AM 6.88 44.384 0.04 6.68 2.44 12.28
11/3/2021 11:15:00 AM 6.99 44.582 0.043 6.69 3.63 12.27
11/3/2021 11:30:00 AM 7.09 44.762 0.043 6.71 2.72 12.26
11/3/2021 11:45:00 AM 7.18 44.924 0.042 6.73 2.9 12.25
11/3/2021 12:00:00 PM 7.27 45.086 0.041 6.73 2.94 12.23
11/3/2021 12:15:00 PM 7.36 45.248 0.042 6.73 2.48 12.2
11/3/2021 12:30:00 PM 7.43 45.374 0.041 6.74 2.92 12.17
11/3/2021 12:45:00 PM 7.46 45.428 0.043 6.74 3.9 12.16
11/3/2021 1:00:00 PM 7.51 45.518 0.042 6.74 3.4 12.14
11/3/2021 1:15:00 PM 7.56 45.608 0.039 6.74 3.47 12.11
11/3/2021 1:30:00 PM 7.57 45.626 0.035 6.68 2.96 12.1
11/3/2021 1:45:00 PM 7.6 45.68 0.042 6.75 2.92 12.11
11/3/2021 2:00:00 PM 7.62 45.716 0.039 6.75 2.9 12.09
11/3/2021 2:15:00 PM 7.63 45.734 0.042 6.75 3.26 12.07
11/3/2021 2:30:00 PM 7.63 45.734 0.039 6.74 2.4 12.06
11/3/2021 2:45:00 PM 7.64 45.752 0.04 6.75 2.42 12.06
11/3/2021 3:00:00 PM 7.65 45.77 0.041 6.74 2.58 12.06
11/3/2021 3:15:00 PM 7.65 45.77 0.036 6.77 3.44 12.04
11/3/2021 3:30:00 PM 7.67 45.806 0.04 6.72 2.49 12.04
11/3/2021 3:45:00 PM 7.71 45.878 0.039 6.75 3.19 12.04
11/3/2021 4:00:00 PM 7.7 45.86 0.04 6.74 2.37 12.01
11/3/2021 4:15:00 PM 7.7 45.86 0.04 6.74 2.87 12.01
11/3/2021 4:30:00 PM 7.71 45.878 0.041 6.73 2.66 11.97
11/3/2021 4:45:00 PM 7.73 45.914 0.041 6.72 2.57 11.96
11/3/2021 5:00:00 PM 7.73 45.914 0.042 6.71 3.21 11.95
11/3/2021 5:15:00 PM 7.72 45.896 0.04 6.71 3.04 11.93
11/3/2021 5:30:00 PM 7.71 45.878 0.041 6.71 2.82 11.9
11/3/2021 5:45:00 PM 7.7 45.86 0.04 6.69 2.81 11.87
11/3/2021 6:00:00 PM 7.67 45.806 0.042 6.69 2.31 11.85
11/3/2021 6:15:00 PM 7.64 45.752 0.043 6.68 3.03 11.85
11/3/2021 6:30:00 PM 7.6 45.68 0.036 6.68 3.05 11.84
11/3/2021 6:45:00 PM 7.57 45.626 0.035 6.67 4.8 11.85
11/3/2021 7:00:00 PM 7.53 45.554 0.043 6.66 2.12 11.86
11/3/2021 7:15:00 PM 7.49 45.482 0.043 6.53 3.99 11.87
11/3/2021 7:30:00 PM 7.46 45.428 0.043 6.67 2.82 11.89
11/3/2021 7:45:00 PM 7.44 45.392 0.041 6.65 3.31 11.9
11/3/2021 8:00:00 PM 7.42 45.356 0.04 6.65 4.02 11.91
11/3/2021 8:15:00 PM 7.41 45.338 0.043 6.65 3.08 11.92
11/3/2021 8:30:00 PM 7.39 45.302 0.044 6.47 2.55 11.92
11/3/2021 8:45:00 PM 7.37 45.266 0.043 6.65 3.12 11.93
11/3/2021 9:00:00 PM 7.35 45.23 0.043 6.64 2.45 11.94
11/3/2021 9:15:00 PM 7.33 45.194 0.043 6.65 4.56 11.94
11/3/2021 9:30:00 PM 7.31 45.158 0.037 6.64 2.89 11.95
11/3/2021 9:45:00 PM 7.29 45.122 0.044 6.65 3 11.96
11/3/2021 10:00:00 PM 7.27 45.086 0.037 6.63 3.07 11.96
11/3/2021 10:15:00 PM 7.24 45.032 0.034 6.63 2.97 11.97
11/3/2021 10:30:00 PM 7.22 44.996 0.043 6.63 2.58 11.97
11/3/2021 10:45:00 PM 7.2 44.96 0.043 6.63 2.6 11.98
11/3/2021 11:00:00 PM 7.18 44.924 0.044 6.62 3.75 11.99
11/3/2021 11:15:00 PM 7.16 44.888 0.044 6.63 2.63 11.99
11/3/2021 11:30:00 PM 7.13 44.834 0.044 6.63 2.54 12
11/3/2021 11:45:00 PM 7.1 44.78 0.043 6.65 2.41 12.01
11/4/2021 12:00:00 AM 7.06 44.708 0.044 6.63 2.58 12.02
11/4/2021 12:15:00 AM 7.02 44.636 0.043 6.63 3.22 12.03
11/4/2021 12:30:00 AM 6.98 44.564 0.041 6.62 2.5 12.04
11/4/2021 12:45:00 AM 6.94 44.492 0.043 6.59 3 12.06
11/4/2021 1:00:00 AM 6.91 44.438 0.042 6.65 2.97 12.07
11/4/2021 1:15:00 AM 6.87 44.366 0.044 6.63 3.04 12.09
11/4/2021 1:30:00 AM 6.83 44.294 0.044 6.61 4.34 12.1
11/4/2021 1:45:00 AM 6.79 44.222 0.044 6.61 3.66 12.11
11/4/2021 2:00:00 AM 6.76 44.168 0.044 6.61 3.1 12.12
11/4/2021 2:15:00 AM 6.72 44.096 0.044 6.58 3.75 12.13
11/4/2021 2:30:00 AM 6.68 44.024 0.044 6.61 3.23 12.14
11/4/2021 2:45:00 AM 6.65 43.97 0.044 6.56 3.8 12.15
11/4/2021 3:00:00 AM 6.62 43.916 0.043 6.57 3.35 12.16
11/4/2021 3:15:00 AM 6.58 43.844 0.041 6.6 2.49 12.17
11/4/2021 3:30:00 AM 6.55 43.79 0.044 6.59 2.71 12.18
11/4/2021 3:45:00 AM 6.52 43.736 0.041 6.6 2.46 12.19
11/4/2021 4:00:00 AM 6.49 43.682 0.044 6.6 4.41 12.2
11/4/2021 4:15:00 AM 6.46 43.628 0.044 6.58 3.81 12.22
11/4/2021 4:30:00 AM 6.43 43.574 0.044 6.6 3.15 12.22
11/4/2021 4:45:00 AM 6.4 43.52 0.036 6.58 2.69 12.24
11/4/2021 5:00:00 AM 6.38 43.484 0.044 6.59 3.62 12.25
11/4/2021 5:15:00 AM 6.35 43.43 0.043 6.57 3.26 12.25
11/4/2021 5:30:00 AM 6.32 43.376 0.044 6.62 3.17 12.26
11/4/2021 5:45:00 AM 6.29 43.322 0.044 6.58 3.11 12.28
11/4/2021 6:00:00 AM 6.25 43.25 0.044 6.58 3.09 12.29
11/4/2021 6:15:00 AM 6.22 43.196 0.044 6.59 3.28 12.3
11/4/2021 6:30:00 AM 6.18 43.124 0.044 6.59 2.26 12.31
11/4/2021 6:45:00 AM 6.14 43.052 0.044 6.58 5.26 12.32
11/4/2021 7:00:00 AM 6.11 42.998 0.044 6.58 3.6 12.33
11/4/2021 7:15:00 AM 6.07 42.926 0.043 6.59 2.62 12.34
11/4/2021 7:30:00 AM 6.03 42.854 0.043 6.59 3.59 12.35
11/4/2021 7:45:00 AM 5.99 42.782 0.044 6.57 3.67 12.37
11/4/2021 8:00:00 AM 5.96 42.728 0.043 6.59 2.7 12.39
11/4/2021 8:15:00 AM 5.92 42.656 0.042 6.59 2.49 12.42
11/4/2021 8:30:00 AM 5.89 42.602 0.042 6.59 2.45 12.45
11/4/2021 8:45:00 AM 5.87 42.566 0.042 6.59 2.53 12.49
11/4/2021 9:00:00 AM 5.85 42.53 0.043 6.63 2.6 12.52
11/4/2021 9:15:00 AM 5.84 42.512 0.044 6.62 3.64 12.54
11/4/2021 9:30:00 AM 5.85 42.53 0.041 6.58 2.73 12.57
11/4/2021 9:45:00 AM 5.85 42.53 0.043 6.64 2.99 12.58
11/4/2021 10:00:00 AM 5.88 42.584 0.044 6.63 2.45 12.6
11/4/2021 10:15:00 AM 5.9 42.62 0.044 6.65 3.58 12.6
11/4/2021 10:30:00 AM 5.94 42.692 0.044 6.69 3.05 12.59
11/4/2021 10:45:00 AM 5.99 42.782 0.043 6.69 2.59 12.59
11/4/2021 11:00:00 AM 6.06 42.908 0.044 6.67 3.36 12.58
11/4/2021 11:15:00 AM 6.16 43.088 0.044 6.7 2.01 12.57
11/4/2021 11:30:00 AM 6.27 43.286 0.044 6.71 3.01 12.56
11/4/2021 11:45:00 AM 6.38 43.484 0.044 6.71 3.29 12.53
11/4/2021 12:00:00 PM 6.5 43.7 0.043 6.72 2.16 12.5
11/4/2021 12:15:00 PM 6.6 43.88 0.043 6.74 2.82 12.48
11/4/2021 12:30:00 PM 6.69 44.042 0.044 6.75 2.64 12.45
11/4/2021 12:45:00 PM 6.78 44.204 0.044 6.75 2.81 12.44
11/4/2021 1:00:00 PM 6.87 44.366 0.042 6.77 3.21 12.43
11/4/2021 1:15:00 PM 6.95 44.51 0.041 6.78 2.44 12.4
11/4/2021 1:30:00 PM 7.01 44.618 0.042 6.79 2.72 12.37
11/4/2021 1:45:00 PM 7.06 44.708 0.043 6.78 2.89 12.35
11/4/2021 2:00:00 PM 7.09 44.762 0.041 6.79 2.44 12.32
11/4/2021 2:15:00 PM 7.1 44.78 0.042 6.79 2.04 12.3
11/4/2021 2:30:00 PM 7.12 44.816 0.043 6.79 2.15 12.3
11/4/2021 2:45:00 PM 7.13 44.834 0.041 6.78 2.4 12.28
11/4/2021 3:00:00 PM 7.13 44.834 0.043 6.79 3.88 12.27
11/4/2021 3:15:00 PM 7.13 44.834 0.044 6.81 2.28 12.27
11/4/2021 3:30:00 PM 7.14 44.852 0.044 6.79 3.31 12.26
11/4/2021 3:45:00 PM 7.13 44.834 0.042 6.76 3.17 12.26
11/4/2021 4:00:00 PM 7.13 44.834 0.042 6.79 3.55 12.24
11/4/2021 4:15:00 PM 7.12 44.816 0.044 6.79 2.84 12.23
11/4/2021 4:30:00 PM 7.12 44.816 0.043 6.75 2.98 12.21
11/4/2021 4:45:00 PM 7.11 44.798 0.043 6.75 2.49 12.2
11/4/2021 5:00:00 PM 7.1 44.78 0.044 6.62 2.41 12.16
11/4/2021 5:15:00 PM 7.09 44.762 0.044 6.73 3.4 12.13
11/4/2021 5:30:00 PM 7.08 44.744 0.044 6.72 2.9 12.1
11/4/2021 5:45:00 PM 7.07 44.726 0.043 6.72 3.08 12.07
11/4/2021 6:00:00 PM 7.05 44.69 0.043 6.69 3.25 12.05
11/4/2021 6:15:00 PM 7.03 44.654 0.042 6.69 2.94 12.04
11/4/2021 6:30:00 PM 7 44.6 0.044 6.69 3.24 12.04
11/4/2021 6:45:00 PM 6.97 44.546 0.042 6.69 2.45 12.04
11/4/2021 7:00:00 PM 6.94 44.492 0.044 6.67 3.3 12.05
11/4/2021 7:15:00 PM 6.91 44.438 0.044 6.69 4.37 12.06
11/4/2021 7:30:00 PM 6.87 44.366 0.044 6.68 4.18 12.06
11/4/2021 7:45:00 PM 6.84 44.312 0.044 6.68 3.51 12.08
11/4/2021 8:00:00 PM 6.8 44.24 0.045 6.68 4.82 12.08
11/4/2021 8:15:00 PM 6.76 44.168 0.043 6.67 3.27 12.09
11/4/2021 8:30:00 PM 6.72 44.096 0.044 6.67 2.77 12.1
11/4/2021 8:45:00 PM 6.69 44.042 0.044 6.66 3.59 12.11
11/4/2021 9:00:00 PM 6.65 43.97 0.044 6.66 3.86 12.12
11/4/2021 9:15:00 PM 6.6 43.88 0.043 6.65 2.61 12.13
11/4/2021 9:30:00 PM 6.56 43.808 0.043 6.65 3.15 12.15
11/4/2021 9:45:00 PM 6.52 43.736 0.045 6.65 3.6 12.16
11/4/2021 10:00:00 PM 6.48 43.664 0.045 6.68 3.1 12.18
11/4/2021 10:15:00 PM 6.44 43.592 0.045 6.66 2.07 12.19
11/4/2021 10:30:00 PM 6.39 43.502 0.045 6.64 2.76 12.21
11/4/2021 10:45:00 PM 6.35 43.43 0.043 6.64 2.75 12.23
11/4/2021 11:00:00 PM 6.32 43.376 0.044 6.63 2.86 12.24
11/4/2021 11:15:00 PM 6.28 43.304 0.045 6.64 2.37 12.25
11/4/2021 11:30:00 PM 6.24 43.232 0.042 6.61 2.49 12.26
11/4/2021 11:45:00 PM 6.2 43.16 0.043 6.6 2.84 12.27
11/5/2021 12:00:00 AM 6.16 43.088 0.045 6.59 2.82 12.29
11/5/2021 12:15:00 AM 6.12 43.016 0.045 6.62 4.4 12.29
11/5/2021 12:30:00 AM 6.08 42.944 0.045 6.61 1.92 12.31
11/5/2021 12:45:00 AM 6.04 42.872 0.043 6.62 3.33 12.32
11/5/2021 1:00:00 AM 6 42.8 0.045 6.62 3.12 12.33
11/5/2021 1:15:00 AM 5.96 42.728 0.045 6.61 3.22 12.34
11/5/2021 1:30:00 AM 5.93 42.674 0.045 6.61 3.24 12.35
11/5/2021 1:45:00 AM 5.89 42.602 0.045 6.6 3.24 12.37
11/5/2021 2:00:00 AM 5.84 42.512 0.045 6.64 2.98 12.39
11/5/2021 2:15:00 AM 5.81 42.458 0.041 6.59 2.83 12.4
11/5/2021 2:30:00 AM 5.78 42.404 0.044 6.58 2.24 12.41
11/5/2021 2:45:00 AM 5.74 42.332 0.045 6.62 3.4 12.43
11/5/2021 3:00:00 AM 5.71 42.278 0.045 6.62 3.22 12.44
11/5/2021 3:15:00 AM 5.67 42.206 0.043 6.6 2.37 12.45
11/5/2021 3:30:00 AM 5.64 42.152 0.045 6.65 4.39 12.46
11/5/2021 3:45:00 AM 5.6 42.08 0.045 6.6 2.71 12.46
11/5/2021 4:00:00 AM 5.57 42.026 0.045 6.61 4.1 12.48
11/5/2021 4:15:00 AM 5.53 41.954 0.045 6.6 2.96 12.49
11/5/2021 4:30:00 AM 5.5 41.9 0.045 6.61 3.59 12.5
11/5/2021 4:45:00 AM 5.46 41.828 0.044 6.61 4.19 12.51
11/5/2021 5:00:00 AM 5.42 41.756 0.045 6.6 2.74 12.51
11/5/2021 5:15:00 AM 5.39 41.702 0.045 6.6 3.32 12.54
11/5/2021 5:30:00 AM 5.35 41.63 0.045 6.61 2.85 12.55
11/5/2021 5:45:00 AM 5.32 41.576 0.045 6.6 2.82 12.57
11/5/2021 6:00:00 AM 5.28 41.504 0.042 6.61 2.48 12.58
11/5/2021 6:15:00 AM 5.25 41.45 0.042 6.61 2.51 12.6
11/5/2021 6:30:00 AM 5.21 41.378 0.045 6.62 2.37 12.61
11/5/2021 6:45:00 AM 5.18 41.324 0.042 6.6 2.64 12.63
11/5/2021 7:00:00 AM 5.15 41.27 0.042 6.61 2.62 12.64
11/5/2021 7:15:00 AM 5.11 41.198 0.045 6.63 3.84 12.66
11/5/2021 7:30:00 AM 5.08 41.144 0.045 6.61 3.38 12.67
11/5/2021 7:45:00 AM 5.04 41.072 0.045 6.61 4.14 12.68
11/5/2021 8:00:00 AM 5.02 41.036 0.045 6.6 2.39 12.7
11/5/2021 8:15:00 AM 4.99 40.982 0.045 6.58 2.25 12.74
11/5/2021 8:30:00 AM 4.96 40.928 0.045 6.61 3.82 12.77
11/5/2021 8:45:00 AM 4.95 40.91 0.044 6.61 2.37 12.8
11/5/2021 9:00:00 AM 4.94 40.892 0.044 6.63 2.51 12.84
11/5/2021 9:15:00 AM 4.94 40.892 0.044 6.64 2.34 12.86
11/5/2021 9:30:00 AM 4.94 40.892 0.045 6.67 2.69 12.89
11/5/2021 9:45:00 AM 4.95 40.91 0.045 6.67 3.66 12.91
11/5/2021 10:00:00 AM 4.99 40.982 0.044 6.68 2.34 12.92
11/5/2021 10:15:00 AM 5.02 41.036 0.045 6.7 2.17 12.93
11/5/2021 10:30:00 AM 5.07 41.126 0.045 6.71 2.39 12.92
11/5/2021 10:45:00 AM 5.12 41.216 0.045 6.67 2.84 12.92
11/5/2021 11:00:00 AM 5.2 41.36 0.045 6.71 3.68 12.92
11/5/2021 11:15:00 AM 5.3 41.54 0.045 6.62 2.39 12.9
11/5/2021 11:30:00 AM 5.42 41.756 0.044 6.74 2.15 12.85
11/5/2021 11:45:00 AM 5.56 42.008 0.044 6.75 4.24 12.83
11/5/2021 12:00:00 PM 5.7 42.26 0.044 6.75 2.85 12.81
11/5/2021 12:15:00 PM 5.84 42.512 0.044 6.77 2.74 12.78
11/5/2021 12:30:00 PM 5.98 42.764 0.044 6.72 4.3 12.73
11/5/2021 12:45:00 PM 6.09 42.962 0.044 6.76 2.95 12.68
11/5/2021 1:00:00 PM 6.19 43.142 0.044 6.78 2.9 12.65
11/5/2021 1:15:00 PM 6.26 43.268 0.044 6.77 4.31 12.62
11/5/2021 1:30:00 PM 6.32 43.376 0.042 6.78 3.1 12.61
11/5/2021 1:45:00 PM 6.38 43.484 0.041 6.81 3.27 12.6
11/5/2021 2:00:00 PM 6.41 43.538 0.035 6.8 3.28 12.57
11/5/2021 2:15:00 PM 6.41 43.538 0.036 6.79 2.87 12.52
11/5/2021 2:30:00 PM 6.44 43.592 0.041 6.78 3.03 12.48
11/5/2021 2:45:00 PM 6.47 43.646 0.044 6.77 3.5 12.48
11/5/2021 3:00:00 PM 6.47 43.646 0.044 6.77 3.6 12.46
11/5/2021 3:15:00 PM 6.47 43.646 0.044 6.75 5.18 12.44
11/5/2021 3:30:00 PM 6.48 43.664 0.044 6.78 3.51 12.43
11/5/2021 3:45:00 PM 6.48 43.664 0.044 6.76 3.67 12.42
11/5/2021 4:00:00 PM 6.47 43.646 0.044 6.75 2.75 12.42
11/5/2021 4:15:00 PM 6.47 43.646 0.042 6.76 2.16 12.42
11/5/2021 4:30:00 PM 6.46 43.628 0.041 6.76 2.15 12.44
11/5/2021 4:45:00 PM 6.46 43.628 0.041 6.76 3.98 12.43
11/5/2021 5:00:00 PM 6.46 43.628 0.042 6.75 2.18 12.42
11/5/2021 5:15:00 PM 6.46 43.628 0.042 6.75 2.27 12.41
11/5/2021 5:30:00 PM 6.47 43.646 0.042 6.74 2.1 12.37
11/5/2021 5:45:00 PM 6.46 43.628 0.044 6.72 2.41 12.33
11/5/2021 6:00:00 PM 6.45 43.61 0.045 6.7 3.02 12.31
11/5/2021 6:15:00 PM 6.43 43.574 0.044 6.7 2.37 12.29
11/5/2021 6:30:00 PM 6.4 43.52 0.044 6.7 3.16 12.28
11/5/2021 6:45:00 PM 6.38 43.484 0.045 6.67 2.25 12.28
11/5/2021 7:00:00 PM 6.36 43.448 0.045 6.68 3.62 12.28
11/5/2021 7:15:00 PM 6.34 43.412 0.045 6.68 3.44 12.28
11/5/2021 7:30:00 PM 6.32 43.376 0.044 6.68 3.32 12.29
11/5/2021 7:45:00 PM 6.29 43.322 0.045 6.68 4 12.29
11/5/2021 8:00:00 PM 6.27 43.286 0.045 6.68 2.92 12.29
11/5/2021 8:15:00 PM 6.24 43.232 0.044 6.7 2.83 12.3
11/5/2021 8:30:00 PM 6.22 43.196 0.045 6.67 2.78 12.31
11/5/2021 8:45:00 PM 6.19 43.142 0.045 6.67 3.44 12.31
11/5/2021 9:00:00 PM 6.16 43.088 0.045 6.67 2.69 12.32
11/5/2021 9:15:00 PM 6.12 43.016 0.042 6.67 2.14 12.33
11/5/2021 9:30:00 PM 6.09 42.962 0.045 6.67 2.86 12.34
11/5/2021 9:45:00 PM 6.05 42.89 0.045 6.66 2.27 12.36
11/5/2021 10:00:00 PM 6.01 42.818 0.043 6.66 3.02 12.37
11/5/2021 10:15:00 PM 5.97 42.746 0.044 6.67 2.95 12.39
11/5/2021 10:30:00 PM 5.92 42.656 0.041 6.66 3.08 12.41
11/5/2021 10:45:00 PM 5.88 42.584 0.042 6.65 2.97 12.42
11/5/2021 11:00:00 PM 5.84 42.512 0.042 6.65 2.7 12.43
11/5/2021 11:15:00 PM 5.8 42.44 0.042 6.65 3.05 12.45
11/5/2021 11:30:00 PM 5.76 42.368 0.041 6.65 3.45 12.46
11/5/2021 11:45:00 PM 5.72 42.296 0.039 6.64 2.4 12.48
11/6/2021 12:00:00 AM 5.68 42.224 0.043 6.65 2.17 12.49
11/6/2021 12:15:00 AM 5.63 42.134 0.045 6.65 2.38 12.5
11/6/2021 12:30:00 AM 5.59 42.062 0.045 6.63 2.73 12.51
11/6/2021 12:45:00 AM 5.55 41.99 0.042 6.67 2.18 12.52
11/6/2021 1:00:00 AM 5.51 41.918 0.038 6.63 3 12.54
11/6/2021 1:15:00 AM 5.48 41.864 0.043 6.61 2.86 12.55
11/6/2021 1:30:00 AM 5.44 41.792 0.045 6.6 3.49 12.56
11/6/2021 1:45:00 AM 5.41 41.738 0.045 6.62 2.45 12.57
11/6/2021 2:00:00 AM 5.37 41.666 0.046 6.6 3.01 12.58
11/6/2021 2:15:00 AM 5.34 41.612 0.039 6.61 3.01 12.6
11/6/2021 2:30:00 AM 5.3 41.54 0.044 6.61 4.76 12.62
11/6/2021 2:45:00 AM 5.27 41.486 0.037 6.62 3.51 12.63
11/6/2021 3:00:00 AM 5.23 41.414 0.039 6.62 3.59 12.64
11/6/2021 3:15:00 AM 5.19 41.342 0.042 6.62 2.66 12.66
11/6/2021 3:30:00 AM 5.16 41.288 0.041 6.63 2.59 12.67
11/6/2021 3:45:00 AM 5.12 41.216 0.042 6.65 3.26 12.68
11/6/2021 4:00:00 AM 5.09 41.162 0.046 6.55 2.13 12.68
11/6/2021 4:15:00 AM 5.05 41.09 0.046 6.6 2.06 12.69
11/6/2021 4:30:00 AM 5.02 41.036 0.043 6.61 2.13 12.7
11/6/2021 4:45:00 AM 4.98 40.964 0.043 6.61 2.27 12.71
11/6/2021 5:00:00 AM 4.95 40.91 0.043 6.6 3.32 12.73
11/6/2021 5:15:00 AM 4.91 40.838 0.041 6.61 2.73 12.74
11/6/2021 5:30:00 AM 4.88 40.784 0.046 6.58 3.45 12.76
11/6/2021 5:45:00 AM 4.84 40.712 0.046 6.61 1.93 12.77
11/6/2021 6:00:00 AM 4.81 40.658 0.046 6.58 2.92 12.79
11/6/2021 6:15:00 AM 4.77 40.586 0.046 6.62 2.84 12.8
11/6/2021 6:30:00 AM 4.73 40.514 0.046 6.62 4.29 12.82
11/6/2021 6:45:00 AM 4.7 40.46 0.046 6.6 2.96 12.83
11/6/2021 7:00:00 AM 4.67 40.406 0.046 6.6 3.64 12.84
11/6/2021 7:15:00 AM 4.63 40.334 0.046 6.61 4.29 12.85
11/6/2021 7:30:00 AM 4.6 40.28 0.046 6.62 2.92 12.87
11/6/2021 7:45:00 AM 4.57 40.226 0.045 6.59 2.73 12.88
11/6/2021 8:00:00 AM 4.54 40.172 0.043 6.61 2.75 12.9
11/6/2021 8:15:00 AM 4.51 40.118 0.046 6.62 2.16 12.93
11/6/2021 8:30:00 AM 4.49 40.082 0.043 6.62 2.07 12.97
11/6/2021 8:45:00 AM 4.47 40.046 0.046 6.65 1.88 13
11/6/2021 9:00:00 AM 4.47 40.046 0.043 6.64 2.03 13.03
11/6/2021 9:15:00 AM 4.47 40.046 0.046 6.69 2.18 13.06
11/6/2021 9:30:00 AM 4.47 40.046 0.043 6.68 2.13 13.08
11/6/2021 9:45:00 AM 4.49 40.082 0.043 6.69 2.08 13.1
11/6/2021 10:00:00 AM 4.52 40.136 0.043 6.7 2.42 13.11
11/6/2021 10:15:00 AM 4.56 40.208 0.046 6.71 2.89 13.12
11/6/2021 10:30:00 AM 4.62 40.316 0.046 6.73 3.35 13.12
11/6/2021 10:45:00 AM 4.68 40.424 0.046 6.72 2.28 13.11
11/6/2021 11:00:00 AM 4.77 40.586 0.046 6.74 2.87 13.09
11/6/2021 11:15:00 AM 4.89 40.802 0.046 6.74 2.41 13.05
11/6/2021 11:30:00 AM 5.02 41.036 0.043 6.75 1.97 13.01
11/6/2021 11:45:00 AM 5.18 41.324 0.045 6.76 3.89 12.98
11/6/2021 12:00:00 PM 5.34 41.612 0.045 6.76 2.67 12.96
11/6/2021 12:15:00 PM 5.49 41.882 0.045 6.78 3.31 12.9
11/6/2021 12:30:00 PM 5.64 42.152 0.045 6.8 2.11 12.85
11/6/2021 12:45:00 PM 5.76 42.368 0.045 6.79 3.7 12.82
11/6/2021 1:00:00 PM 5.86 42.548 0.044 6.8 2.5 12.79
11/6/2021 1:15:00 PM 5.93 42.674 0.044 6.79 3.62 12.75
11/6/2021 1:30:00 PM 5.98 42.764 0.045 6.81 4.84 12.72
11/6/2021 1:45:00 PM 6.01 42.818 0.045 6.83 2.62 12.69
11/6/2021 2:00:00 PM 6.02 42.836 0.045 6.79 3.05 12.65
11/6/2021 2:15:00 PM 6.03 42.854 0.045 6.76 2.58 12.63
11/6/2021 2:30:00 PM 6.05 42.89 0.045 6.76 2.26 12.61
11/6/2021 2:45:00 PM 6.07 42.926 0.044 6.76 2.19 12.58
11/6/2021 3:00:00 PM 6.1 42.98 0.045 6.78 2.12 12.55
11/6/2021 3:15:00 PM 6.11 42.998 0.045 6.76 3.9 12.54
11/6/2021 3:30:00 PM 6.12 43.016 0.044 6.75 2.9 12.52
11/6/2021 3:45:00 PM 6.13 43.034 0.045 6.76 2.13 12.5
11/6/2021 4:00:00 PM 6.13 43.034 0.043 6.75 2.18 12.49
11/6/2021 4:15:00 PM 6.13 43.034 0.043 6.76 2.46 12.48
11/6/2021 4:30:00 PM 6.12 43.016 0.045 6.73 3.1 12.45
11/6/2021 4:45:00 PM 6.12 43.016 0.042 6.71 3.19 12.45
11/6/2021 5:00:00 PM 6.1 42.98 0.041 6.64 2.7 12.43
11/6/2021 5:15:00 PM 6.09 42.962 0.046 6.74 1.86 12.42
11/6/2021 5:30:00 PM 6.07 42.926 0.046 6.65 2.82 12.42
11/6/2021 5:45:00 PM 6.05 42.89 0.045 6.7 3.75 12.4
11/6/2021 6:00:00 PM 6.03 42.854 0.042 6.7 3.02 12.39
11/6/2021 6:15:00 PM 6 42.8 0.044 6.69 3.04 12.37
11/6/2021 6:30:00 PM 5.97 42.746 0.046 6.7 2.67 12.38
11/6/2021 6:45:00 PM 5.94 42.692 0.046 6.69 2.82 12.38
11/6/2021 7:00:00 PM 5.92 42.656 0.046 6.69 3.18 12.39
11/6/2021 7:15:00 PM 5.89 42.602 0.046 6.69 3.54 12.39
11/6/2021 7:30:00 PM 5.87 42.566 0.044 6.68 2.84 12.4
11/6/2021 7:45:00 PM 5.84 42.512 0.046 6.69 4.36 12.4
11/6/2021 8:00:00 PM 5.82 42.476 0.046 6.68 3 12.41
11/6/2021 8:15:00 PM 5.79 42.422 0.045 6.68 3.37 12.41
11/6/2021 8:30:00 PM 5.77 42.386 0.046 6.69 2.75 12.42
11/6/2021 8:45:00 PM 5.74 42.332 0.04 6.66 2.53 12.42
11/6/2021 9:00:00 PM 5.72 42.296 0.046 6.7 2.73 12.43
11/6/2021 9:15:00 PM 5.69 42.242 0.044 6.67 3.4 12.43
11/6/2021 9:30:00 PM 5.66 42.188 0.046 6.69 2.73 12.44
11/6/2021 9:45:00 PM 5.63 42.134 0.046 6.68 2.64 12.45
11/6/2021 10:00:00 PM 5.6 42.08 0.046 6.66 2.61 12.45
11/6/2021 10:15:00 PM 5.57 42.026 0.046 6.67 3.4 12.46
11/6/2021 10:30:00 PM 5.54 41.972 0.046 6.68 1.79 12.47
11/6/2021 10:45:00 PM 5.51 41.918 0.046 6.67 3.33 12.49
11/6/2021 11:00:00 PM 5.48 41.864 0.044 6.66 2.42 12.5
11/6/2021 11:15:00 PM 5.45 41.81 0.04 6.68 2.67 12.51
11/6/2021 11:30:00 PM 5.41 41.738 0.046 6.68 2.32 12.53
11/6/2021 11:45:00 PM 5.38 41.684 0.046 6.66 3.21 12.54
11/7/2021 12:00:00 AM 5.35 41.63 0.046 6.68 2.89 12.55
11/7/2021 12:15:00 AM 5.32 41.576 0.044 6.67 2.12 12.56
11/7/2021 12:30:00 AM 5.28 41.504 0.046 6.64 2.42 12.57
11/7/2021 12:45:00 AM 5.24 41.432 0.046 6.66 3 12.58
11/7/2021 1:00:00 AM 5.21 41.378 0.046 6.67 3.68 12.6
11/7/2021 1:15:00 AM 5.17 41.306 0.046 6.65 2.2 12.61
11/7/2021 1:30:00 AM 5.14 41.252 0.046 6.68 2.86 12.62
11/7/2021 1:45:00 AM 5.1 41.18 0.046 6.68 4.43 12.62
11/7/2021 2:00:00 AM 5.06 41.108 0.044 6.66 2.26 12.63
11/7/2021 2:15:00 AM 5.03 41.054 0.046 6.63 3.89 12.64
11/7/2021 2:30:00 AM 4.99 40.982 0.046 6.66 2.67 12.65
11/7/2021 2:45:00 AM 4.96 40.928 0.044 6.65 2.3 12.66
11/7/2021 3:00:00 AM 4.93 40.874 0.046 6.65 2.63 12.67
11/7/2021 3:15:00 AM 4.89 40.802 0.046 6.65 3.34 12.68
11/7/2021 3:30:00 AM 4.86 40.748 0.044 6.65 2.33 12.7
11/7/2021 3:45:00 AM 4.83 40.694 0.044 6.64 3.01 12.7
11/7/2021 4:00:00 AM 4.79 40.622 0.044 6.65 2.39 12.72
11/7/2021 4:15:00 AM 4.76 40.568 0.046 6.64 2.67 12.73
11/7/2021 4:30:00 AM 4.73 40.514 0.046 6.67 2.67 12.74
11/7/2021 4:45:00 AM 4.7 40.46 0.046 6.6 4.1 12.76
11/7/2021 5:00:00 AM 4.67 40.406 0.046 6.65 4.38 12.77
11/7/2021 5:15:00 AM 4.64 40.352 0.046 6.64 3.25 12.77
11/7/2021 5:30:00 AM 4.61 40.298 0.045 6.64 2.1 12.79
11/7/2021 5:45:00 AM 4.57 40.226 0.045 6.6 2.7 12.79
11/7/2021 6:00:00 AM 4.54 40.172 0.046 6.66 2.74 12.8
11/7/2021 6:15:00 AM 4.52 40.136 0.044 6.64 2.9 12.81
11/7/2021 6:30:00 AM 4.48 40.064 0.046 6.63 2.47 12.82
11/7/2021 6:45:00 AM 4.45 40.01 0.044 6.63 2.17 12.83
11/7/2021 7:00:00 AM 4.42 39.956 0.046 6.62 2.93 12.84
11/7/2021 7:15:00 AM 4.39 39.902 0.045 6.63 3.73 12.85
11/7/2021 7:30:00 AM 4.36 39.848 0.046 6.62 2.87 12.86
11/7/2021 7:45:00 AM 4.33 39.794 0.045 6.63 2.32 12.87
11/7/2021 8:00:00 AM 4.3 39.74 0.046 6.62 2.64 12.9
11/7/2021 8:15:00 AM 4.27 39.686 0.046 6.63 3.3 12.94
11/7/2021 8:30:00 AM 4.25 39.65 0.046 6.64 2.64 12.97
11/7/2021 8:45:00 AM 4.24 39.632 0.044 6.62 2.27 13.02
11/7/2021 9:00:00 AM 4.23 39.614 0.046 6.67 3.79 13.04
11/7/2021 9:15:00 AM 4.24 39.632 0.045 6.67 3.06 13.08
11/7/2021 9:30:00 AM 4.25 39.65 0.046 6.71 4.19 13.09
11/7/2021 9:45:00 AM 4.27 39.686 0.046 6.7 2.81 13.1
11/7/2021 10:00:00 AM 4.3 39.74 0.046 6.71 3.16 13.11
11/7/2021 10:15:00 AM 4.33 39.794 0.046 6.73 1.82 13.12
11/7/2021 10:30:00 AM 4.38 39.884 0.046 6.73 2.72 13.12
11/7/2021 10:45:00 AM 4.45 40.01 0.046 6.7 2.86 13.11
11/7/2021 11:00:00 AM 4.53 40.154 0.046 6.73 3.5 13.1
11/7/2021 11:15:00 AM 4.64 40.352 0.046 6.75 2.8 13.09
11/7/2021 11:30:00 AM 4.78 40.604 0.045 6.75 2.85 13.05
11/7/2021 11:45:00 AM 4.94 40.892 0.046 6.77 3.1 13
11/7/2021 12:00:00 PM 5.11 41.198 0.043 6.79 2.19 12.96
11/7/2021 12:15:00 PM 5.28 41.504 0.046 6.79 2.59 12.94
11/7/2021 12:30:00 PM 5.44 41.792 0.046 6.79 2.87 12.87
11/7/2021 12:45:00 PM 5.58 42.044 0.046 6.82 1.68 12.82
11/7/2021 1:00:00 PM 5.69 42.242 0.045 6.81 2.77 12.78
11/7/2021 1:15:00 PM 5.79 42.422 0.046 6.81 2.42 12.75
11/7/2021 1:30:00 PM 5.85 42.53 0.046 6.81 3.01 12.71
11/7/2021 1:45:00 PM 5.9 42.62 0.046 6.82 3.19 12.68
11/7/2021 2:00:00 PM 5.93 42.674 0.046 6.8 3.11 12.65
11/7/2021 2:15:00 PM 5.96 42.728 0.045 6.81 3.61 12.62
11/7/2021 2:30:00 PM 5.99 42.782 0.043 6.81 2.3 12.59
11/7/2021 2:45:00 PM 6.02 42.836 0.045 6.8 3.11 12.56
11/7/2021 3:00:00 PM 6.07 42.926 0.045 6.8 3.44 12.52
11/7/2021 3:15:00 PM 6.11 42.998 0.043 6.79 2.16 12.5
11/7/2021 3:30:00 PM 6.14 43.052 0.046 6.67 2.87 12.47
11/7/2021 3:45:00 PM 6.16 43.088 0.046 6.78 3.48 12.45
11/7/2021 4:00:00 PM 6.18 43.124 0.046 6.77 2.3 12.43
11/7/2021 4:15:00 PM 6.2 43.16 0.046 6.77 2.72 12.41
11/7/2021 4:30:00 PM 6.21 43.178 0.046 6.77 3.52 12.39
11/7/2021 4:45:00 PM 6.21 43.178 0.046 6.76 2.78 12.37
11/7/2021 5:00:00 PM 6.21 43.178 0.045 6.76 1.96 12.36
11/7/2021 5:15:00 PM 6.2 43.16 0.046 6.77 3 12.34
11/7/2021 5:30:00 PM 6.2 43.16 0.046 6.61 2.92 12.32
11/7/2021 5:45:00 PM 6.18 43.124 0.046 6.72 1.93 12.3
11/7/2021 6:00:00 PM 6.17 43.106 0.046 6.71 3.86 12.28
11/7/2021 6:15:00 PM 6.15 43.07 0.044 6.72 3.59 12.26
11/7/2021 6:30:00 PM 6.13 43.034 0.041 6.72 2.66 12.26
11/7/2021 6:45:00 PM 6.1 42.98 0.046 6.7 3.03 12.26
11/7/2021 7:00:00 PM 6.08 42.944 0.047 6.72 2.92 12.27
11/7/2021 7:15:00 PM 6.06 42.908 0.047 6.7 3.01 12.27
11/7/2021 7:30:00 PM 6.04 42.872 0.045 6.72 3.42 12.28
11/7/2021 7:45:00 PM 6.02 42.836 0.047 6.7 3.71 12.28
11/7/2021 8:00:00 PM 6 42.8 0.044 6.7 2.46 12.29
11/7/2021 8:15:00 PM 5.99 42.782 0.041 6.7 3.14 12.29
11/7/2021 8:30:00 PM 5.98 42.764 0.044 6.7 2.69 12.29
11/7/2021 8:45:00 PM 5.96 42.728 0.044 6.7 2.35 12.3
11/7/2021 9:00:00 PM 5.95 42.71 0.047 6.69 3.39 12.3
11/7/2021 9:15:00 PM 5.94 42.692 0.047 6.69 2.92 12.31
11/7/2021 9:30:00 PM 5.93 42.674 0.047 6.55 3.75 12.31
11/7/2021 9:45:00 PM 5.91 42.638 0.047 6.68 2.38 12.32
11/7/2021 10:00:00 PM 5.9 42.62 0.047 6.69 1.81 12.33
11/7/2021 10:15:00 PM 5.88 42.584 0.046 6.69 2.04 12.33
11/7/2021 10:30:00 PM 5.86 42.548 0.047 6.71 3.92 12.34
11/7/2021 10:45:00 PM 5.85 42.53 0.044 6.69 2.7 12.34
11/7/2021 11:00:00 PM 5.83 42.494 0.039 6.68 2.77 12.35
11/7/2021 11:15:00 PM 5.81 42.458 0.046 6.68 2.59 12.35
11/7/2021 11:30:00 PM 5.78 42.404 0.044 6.62 2.4 12.36
11/7/2021 11:45:00 PM 5.76 42.368 0.046 6.68 2.25 12.37
11/8/2021 12:00:00 AM 5.74 42.332 0.044 6.67 2.37 12.37
11/8/2021 12:15:00 AM 5.71 42.278 0.047 6.68 3.34 12.38
11/8/2021 12:30:00 AM 5.69 42.242 0.045 6.67 2.92 12.39
11/8/2021 12:45:00 AM 5.66 42.188 0.047 6.66 1.73 12.4
11/8/2021 1:00:00 AM 5.64 42.152 0.047 6.68 2.39 12.4
11/8/2021 1:15:00 AM 5.61 42.098 0.047 6.71 2.16 12.41
11/8/2021 1:30:00 AM 5.58 42.044 0.047 6.68 4.33 12.42
11/8/2021 1:45:00 AM 5.56 42.008 0.047 6.68 2.42 12.42
11/8/2021 2:00:00 AM 5.53 41.954 0.047 6.67 2.21 12.42
11/8/2021 2:15:00 AM 5.51 41.918 0.046 6.66 2.95 12.43
11/8/2021 2:30:00 AM 5.48 41.864 0.046 6.66 4.14 12.44
11/8/2021 2:45:00 AM 5.46 41.828 0.044 6.67 2.3 12.45
11/8/2021 3:00:00 AM 5.43 41.774 0.046 6.68 2.77 12.46
11/8/2021 3:15:00 AM 5.41 41.738 0.044 6.66 2.25 12.47
11/8/2021 3:30:00 AM 5.38 41.684 0.047 6.64 2.96 12.49
11/8/2021 3:45:00 AM 5.36 41.648 0.044 6.68 2.38 12.49
11/8/2021 4:00:00 AM 5.34 41.612 0.047 6.65 3.29 12.51
11/8/2021 4:15:00 AM 5.31 41.558 0.047 6.67 2.74 12.52
11/8/2021 4:30:00 AM 5.29 41.522 0.046 6.67 2.79 12.53
11/8/2021 4:45:00 AM 5.27 41.486 0.038 6.65 3.35 12.54
11/8/2021 5:00:00 AM 5.25 41.45 0.046 6.67 2.85 12.55
11/8/2021 5:15:00 AM 5.23 41.414 0.044 6.67 2.01 12.55
11/8/2021 5:30:00 AM 5.2 41.36 0.044 6.67 2.38 12.55
11/8/2021 5:45:00 AM 5.18 41.324 0.046 6.67 1.76 12.57
11/8/2021 6:00:00 AM 5.16 41.288 0.044 6.66 3.3 12.57
11/8/2021 6:15:00 AM 5.13 41.234 0.037 6.67 3.28 12.57
11/8/2021 6:30:00 AM 5.11 41.198 0.044 6.67 2.54 12.58
11/8/2021 6:45:00 AM 5.09 41.162 0.045 6.66 2.97 12.59
11/8/2021 7:00:00 AM 5.07 41.126 0.046 6.65 2.29 12.59
11/8/2021 7:15:00 AM 5.04 41.072 0.047 6.67 2.72 12.6
11/8/2021 7:30:00 AM 5.02 41.036 0.047 6.67 2.58 12.6
11/8/2021 7:45:00 AM 4.99 40.982 0.047 6.69 4.15 12.62
11/8/2021 8:00:00 AM 4.97 40.946 0.046 6.66 2.21 12.64
11/8/2021 8:15:00 AM 4.95 40.91 0.047 6.68 1.62 12.68
11/8/2021 8:30:00 AM 4.94 40.892 0.047 6.66 2.6 12.72
11/8/2021 8:45:00 AM 4.93 40.874 0.047 6.7 2.56 12.76
11/8/2021 9:00:00 AM 4.93 40.874 0.047 6.69 2.45 12.79
11/8/2021 9:15:00 AM 4.94 40.892 0.047 6.7 2 12.82
11/8/2021 9:30:00 AM 4.96 40.928 0.044 6.72 2.38 12.84
11/8/2021 9:45:00 AM 4.98 40.964 0.044 6.72 2.85 12.87
11/8/2021 10:00:00 AM 5.02 41.036 0.047 6.72 3.39 12.88
11/8/2021 10:15:00 AM 5.38 41.684 0.047 6.78 2.48 12.86
11/8/2021 10:30:00 AM 5.52 41.936 0.046 6.8 2.43 12.81
11/8/2021 10:45:00 AM 5.69 42.242 0.046 6.81 2.23 12.78
11/8/2021 11:00:00 AM 5.87 42.566 0.046 6.8 2.73 12.75
11/8/2021 11:15:00 AM 6.04 42.872 0.046 6.83 2.89 12.69
11/8/2021 11:30:00 AM 6.22 43.196 0.043 6.82 3.12 12.64
11/8/2021 11:45:00 AM 6.37 43.466 0.045 6.82 2.64 12.6
11/8/2021 12:00:00 PM 6.51 43.718 0.046 6.83 2.66 12.55
11/8/2021 12:15:00 PM 6.62 43.916 0.046 6.84 1.58 12.5
11/8/2021 12:30:00 PM 6.71 44.078 0.046 6.82 3.15 12.46
11/8/2021 12:45:00 PM 6.78 44.204 0.046 6.83 2.86 12.42
11/8/2021 1:00:00 PM 6.83 44.294 0.044 6.84 2.58 12.39
11/8/2021 1:15:00 PM 6.87 44.366 0.046 6.82 3.59 12.36
11/8/2021 1:30:00 PM 6.91 44.438 0.046 6.82 3.11 12.33
11/8/2021 1:45:00 PM 6.96 44.528 0.046 6.83 1.95 12.3
11/8/2021 2:00:00 PM 7.02 44.636 0.046 6.81 2.17 12.26
11/8/2021 2:15:00 PM 7.08 44.744 0.045 6.8 2.94 12.22
11/8/2021 2:30:00 PM 7.12 44.816 0.046 6.8 2.14 12.18
11/8/2021 2:45:00 PM 7.17 44.906 0.046 6.81 1.81 12.16
11/8/2021 3:00:00 PM 7.2 44.96 0.046 6.8 2.49 12.12
11/8/2021 3:15:00 PM 7.23 45.014 0.046 6.79 2.51 12.1
11/8/2021 3:30:00 PM 7.25 45.05 0.046 6.8 2.74 12.07
11/8/2021 3:45:00 PM 7.27 45.086 0.045 6.79 2.81 12.05
11/8/2021 4:00:00 PM 7.29 45.122 0.047 6.77 3.25 12.03
11/8/2021 4:15:00 PM 7.31 45.158 0.047 6.76 3.48 12.01
11/8/2021 4:30:00 PM 7.31 45.158 0.047 6.76 2.24 11.98
11/8/2021 4:45:00 PM 7.31 45.158 0.047 6.74 1.93 11.96
11/8/2021 5:00:00 PM 7.31 45.158 0.046 6.74 2.78 11.93
11/8/2021 5:15:00 PM 7.3 45.14 0.043 6.73 2.7 11.91
11/8/2021 5:30:00 PM 7.3 45.14 0.046 6.71 3.25 11.9
11/8/2021 5:45:00 PM 7.29 45.122 0.046 6.71 2.53 11.9
11/8/2021 6:00:00 PM 7.27 45.086 0.047 6.72 4.31 11.9
11/8/2021 6:15:00 PM 7.26 45.068 0.047 6.73 2.38 11.89
11/8/2021 6:30:00 PM 7.25 45.05 0.04 6.7 2.98 11.9
11/8/2021 6:45:00 PM 7.24 45.032 0.046 6.71 2.16 11.9
11/8/2021 7:00:00 PM 7.23 45.014 0.045 6.7 2.24 11.91
11/8/2021 7:15:00 PM 7.23 45.014 0.044 6.71 2.12 11.91
11/8/2021 7:30:00 PM 7.22 44.996 0.045 6.66 2.81 11.91
11/8/2021 7:45:00 PM 7.21 44.978 0.047 6.7 3.21 11.91
11/8/2021 8:00:00 PM 7.2 44.96 0.045 6.72 3.88 11.9
11/8/2021 8:15:00 PM 7.2 44.96 0.047 6.7 2.63 11.91
11/8/2021 8:30:00 PM 7.19 44.942 0.045 6.71 3.9 11.91
11/8/2021 8:45:00 PM 7.18 44.924 0.045 6.7 2.93 11.91
11/8/2021 9:00:00 PM 7.18 44.924 0.046 6.7 2.86 11.91
11/8/2021 9:15:00 PM 7.16 44.888 0.048 6.7 2.95 11.92
11/8/2021 9:30:00 PM 7.15 44.87 0.046 6.7 3.09 11.92
11/8/2021 9:45:00 PM 7.14 44.852 0.048 6.67 2.65 11.92
11/8/2021 10:00:00 PM 7.13 44.834 0.048 6.71 2.01 11.93
11/8/2021 10:15:00 PM 7.12 44.816 0.046 6.7 3.25 11.93
11/8/2021 10:30:00 PM 7.1 44.78 0.048 6.7 2.88 11.94
11/8/2021 10:45:00 PM 7.09 44.762 0.046 6.71 3.02 11.94
11/8/2021 11:00:00 PM 7.07 44.726 0.048 6.7 3.17 11.95
11/8/2021 11:15:00 PM 7.05 44.69 0.047 6.73 3.04 11.95
11/8/2021 11:30:00 PM 7.03 44.654 0.041 6.7 2.87 11.96
11/8/2021 11:45:00 PM 7.01 44.618 0.044 6.69 3.31 11.97
11/9/2021 12:00:00 AM 6.98 44.564 0.042 6.7 2.7 11.97
11/9/2021 12:15:00 AM 6.96 44.528 0.04 6.7 2.74 11.98
11/9/2021 12:30:00 AM 6.93 44.474 0.045 6.7 2.08 11.99
11/9/2021 12:45:00 AM 6.91 44.438 0.045 6.69 4.27 12
11/9/2021 1:00:00 AM 6.87 44.366 0.041 6.7 2.43 12.01
11/9/2021 1:15:00 AM 6.84 44.312 0.048 6.7 2.03 12.01
11/9/2021 1:30:00 AM 6.81 44.258 0.045 6.69 2.09 12.02
11/9/2021 1:45:00 AM 6.78 44.204 0.039 6.69 3.22 12.03
11/9/2021 2:00:00 AM 6.76 44.168 0.045 6.68 3.05 12.04
11/9/2021 2:15:00 AM 6.73 44.114 0.041 6.69 3.08 12.05
11/9/2021 2:30:00 AM 6.7 44.06 0.046 6.69 1.92 12.05
11/9/2021 2:45:00 AM 6.67 44.006 0.048 6.69 3.07 12.05
11/9/2021 3:00:00 AM 6.64 43.952 0.043 6.69 2.82 12.06
11/9/2021 3:15:00 AM 6.61 43.898 0.048 6.69 2.52 12.07
11/9/2021 3:30:00 AM 6.58 43.844 0.047 6.68 2.05 12.08
11/9/2021 3:45:00 AM 6.56 43.808 0.045 6.67 2.38 12.09
11/9/2021 4:00:00 AM 6.53 43.754 0.048 6.68 3.81 12.1
11/9/2021 4:15:00 AM 6.5 43.7 0.045 6.69 2.71 12.11
11/9/2021 4:30:00 AM 6.47 43.646 0.048 6.67 2.07 12.12
11/9/2021 4:45:00 AM 6.45 43.61 0.045 6.68 2.61 12.13
11/9/2021 5:00:00 AM 6.42 43.556 0.042 6.68 3.04 12.14
11/9/2021 5:15:00 AM 6.39 43.502 0.047 6.68 2.54 12.15
11/9/2021 5:30:00 AM 6.37 43.466 0.046 6.68 2.68 12.16
11/9/2021 5:45:00 AM 6.34 43.412 0.046 6.68 2.41 12.17
11/9/2021 6:00:00 AM 6.31 43.358 0.045 6.67 2.91 12.18
11/9/2021 6:15:00 AM 6.29 43.322 0.047 6.68 3.22 12.19
11/9/2021 6:30:00 AM 6.27 43.286 0.048 6.67 2.83 12.19
11/9/2021 6:45:00 AM 6.25 43.25 0.044 6.67 3.44 12.21
11/9/2021 7:00:00 AM 6.23 43.214 0.045 6.69 2.54 12.22
11/9/2021 7:15:00 AM 6.22 43.196 0.039 6.68 2.93 12.26
11/9/2021 7:30:00 AM 6.21 43.178 0.039 6.69 3.72 12.29
11/9/2021 7:45:00 AM 6.2 43.16 0.047 6.7 1.97 12.33
11/9/2021 8:00:00 AM 6.2 43.16 0.046 6.72 3.14 12.37
11/9/2021 8:15:00 AM 6.22 43.196 0.048 6.73 3.1 12.4
11/9/2021 8:30:00 AM 6.24 43.232 0.045 6.73 2.82 12.43
11/9/2021 8:45:00 AM 6.27 43.286 0.048 6.69 4.07 12.45
11/9/2021 9:00:00 AM 6.32 43.376 0.047 6.75 2.14 12.46
11/9/2021 9:15:00 AM 6.37 43.466 0.047 6.76 2.52 12.47
11/9/2021 9:30:00 AM 6.44 43.592 0.047 6.77 2.79 12.46
11/9/2021 9:45:00 AM 6.51 43.718 0.045 6.78 2.31 12.44
11/9/2021 10:00:00 AM 6.61 43.898 0.047 6.8 2.06 12.43
11/9/2021 10:15:00 AM 6.73 44.114 0.046 6.82 2.12 12.41
11/9/2021 10:30:00 AM 6.87 44.366 0.047 6.83 1.7 12.39
11/9/2021 10:45:00 AM 7.04 44.672 0.045 6.83 2.62 12.35
11/9/2021 11:00:00 AM 7.22 44.996 0.046 6.86 3.31 12.31
11/9/2021 11:15:00 AM 7.4 45.32 0.046 6.86 2.16 12.28
11/9/2021 11:30:00 AM 7.57 45.626 0.047 6.87 2.58 12.22
11/9/2021 11:45:00 AM 7.73 45.914 0.047 6.88 2.91 12.18
11/9/2021 12:00:00 PM 7.86 46.148 0.047 6.88 2.65 12.13
11/9/2021 12:15:00 PM 7.97 46.346 0.047 6.88 2.81 12.09
11/9/2021 12:30:00 PM 8.05 46.49 0.047 6.88 2.82 12.05
11/9/2021 12:45:00 PM 8.12 46.616 0.045 6.89 2.89 12.01
11/9/2021 1:00:00 PM 8.17 46.706 0.047 6.89 3.7 11.98
11/9/2021 1:15:00 PM 8.21 46.778 0.042 6.87 2.59 11.95
11/9/2021 1:30:00 PM 8.25 46.85 0.041 6.89 2.71 11.92
11/9/2021 1:45:00 PM 8.29 46.922 0.047 6.88 1.97 11.89
11/9/2021 2:00:00 PM 8.35 47.03 0.042 6.88 2.47 11.88
11/9/2021 2:15:00 PM 8.4 47.12 0.047 6.88 3.24 11.86
11/9/2021 2:30:00 PM 8.45 47.21 0.047 6.88 2.83 11.84
11/9/2021 2:45:00 PM 8.49 47.282 0.046 6.9 2.56 11.82
11/9/2021 3:00:00 PM 8.52 47.336 0.046 6.87 3.94 11.78
11/9/2021 3:15:00 PM 8.55 47.39 0.045 6.86 2.55 11.75
11/9/2021 3:30:00 PM 8.57 47.426 0.047 6.85 2.45 11.7
11/9/2021 3:45:00 PM 8.59 47.462 0.047 6.84 2.44 11.68
11/9/2021 4:00:00 PM 8.61 47.498 0.045 6.82 3.21 11.65
11/9/2021 4:15:00 PM 8.62 47.516 0.047 6.81 3.75 11.63
11/9/2021 4:30:00 PM 8.63 47.534 0.044 6.81 3.19 11.59
11/9/2021 4:45:00 PM 8.62 47.516 0.047 6.8 3.52 11.55
11/9/2021 5:00:00 PM 8.61 47.498 0.046 6.75 2.64 11.52
11/9/2021 5:15:00 PM 8.6 47.48 0.045 6.77 2.91 11.49
11/9/2021 5:30:00 PM 8.59 47.462 0.048 6.76 2.72 11.48
11/9/2021 5:45:00 PM 8.59 47.462 0.047 6.76 4.17 11.48
11/9/2021 6:00:00 PM 8.59 47.462 0.048 6.75 2.66 11.47
11/9/2021 6:15:00 PM 8.59 47.462 0.048 6.74 3.47 11.47
11/9/2021 6:30:00 PM 8.59 47.462 0.048 6.73 3.3 11.47
11/9/2021 6:45:00 PM 8.59 47.462 0.048 6.69 1.75 11.46
11/9/2021 7:00:00 PM 8.6 47.48 0.048 6.72 1.87 11.46
11/9/2021 7:15:00 PM 8.59 47.462 0.048 6.72 3.25 11.46
11/9/2021 7:30:00 PM 8.59 47.462 0.046 6.71 3.18 11.45
11/9/2021 7:45:00 PM 8.6 47.48 0.039 6.71 2.53 11.45
11/9/2021 8:00:00 PM 8.6 47.48 0.048 6.7 2.46 11.45
11/9/2021 8:15:00 PM 8.6 47.48 0.048 6.71 3.09 11.45
11/9/2021 8:30:00 PM 8.61 47.498 0.047 6.71 2.68 11.44
11/9/2021 8:45:00 PM 8.62 47.516 0.046 6.71 3 11.44
11/9/2021 9:00:00 PM 8.63 47.534 0.04 6.71 2.8 11.44
11/9/2021 9:15:00 PM 8.64 47.552 0.048 6.71 3.97 11.43
11/9/2021 9:30:00 PM 8.65 47.57 0.048 6.72 3.47 11.43
11/9/2021 9:45:00 PM 8.66 47.588 0.048 6.71 2.62 11.42
11/9/2021 10:00:00 PM 8.67 47.606 0.048 6.7 2.77 11.42
11/9/2021 10:15:00 PM 8.67 47.606 0.048 6.69 2.78 11.42
11/9/2021 10:30:00 PM 8.67 47.606 0.048 6.7 1.74 11.41
11/9/2021 10:45:00 PM 8.67 47.606 0.048 6.7 2.53 11.41
11/9/2021 11:00:00 PM 8.68 47.624 0.038 6.7 2.64 11.41
11/9/2021 11:15:00 PM 8.68 47.624 0.048 6.7 2.74 11.4
11/9/2021 11:30:00 PM 8.68 47.624 0.048 6.7 3.15 11.41
11/9/2021 11:45:00 PM 8.67 47.606 0.048 6.69 2.59 11.41
11/10/2021 12:00:00 AM 8.67 47.606 0.046 6.7 2.44 11.41
11/10/2021 12:15:00 AM 8.66 47.588 0.048 6.73 2.12 11.4
11/10/2021 12:30:00 AM 8.66 47.588 0.045 6.7 2.91 11.4
11/10/2021 12:45:00 AM 8.66 47.588 0.048 6.69 2.23 11.41
11/10/2021 1:00:00 AM 8.66 47.588 0.048 6.73 3.3 11.4
11/10/2021 1:15:00 AM 8.66 47.588 0.048 6.69 3.61 11.4
11/10/2021 1:30:00 AM 8.66 47.588 0.048 6.69 2.79 11.4
11/10/2021 1:45:00 AM 8.65 47.57 0.044 6.72 2.98 11.41
11/10/2021 2:00:00 AM 8.64 47.552 0.048 6.7 2.18 11.41
11/10/2021 2:15:00 AM 8.63 47.534 0.047 6.69 3.08 11.41
11/10/2021 2:30:00 AM 8.61 47.498 0.048 6.68 4.37 11.41
11/10/2021 2:45:00 AM 8.6 47.48 0.046 6.71 2.95 11.41
11/10/2021 3:00:00 AM 8.59 47.462 0.048 6.7 3.25 11.41
11/10/2021 3:15:00 AM 8.58 47.444 0.048 6.7 3.19 11.42
11/10/2021 3:30:00 AM 8.56 47.408 0.048 6.69 3.89 11.43
11/10/2021 3:45:00 AM 8.55 47.39 0.047 6.7 2.63 11.43
11/10/2021 4:00:00 AM 8.53 47.354 0.047 6.69 2.99 11.43
11/10/2021 4:15:00 AM 8.51 47.318 0.045 6.7 2.11 11.44
11/10/2021 4:30:00 AM 8.5 47.3 0.047 6.69 2.99 11.45
11/10/2021 4:45:00 AM 8.48 47.264 0.048 6.68 3.03 11.45
11/10/2021 5:00:00 AM 8.45 47.21 0.045 6.7 2.07 11.46
11/10/2021 5:15:00 AM 8.43 47.174 0.039 6.69 2.8 11.47
11/10/2021 5:30:00 AM 8.4 47.12 0.046 6.7 2.06 11.48
11/10/2021 5:45:00 AM 8.38 47.084 0.045 6.69 2.72 11.49
11/10/2021 6:00:00 AM 8.35 47.03 0.046 6.7 2.71 11.5
11/10/2021 6:15:00 AM 8.32 46.976 0.044 6.69 2.65 11.51
11/10/2021 6:30:00 AM 8.31 46.958 0.047 6.69 3.54 11.52
11/10/2021 6:45:00 AM 8.3 46.94 0.044 6.7 2.91 11.53
11/10/2021 7:00:00 AM 8.29 46.922 0.039 6.71 2.64 11.54
11/10/2021 7:15:00 AM 8.29 46.922 0.045 6.7 2.05 11.56
11/10/2021 7:30:00 AM 8.28 46.904 0.047 6.67 2.93 11.57
11/10/2021 7:45:00 AM 8.28 46.904 0.045 6.7 2.7 11.59
11/10/2021 8:00:00 AM 8.28 46.904 0.046 6.74 3.15 11.62
11/10/2021 8:15:00 AM 8.28 46.904 0.044 6.73 2.58 11.65
11/10/2021 8:30:00 AM 8.29 46.922 0.047 6.73 2.9 11.67
11/10/2021 8:45:00 AM 8.32 46.976 0.045 6.75 3.29 11.73
11/10/2021 9:00:00 AM 8.33 46.994 0.045 6.77 2.58 11.77
11/10/2021 9:15:00 AM 8.38 47.084 0.048 6.81 1.78 11.83
11/10/2021 9:30:00 AM 8.41 47.138 0.048 6.83 1.9 11.84
11/10/2021 9:45:00 AM 8.44 47.192 0.045 6.84 2.44 11.83
11/10/2021 10:00:00 AM 8.5 47.3 0.048 6.86 2.09 11.83
11/10/2021 10:15:00 AM 8.6 47.48 0.047 6.87 2.12 11.84
11/10/2021 10:30:00 AM 8.7 47.66 0.046 6.88 1.99 11.83
11/10/2021 10:45:00 AM 8.83 47.894 0.047 6.89 3.08 11.8
11/10/2021 11:00:00 AM 8.98 48.164 0.047 6.9 1.74 11.77
11/10/2021 11:15:00 AM 9.14 48.452 0.047 6.92 2.16 11.74
11/10/2021 11:30:00 AM 9.31 48.758 0.047 6.92 1.75 11.69
11/10/2021 11:45:00 AM 9.46 49.028 0.047 6.92 2 11.65
11/10/2021 12:00:00 PM 9.57 49.226 0.047 6.93 2.22 11.61
11/10/2021 12:15:00 PM 9.65 49.37 0.044 6.93 2.19 11.58
11/10/2021 12:30:00 PM 9.71 49.478 0.046 6.94 1.97 11.56
11/10/2021 12:45:00 PM 9.74 49.532 0.046 6.93 2.1 11.53
11/10/2021 1:00:00 PM 9.74 49.532 0.047 6.92 1.97 11.51
11/10/2021 1:15:00 PM 9.72 49.496 0.047 6.92 1.8 11.5
11/10/2021 1:30:00 PM 9.69 49.442 0.047 6.93 1.82 11.48
11/10/2021 1:45:00 PM 9.66 49.388 0.047 6.91 1.93 11.47
11/10/2021 2:00:00 PM 9.65 49.37 0.047 6.91 3.03 11.45
11/10/2021 2:15:00 PM 9.63 49.334 0.045 6.89 2.81 11.43
11/10/2021 2:30:00 PM 9.62 49.316 0.047 6.9 1.83 11.43
11/10/2021 2:45:00 PM 9.6 49.28 0.047 6.88 2.06 11.42
11/10/2021 3:00:00 PM 9.57 49.226 0.047 6.89 2.13 11.41
11/10/2021 3:15:00 PM 9.54 49.172 0.047 6.88 2.3 11.4
11/10/2021 3:30:00 PM 9.52 49.136 0.047 6.88 1.79 11.38
11/10/2021 3:45:00 PM 9.49 49.082 0.047 6.82 2.54 11.38
11/10/2021 4:00:00 PM 9.46 49.028 0.048 6.83 1.87 11.37
11/10/2021 4:15:00 PM 9.42 48.956 0.048 6.84 2.31 11.37
11/10/2021 4:30:00 PM 9.38 48.884 0.047 6.82 2.78 11.35
11/10/2021 4:45:00 PM 9.34 48.812 0.048 6.82 2.1 11.34
11/10/2021 5:00:00 PM 9.29 48.722 0.048 6.79 3.7 11.33
11/10/2021 5:15:00 PM 9.23 48.614 0.047 6.78 2.83 11.33
11/10/2021 5:30:00 PM 9.18 48.524 0.048 6.77 3.11 11.33
11/10/2021 5:45:00 PM 9.12 48.416 0.048 6.78 2.96 11.34
11/10/2021 6:00:00 PM 9.06 48.308 0.047 6.76 2.91 11.35
11/10/2021 6:15:00 PM 9 48.2 0.045 6.76 2.43 11.36
11/10/2021 6:30:00 PM 8.94 48.092 0.047 6.77 1.98 11.38
11/10/2021 6:45:00 PM 8.89 48.002 0.048 6.77 2.87 11.4
11/10/2021 7:00:00 PM 8.83 47.894 0.048 6.76 2.45 11.42
11/10/2021 7:15:00 PM 8.76 47.768 0.048 6.78 1.85 11.44
11/10/2021 7:30:00 PM 8.7 47.66 0.048 6.76 1.8 11.45
11/10/2021 7:45:00 PM 8.64 47.552 0.048 6.75 2.21 11.47
11/10/2021 8:00:00 PM 8.58 47.444 0.046 6.77 2.98 11.48
11/10/2021 8:15:00 PM 8.54 47.372 0.047 6.75 2.99 11.5
11/10/2021 8:30:00 PM 8.48 47.264 0.048 6.75 1.91 11.52
11/10/2021 8:45:00 PM 8.43 47.174 0.048 6.75 2.76 11.54
11/10/2021 9:00:00 PM 8.38 47.084 0.048 6.76 2.52 11.55
11/10/2021 9:15:00 PM 8.33 46.994 0.043 6.74 3.93 11.57
11/10/2021 9:30:00 PM 8.28 46.904 0.046 6.75 3.06 11.59
11/10/2021 9:45:00 PM 8.22 46.796 0.048 6.74 2.21 11.61
11/10/2021 10:00:00 PM 8.17 46.706 0.047 6.75 3.31 11.62
11/10/2021 10:15:00 PM 8.12 46.616 0.048 6.75 2.69 11.63
11/10/2021 10:30:00 PM 8.06 46.508 0.049 6.74 1.92 11.64
11/10/2021 10:45:00 PM 8.02 46.436 0.039 6.72 2.42 11.67
11/10/2021 11:00:00 PM 7.97 46.346 0.047 6.74 2.39 11.68
11/10/2021 11:15:00 PM 7.92 46.256 0.048 6.75 2.94 11.69
11/10/2021 11:30:00 PM 7.87 46.166 0.048 6.73 2.76 11.71
11/10/2021 11:45:00 PM 7.82 46.076 0.044 6.73 2.74 11.73
11/11/2021 12:00:00 AM 7.76 45.968 0.049 6.74 1.96 11.75
11/11/2021 12:15:00 AM 7.71 45.878 0.049 6.75 1.92 11.77
11/11/2021 12:30:00 AM 7.65 45.77 0.049 6.75 2.22 11.78
11/11/2021 12:45:00 AM 7.6 45.68 0.049 6.73 2.22 11.8
11/11/2021 1:00:00 AM 7.54 45.572 0.049 6.73 1.81 11.81
11/11/2021 1:15:00 AM 7.49 45.482 0.049 6.74 2.87 11.82
11/11/2021 1:30:00 AM 7.43 45.374 0.049 6.75 2.16 11.84
11/11/2021 1:45:00 AM 7.37 45.266 0.049 6.73 1.82 11.85
11/11/2021 2:00:00 AM 7.32 45.176 0.049 6.72 2.87 11.88
11/11/2021 2:15:00 AM 7.26 45.068 0.049 6.7 1.98 11.9
11/11/2021 2:30:00 AM 7.21 44.978 0.045 6.72 2.32 11.91
11/11/2021 2:45:00 AM 7.16 44.888 0.049 6.72 1.8 11.94
11/11/2021 3:00:00 AM 7.12 44.816 0.046 6.72 2.85 11.95
11/11/2021 3:15:00 AM 7.08 44.744 0.049 6.72 3.34 11.97
11/11/2021 3:30:00 AM 7.04 44.672 0.049 6.72 2.72 11.98
11/11/2021 3:45:00 AM 7 44.6 0.049 6.72 3.03 11.99
11/11/2021 4:00:00 AM 6.97 44.546 0.049 6.73 1.88 12
11/11/2021 4:15:00 AM 6.94 44.492 0.049 6.74 1.83 12.01
11/11/2021 4:30:00 AM 6.91 44.438 0.049 6.72 1.85 12.02
11/11/2021 4:45:00 AM 6.89 44.402 0.049 6.73 1.89 12.02
11/11/2021 5:00:00 AM 6.87 44.366 0.049 6.71 3.2 12.03
11/11/2021 5:15:00 AM 6.84 44.312 0.049 6.72 2.28 12.04
11/11/2021 5:30:00 AM 6.81 44.258 0.049 6.73 3.34 12.05
11/11/2021 5:45:00 AM 6.79 44.222 0.046 6.7 2.43 12.06
11/11/2021 6:00:00 AM 6.76 44.168 0.049 6.69 1.98 12.07
11/11/2021 6:15:00 AM 6.73 44.114 0.047 6.7 2.06 12.08
11/11/2021 6:30:00 AM 6.7 44.06 0.049 6.72 2.15 12.09
11/11/2021 6:45:00 AM 6.68 44.024 0.049 6.71 1.76 12.1
11/11/2021 7:00:00 AM 6.65 43.97 0.047 6.71 2.29 12.12
11/11/2021 7:15:00 AM 6.63 43.934 0.049 6.71 1.98 12.16
11/11/2021 7:30:00 AM 6.61 43.898 0.049 6.73 1.74 12.2
11/11/2021 7:45:00 AM 6.6 43.88 0.048 6.76 2.29 12.26
11/11/2021 8:00:00 AM 6.61 43.898 0.047 6.76 2.62 12.32
11/11/2021 8:15:00 AM 6.61 43.898 0.048 6.77 2.98 12.37
11/11/2021 8:30:00 AM 6.63 43.934 0.047 6.78 3.14 12.39
11/11/2021 8:45:00 AM 6.65 43.97 0.048 6.8 1.93 12.42
11/11/2021 9:00:00 AM 6.69 44.042 0.047 6.82 1.93 12.44
11/11/2021 9:15:00 AM 6.73 44.114 0.048 6.83 3 12.45
11/11/2021 9:30:00 AM 6.79 44.222 0.048 6.83 2.08 12.45
11/11/2021 9:45:00 AM 6.85 44.33 0.043 6.85 2.49 12.45
11/11/2021 10:00:00 AM 6.92 44.456 0.048 6.9 3.31 12.45
11/11/2021 10:15:00 AM 7.02 44.636 0.046 6.89 2.81 12.44
11/11/2021 10:30:00 AM 7.12 44.816 0.039 6.93 2.54 12.42
11/11/2021 10:45:00 AM 7.24 45.032 0.048 6.94 1.96 12.4
11/11/2021 11:00:00 AM 7.37 45.266 0.047 6.92 2.64 12.37
11/11/2021 11:15:00 AM 7.48 45.464 0.042 6.93 2.63 12.34
11/11/2021 11:30:00 AM 7.57 45.626 0.048 6.95 1.75 12.31
11/11/2021 11:45:00 AM 7.66 45.788 0.048 6.94 2.56 12.29
11/11/2021 12:00:00 PM 7.73 45.914 0.045 6.94 2.22 12.26
11/11/2021 12:15:00 PM 7.8 46.04 0.044 6.95 2.6 12.23
11/11/2021 12:30:00 PM 7.86 46.148 0.048 6.95 1.93 12.2
11/11/2021 12:45:00 PM 7.91 46.238 0.048 6.95 4.32 12.19
11/11/2021 1:00:00 PM 7.98 46.364 0.047 6.95 2.76 12.17
11/11/2021 1:15:00 PM 8.03 46.454 0.045 6.95 2.17 12.14
11/11/2021 1:30:00 PM 8.08 46.544 0.045 6.95 2.15 12.12
11/11/2021 1:45:00 PM 8.15 46.67 0.048 6.95 1.79 12.11
11/11/2021 2:00:00 PM 8.19 46.742 0.048 6.95 1.93 12.08
11/11/2021 2:15:00 PM 8.23 46.814 0.048 6.95 2.7 12.05
11/11/2021 2:30:00 PM 8.27 46.886 0.045 6.94 2.59 12.01
11/11/2021 2:45:00 PM 8.3 46.94 0.044 6.93 2.62 11.98
11/11/2021 3:00:00 PM 8.33 46.994 0.047 6.92 3.25 11.96
11/11/2021 3:15:00 PM 8.34 47.012 0.047 6.91 2.27 11.91
11/11/2021 3:30:00 PM 8.36 47.048 0.047 6.92 2.39 11.89
11/11/2021 3:45:00 PM 8.37 47.066 0.047 6.87 2.53 11.85
11/11/2021 4:00:00 PM 8.37 47.066 0.048 6.87 1.78 11.8
11/11/2021 4:15:00 PM 8.38 47.084 0.048 6.86 1.84 11.76
11/11/2021 4:30:00 PM 8.37 47.066 0.047 6.83 2.92 11.7
11/11/2021 4:45:00 PM 8.36 47.048 0.048 6.79 2.87 11.64
11/11/2021 5:00:00 PM 8.35 47.03 0.048 6.81 2.93 11.61
11/11/2021 5:15:00 PM 8.34 47.012 0.042 6.78 2.83 11.58
11/11/2021 5:30:00 PM 8.32 46.976 0.046 6.78 2.3 11.57
11/11/2021 5:45:00 PM 8.3 46.94 0.049 6.57 1.86 11.57
11/11/2021 6:00:00 PM 8.28 46.904 0.049 6.71 1.75 11.57
11/11/2021 6:15:00 PM 8.25 46.85 0.046 6.71 2.72 11.57
11/11/2021 6:30:00 PM 8.23 46.814 0.049 6.76 2.12 11.58
11/11/2021 6:45:00 PM 8.22 46.796 0.049 6.75 1.83 11.58
11/11/2021 7:00:00 PM 8.21 46.778 0.049 6.78 1.78 11.58
11/11/2021 7:15:00 PM 8.21 46.778 0.049 6.75 2.19 11.59
11/11/2021 7:30:00 PM 8.21 46.778 0.049 6.76 2.8 11.59
11/11/2021 7:45:00 PM 8.22 46.796 0.049 6.72 2.07 11.59
11/11/2021 8:00:00 PM 8.23 46.814 0.049 6.75 1.79 11.58
11/11/2021 8:15:00 PM 8.25 46.85 0.049 6.77 2.11 11.58
11/11/2021 8:30:00 PM 8.28 46.904 0.049 6.78 2.22 11.57
11/11/2021 8:45:00 PM 8.3 46.94 0.045 6.76 2.94 11.56
11/11/2021 9:00:00 PM 8.32 46.976 0.049 6.77 2.68 11.55
11/11/2021 9:15:00 PM 8.34 47.012 0.047 6.76 3.5 11.54
11/11/2021 9:30:00 PM 8.38 47.084 0.049 6.77 2.73 11.53
11/11/2021 9:45:00 PM 8.41 47.138 0.046 6.76 2.48 11.51
11/11/2021 10:00:00 PM 8.45 47.21 0.048 6.75 2.74 11.5
11/11/2021 10:15:00 PM 8.49 47.282 0.049 6.78 1.74 11.49
11/11/2021 10:30:00 PM 8.52 47.336 0.04 6.77 2.48 11.48
11/11/2021 10:45:00 PM 8.56 47.408 0.049 6.77 2.81 11.47
11/11/2021 11:00:00 PM 8.59 47.462 0.049 6.75 2.67 11.46
11/11/2021 11:15:00 PM 8.64 47.552 0.04 6.75 3.28 11.44
11/11/2021 11:30:00 PM 8.66 47.588 0.047 6.77 3.04 11.43
11/11/2021 11:45:00 PM 8.69 47.642 0.049 6.79 2.98 11.43
11/12/2021 12:00:00 AM 8.72 47.696 0.049 6.76 3.62 11.41
11/12/2021 12:15:00 AM 8.74 47.732 0.049 6.79 2.64 11.41
11/12/2021 12:30:00 AM 8.77 47.786 0.046 6.76 2.16 11.39
11/12/2021 12:45:00 AM 8.78 47.804 0.049 6.75 2.49 11.38
11/12/2021 1:00:00 AM 8.82 47.876 0.049 6.76 2.62 11.36
11/12/2021 1:15:00 AM 8.85 47.93 0.049 6.76 1.75 11.35
11/12/2021 1:30:00 AM 8.89 48.002 0.049 6.77 3.08 11.34
11/12/2021 1:45:00 AM 8.92 48.056 0.049 6.76 2.69 11.33
11/12/2021 2:00:00 AM 8.96 48.128 0.047 6.75 2.34 11.31
11/12/2021 2:15:00 AM 9.01 48.218 0.049 6.78 2.29 11.29
11/12/2021 2:30:00 AM 9.06 48.308 0.048 6.78 2.42 11.28
11/12/2021 2:45:00 AM 9.1 48.38 0.049 6.74 3.17 11.27
11/12/2021 3:00:00 AM 9.14 48.452 0.046 6.75 1.86 11.25
11/12/2021 3:15:00 AM 9.2 48.56 0.047 6.74 2.5 11.24
11/12/2021 3:30:00 AM 9.26 48.668 0.049 6.75 1.78 11.21
11/12/2021 3:45:00 AM 9.32 48.776 0.049 6.77 2.83 11.19
11/12/2021 4:00:00 AM 9.36 48.848 0.049 6.75 1.86 11.16
11/12/2021 4:15:00 AM 9.39 48.902 0.049 6.74 1.8 11.15
11/12/2021 4:30:00 AM 9.43 48.974 0.048 6.79 2.75 11.14
11/12/2021 4:45:00 AM 9.5 49.1 0.048 6.68 2.06 11.12
11/12/2021 5:00:00 AM 9.58 49.244 0.048 6.73 3.13 11.1
11/12/2021 5:15:00 AM 9.63 49.334 0.048 6.77 2.51 11.09
11/12/2021 5:30:00 AM 9.68 49.424 0.048 6.74 3.69 11.06
11/12/2021 5:45:00 AM 9.73 49.514 0.047 6.76 2.28 11.04
11/12/2021 6:00:00 AM 9.8 49.64 0.047 6.72 3.79 11.02
11/12/2021 6:15:00 AM 9.98 49.964 0.046 6.76 5.2 10.99
11/12/2021 6:30:00 AM 10.12 50.216 0.043 6.78 9.19 10.96
11/12/2021 6:45:00 AM 10.35 50.63 0.049 6.85 37.76 10.93
11/12/2021 7:00:00 AM 10.47 50.846 0.047 6.85 58.32 10.91
11/12/2021 7:15:00 AM 10.45 50.81 0.042 6.8 85.24 10.93
11/12/2021 7:30:00 AM 10.46 50.828 0.045 6.81 46.41 10.95
11/12/2021 7:45:00 AM 10.49 50.882 0.044 6.78 50.8 10.94
11/12/2021 8:00:00 AM 10.52 50.936 0.041 6.75 69.33 10.96
11/12/2021 8:15:00 AM 10.52 50.936 0.042 6.73 43.66 10.97
11/12/2021 8:30:00 AM 10.52 50.936 0.042 6.7 49.03 10.99
11/12/2021 8:45:00 AM 10.53 50.954 0.038 6.68 49.76 11
11/12/2021 9:00:00 AM 10.57 51.026 0.039 6.66 43.96 11
11/12/2021 9:15:00 AM 10.63 51.134 0.038 6.63 932.62 10.98
11/12/2021 9:30:00 AM 10.69 51.242 0.039 6.63 46.16 11
11/12/2021 9:45:00 AM 10.73 51.314 0.038 6.6 34.1 10.98
11/12/2021 10:00:00 AM 10.75 51.35 0.035 6.61 36.38 10.97
11/12/2021 10:15:00 AM 10.75 51.35 0.035 6.6 35.87 10.98
11/12/2021 10:30:00 AM 10.74 51.332 0.036 6.58 28.81 10.98
11/12/2021 10:45:00 AM 10.73 51.314 0.036 6.56 1382.42 11
11/12/2021 11:00:00 AM 10.72 51.296 0.035 6.57 24.65 11.01
11/12/2021 11:15:00 AM 10.73 51.314 0.034 6.57 21.19 11.01
11/12/2021 11:30:00 AM 10.73 51.314 0.036 6.53 22.83 11.02
11/12/2021 11:45:00 AM 10.75 51.35 0.035 6.57 23.17 11.01
11/12/2021 12:00:00 PM 10.76 51.368 0.036 6.54 25.07 11.02
11/12/2021 12:15:00 PM 10.77 51.386 0.035 6.52 18.21 11.02
11/12/2021 12:30:00 PM 10.76 51.368 0.036 6.53 19.58 11.01
11/12/2021 12:45:00 PM 10.75 51.35 0.036 6.54 19.11 11.01
11/12/2021 1:00:00 PM 10.72 51.296 0.036 6.39 17.79 11
11/12/2021 1:15:00 PM 10.71 51.278 0.036 6.5 299.35 11
11/12/2021 1:30:00 PM 10.69 51.242 0.036 6.52 22.7 11
11/12/2021 1:45:00 PM 10.67 51.206 0.036 6.48 73.98 10.99
11/12/2021 2:00:00 PM 10.65 51.17 0.036 6.45 20.39 10.99
11/12/2021 2:15:00 PM 10.63 51.134 0.036 6.47 20.52 10.99
11/12/2021 2:30:00 PM 10.62 51.116 0.036 6.44 38.29 10.99
11/12/2021 2:45:00 PM 10.6 51.08 0.036 6.45 17.58 10.99
11/12/2021 3:00:00 PM 10.59 51.062 0.036 6.44 19.49 11
11/12/2021 3:15:00 PM 10.56 51.008 0.036 6.45 16.72 11
11/12/2021 3:30:00 PM 10.54 50.972 0.035 6.43 17.07 11.01
11/12/2021 3:45:00 PM 10.51 50.918 0.037 6.41 33.95 11.01
11/12/2021 4:00:00 PM 10.48 50.864 0.037 6.42 18.93 11.02
11/12/2021 4:15:00 PM 10.44 50.792 0.037 6.43 19.23 11.03
11/12/2021 4:30:00 PM 10.4 50.72 0.037 6.44 17.16 11.05
11/12/2021 4:45:00 PM 10.35 50.63 0.037 6.38 15.82 11.06
11/12/2021 5:00:00 PM 10.3 50.54 0.037 6.45 88.81 11.06
11/12/2021 5:15:00 PM 10.24 50.432 0.037 6.43 20.76 11.07
11/12/2021 5:30:00 PM 10.18 50.324 0.037 6.43 993.59 11.09
11/12/2021 5:45:00 PM 10.12 50.216 0.037 6.44 25.42 11.1
11/12/2021 6:00:00 PM 10.06 50.108 0.037 6.34 34.1 11.11
11/12/2021 6:15:00 PM 10 50 0.034 6.42 32.84 11.14
11/12/2021 6:30:00 PM 9.93 49.874 0.037 6.43 8.56 11.16
11/12/2021 6:45:00 PM 9.87 49.766 0.037 6.42 15.28 11.19
11/12/2021 7:00:00 PM 9.81 49.658 0.037 6.43 7.03 11.19
11/12/2021 7:15:00 PM 9.75 49.55 0.037 6.41 8.15 11.21
11/12/2021 7:30:00 PM 9.68 49.424 0.037 6.42 8.94 11.22
11/12/2021 7:45:00 PM 9.61 49.298 0.037 6.43 7.14 11.23
11/12/2021 8:00:00 PM 9.54 49.172 0.036 6.42 7.99 11.26
11/12/2021 8:15:00 PM 9.48 49.064 0.037 6.38 7.92 11.28
11/12/2021 8:30:00 PM 9.41 48.938 0.036 6.41 6.86 11.3
11/12/2021 8:45:00 PM 9.34 48.812 0.037 6.42 6.86 11.31
11/12/2021 9:00:00 PM 9.27 48.686 0.037 6.44 7.24 11.33
11/12/2021 9:15:00 PM 9.2 48.56 0.036 6.43 7.85 11.35
11/12/2021 9:30:00 PM 9.14 48.452 0.035 6.43 6.8 11.37
11/12/2021 9:45:00 PM 9.06 48.308 0.038 6.47 6.8 11.38
11/12/2021 10:00:00 PM 8.99 48.182 0.038 6.45 7.51 11.39
11/12/2021 10:15:00 PM 8.92 48.056 0.036 6.43 5.93 11.41
11/12/2021 10:30:00 PM 8.86 47.948 0.038 6.45 5.82 11.45
11/12/2021 10:45:00 PM 8.79 47.822 0.038 6.44 5.41 11.46
11/12/2021 11:00:00 PM 8.72 47.696 0.038 6.46 7.99 11.48
11/12/2021 11:15:00 PM 8.66 47.588 0.037 6.43 6.16 11.49
11/12/2021 11:30:00 PM 8.6 47.48 0.036 6.43 5.57 11.51
11/12/2021 11:45:00 PM 8.54 47.372 0.038 6.47 5.04 11.53
11/13/2021 12:00:00 AM 8.49 47.282 0.036 6.47 5.88 11.54
11/13/2021 12:15:00 AM 8.43 47.174 0.038 6.43 5.24 11.54
11/13/2021 12:30:00 AM 8.39 47.102 0.039 6.44 5.78 11.56
11/13/2021 12:45:00 AM 8.34 47.012 0.039 6.46 5.21 11.58
11/13/2021 1:00:00 AM 8.3 46.94 0.039 6.45 5.08 11.59
11/13/2021 1:15:00 AM 8.26 46.868 0.039 6.45 4.83 11.59
11/13/2021 1:30:00 AM 8.23 46.814 0.039 6.45 5.07 11.6
11/13/2021 1:45:00 AM 8.2 46.76 0.038 6.45 5.12 11.61
11/13/2021 2:00:00 AM 8.17 46.706 0.039 6.35 5.48 11.61
11/13/2021 2:15:00 AM 8.14 46.652 0.039 6.46 5.53 11.62
11/13/2021 2:30:00 AM 8.12 46.616 0.039 6.47 5.29 11.62
11/13/2021 2:45:00 AM 8.1 46.58 0.039 6.45 4.5 11.64
11/13/2021 3:00:00 AM 8.07 46.526 0.039 6.48 4.58 11.63
11/13/2021 3:15:00 AM 8.05 46.49 0.039 6.47 4.83 11.64
11/13/2021 3:30:00 AM 8.03 46.454 0.039 6.47 4.99 11.64
11/13/2021 3:45:00 AM 8.02 46.436 0.037 6.46 4.92 11.63
11/13/2021 4:00:00 AM 8 46.4 0.04 6.47 4.87 11.63
11/13/2021 4:15:00 AM 7.98 46.364 0.04 6.47 4.98 11.63
11/13/2021 4:30:00 AM 7.97 46.346 0.038 6.45 4.62 11.64
11/13/2021 4:45:00 AM 7.96 46.328 0.04 6.46 5.12 11.64
11/13/2021 5:00:00 AM 7.96 46.328 0.04 6.46 5.07 11.65
11/13/2021 5:15:00 AM 7.95 46.31 0.04 6.47 4.36 11.64
11/13/2021 5:30:00 AM 7.96 46.328 0.039 6.46 4 11.63
11/13/2021 5:45:00 AM 7.96 46.328 0.04 6.36 4.78 11.64
11/13/2021 6:00:00 AM 7.96 46.328 0.039 6.47 5.05 11.63
11/13/2021 6:15:00 AM 7.97 46.346 0.04 6.49 3.9 11.63
11/13/2021 6:30:00 AM 7.98 46.364 0.04 6.48 4.09 11.63
11/13/2021 6:45:00 AM 7.99 46.382 0.041 6.49 4.25 11.63
11/13/2021 7:00:00 AM 8 46.4 0.041 6.49 3.61 11.62
11/13/2021 7:15:00 AM 8 46.4 0.037 6.49 4.76 11.62
11/13/2021 7:30:00 AM 8.01 46.418 0.041 6.49 4.28 11.62
11/13/2021 7:45:00 AM 8.02 46.436 0.041 6.48 4.74 11.62
11/13/2021 8:00:00 AM 8.04 46.472 0.041 6.49 4.25 11.62
11/13/2021 8:15:00 AM 8.05 46.49 0.041 6.5 4.89 11.64
11/13/2021 8:30:00 AM 8.07 46.526 0.041 6.5 3.49 11.64
11/13/2021 8:45:00 AM 8.1 46.58 0.041 6.51 4.77 11.64
11/13/2021 9:00:00 AM 8.13 46.634 0.041 6.54 3.83 11.66
11/13/2021 9:15:00 AM 8.16 46.688 0.041 6.53 3.96 11.66
11/13/2021 9:30:00 AM 8.19 46.742 0.041 6.52 4.91 11.66
11/13/2021 9:45:00 AM 8.22 46.796 0.041 6.54 4.46 11.64
11/13/2021 10:00:00 AM 8.26 46.868 0.041 6.53 4.62 11.63
11/13/2021 10:15:00 AM 8.29 46.922 0.038 6.54 4 11.62
11/13/2021 10:30:00 AM 8.32 46.976 0.041 6.58 3.38 11.62
11/13/2021 10:45:00 AM 8.34 47.012 0.041 6.57 3.58 11.6
11/13/2021 11:00:00 AM 8.36 47.048 0.041 6.55 4.07 11.57
11/13/2021 11:15:00 AM 8.37 47.066 0.04 6.55 4.42 11.55
11/13/2021 11:30:00 AM 8.38 47.084 0.041 6.57 4.13 11.54
11/13/2021 11:45:00 AM 8.38 47.084 0.039 6.55 3.82 11.56
11/13/2021 12:00:00 PM 8.37 47.066 0.041 6.57 3.13 11.56
11/13/2021 12:15:00 PM 8.37 47.066 0.041 6.6 4.08 11.55
11/13/2021 12:30:00 PM 8.34 47.012 0.041 6.57 3.26 11.55
11/13/2021 12:45:00 PM 8.3 46.94 0.041 6.57 3.29 11.57
11/13/2021 1:00:00 PM 8.27 46.886 0.041 6.57 3.69 11.59
11/13/2021 1:15:00 PM 8.24 46.832 0.041 6.58 4.78 11.61
11/13/2021 1:30:00 PM 8.22 46.796 0.04 6.58 4.66 11.61
11/13/2021 1:45:00 PM 8.2 46.76 0.041 6.58 4.48 11.61
11/13/2021 2:00:00 PM 8.18 46.724 0.041 6.58 3.31 11.63
11/13/2021 2:15:00 PM 8.17 46.706 0.041 6.59 3.37 11.67
11/13/2021 2:30:00 PM 8.17 46.706 0.041 6.6 4.19 11.67
11/13/2021 2:45:00 PM 8.15 46.67 0.041 6.59 5.02 11.67
11/13/2021 3:00:00 PM 8.15 46.67 0.041 6.63 4.99 11.69
11/13/2021 3:15:00 PM 8.14 46.652 0.041 6.57 4.56 11.68
11/13/2021 3:30:00 PM 8.13 46.634 0.041 6.6 3.86 11.67
11/13/2021 3:45:00 PM 8.11 46.598 0.041 6.6 3.66 11.66
11/13/2021 4:00:00 PM 8.07 46.526 0.035 6.6 3.98 11.64
11/13/2021 4:15:00 PM 8.02 46.436 0.041 6.58 4.25 11.65
11/13/2021 4:30:00 PM 7.97 46.346 0.041 6.59 4.92 11.65
11/13/2021 4:45:00 PM 7.92 46.256 0.041 6.55 3.41 11.65
11/13/2021 5:00:00 PM 7.87 46.166 0.041 6.57 3.39 11.66
11/13/2021 5:15:00 PM 7.82 46.076 0.041 6.56 4.61 11.68
11/13/2021 5:30:00 PM 7.77 45.986 0.039 6.56 3.79 11.7
11/13/2021 5:45:00 PM 7.72 45.896 0.04 6.56 3.52 11.72
11/13/2021 6:00:00 PM 7.68 45.824 0.041 6.56 4.44 11.73
11/13/2021 6:15:00 PM 7.64 45.752 0.042 6.55 4.24 11.75
11/13/2021 6:30:00 PM 7.6 45.68 0.042 6.56 4.34 11.76
11/13/2021 6:45:00 PM 7.56 45.608 0.042 6.57 3.71 11.77
11/13/2021 7:00:00 PM 7.52 45.536 0.042 6.56 4.35 11.78
11/13/2021 7:15:00 PM 7.48 45.464 0.042 6.56 4.64 11.79
11/13/2021 7:30:00 PM 7.44 45.392 0.037 6.56 4.82 11.8
11/13/2021 7:45:00 PM 7.41 45.338 0.042 6.56 4.05 11.81
11/13/2021 8:00:00 PM 7.39 45.302 0.04 6.55 4.56 11.82
11/13/2021 8:15:00 PM 7.35 45.23 0.036 6.54 4.29 11.83
11/13/2021 8:30:00 PM 7.32 45.176 0.042 6.54 4.19 11.84
11/13/2021 8:45:00 PM 7.28 45.104 0.04 6.55 5.29 11.85
11/13/2021 9:00:00 PM 7.24 45.032 0.041 6.55 4.01 11.87
11/13/2021 9:15:00 PM 7.2 44.96 0.042 6.59 3.93 11.88
11/13/2021 9:30:00 PM 7.17 44.906 0.042 6.55 3.37 11.9
11/13/2021 9:45:00 PM 7.14 44.852 0.042 6.56 4.68 11.91
11/13/2021 10:00:00 PM 7.1 44.78 0.042 6.57 3.73 11.92
11/13/2021 10:15:00 PM 7.07 44.726 0.042 6.58 4.19 11.93
11/13/2021 10:30:00 PM 7.04 44.672 0.042 6.56 3.21 11.94
11/13/2021 10:45:00 PM 7.01 44.618 0.041 6.58 4.45 11.95
11/13/2021 11:00:00 PM 6.99 44.582 0.042 6.55 4 11.95
11/13/2021 11:15:00 PM 6.96 44.528 0.042 6.58 3.63 11.96
11/13/2021 11:30:00 PM 6.94 44.492 0.042 6.56 3.98 11.96
11/13/2021 11:45:00 PM 6.91 44.438 0.042 6.55 3.7 11.97
11/14/2021 12:00:00 AM 6.89 44.402 0.042 6.55 3.03 11.98
11/14/2021 12:15:00 AM 6.87 44.366 0.042 6.55 4.2 11.99
11/14/2021 12:30:00 AM 6.84 44.312 0.042 6.55 3.1 11.99
11/14/2021 12:45:00 AM 6.82 44.276 0.04 6.55 3.96 12
11/14/2021 1:00:00 AM 6.8 44.24 0.04 6.55 3.46 12.01
11/14/2021 1:15:00 AM 6.78 44.204 0.042 6.55 4.58 12.02
11/14/2021 1:30:00 AM 6.76 44.168 0.037 6.54 4.01 12.02
11/14/2021 1:45:00 AM 6.74 44.132 0.042 6.54 4.46 12.03
11/14/2021 2:00:00 AM 6.72 44.096 0.042 6.55 4.01 12.04
11/14/2021 2:15:00 AM 6.71 44.078 0.042 6.54 3.53 12.05
11/14/2021 2:30:00 AM 6.7 44.06 0.042 6.53 3.89 12.05
11/14/2021 2:45:00 AM 6.69 44.042 0.042 6.55 3.82 12.05
11/14/2021 3:00:00 AM 6.67 44.006 0.042 6.55 4.48 12.06
11/14/2021 3:15:00 AM 6.66 43.988 0.042 6.55 3.81 12.06
11/14/2021 3:30:00 AM 6.65 43.97 0.039 6.55 4.73 12.07
11/14/2021 3:45:00 AM 6.63 43.934 0.039 6.55 3.75 12.07
11/14/2021 4:00:00 AM 6.61 43.898 0.031 6.56 3.81 12.08
11/14/2021 4:15:00 AM 6.58 43.844 0.039 6.54 3.41 12.09
11/14/2021 4:30:00 AM 6.56 43.808 0.04 6.53 4.88 12.09
11/14/2021 4:45:00 AM 6.54 43.772 0.041 6.54 4.37 12.1
11/14/2021 5:00:00 AM 6.52 43.736 0.041 6.54 3.02 12.11
11/14/2021 5:15:00 AM 6.5 43.7 0.042 6.57 4.04 12.11
11/14/2021 5:30:00 AM 6.47 43.646 0.042 6.55 3.82 12.12
11/14/2021 5:45:00 AM 6.45 43.61 0.042 6.56 3.18 12.13
11/14/2021 6:00:00 AM 6.43 43.574 0.042 6.55 4.15 12.13
11/14/2021 6:15:00 AM 6.4 43.52 0.042 6.55 3.81 12.14
11/14/2021 6:30:00 AM 6.38 43.484 0.042 6.55 4.03 12.14
11/14/2021 6:45:00 AM 6.37 43.466 0.039 6.56 3.17 12.15
11/14/2021 7:00:00 AM 6.36 43.448 0.041 6.55 3.84 12.16
11/14/2021 7:15:00 AM 6.34 43.412 0.042 6.55 3.89 12.17
11/14/2021 7:30:00 AM 6.34 43.412 0.035 6.58 3.76 12.19
11/14/2021 7:45:00 AM 6.33 43.394 0.041 6.58 3.14 12.21
11/14/2021 8:00:00 AM 6.34 43.412 0.042 6.58 3.15 12.25
11/14/2021 8:15:00 AM 6.36 43.448 0.042 6.6 2.75 12.28
11/14/2021 8:30:00 AM 6.38 43.484 0.042 6.61 3.11 12.28
11/14/2021 8:45:00 AM 6.39 43.502 0.042 6.62 3.72 12.27
11/14/2021 9:00:00 AM 6.41 43.538 0.042 6.59 3.81 12.27
11/14/2021 9:15:00 AM 6.41 43.538 0.04 6.61 3.55 12.27
11/14/2021 9:30:00 AM 6.44 43.592 0.041 6.61 2.96 12.27
11/14/2021 9:45:00 AM 6.5 43.7 0.041 6.62 3.74 12.29
11/14/2021 10:00:00 AM 6.57 43.826 0.041 6.63 3.67 12.29
11/14/2021 10:15:00 AM 6.62 43.916 0.033 6.63 3.99 12.28
11/14/2021 10:30:00 AM 6.67 44.006 0.041 6.65 3.6 12.27
11/14/2021 10:45:00 AM 6.74 44.132 0.041 6.65 3.41 12.25
11/14/2021 11:00:00 AM 6.8 44.24 0.041 6.68 2.99 12.22
11/14/2021 11:15:00 AM 6.84 44.312 0.041 6.68 2.66 12.21
11/14/2021 11:30:00 AM 6.89 44.402 0.041 6.68 2.76 12.2
11/14/2021 11:45:00 AM 6.91 44.438 0.041 6.68 3.23 12.19
11/14/2021 12:00:00 PM 6.93 44.474 0.041 6.68 4.47 12.17
11/14/2021 12:15:00 PM 6.97 44.546 0.041 6.68 3.96 12.16
11/14/2021 12:30:00 PM 7.02 44.636 0.041 6.67 3.12 12.15
11/14/2021 12:45:00 PM 7.05 44.69 0.041 6.68 3.65 12.13
11/14/2021 1:00:00 PM 7.07 44.726 0.041 6.69 3.57 12.12
11/14/2021 1:15:00 PM 7.08 44.744 0.041 6.68 4.39 12.11
11/14/2021 1:30:00 PM 7.07 44.726 0.041 6.69 3.13 12.08
11/14/2021 1:45:00 PM 7.09 44.762 0.041 6.68 2.59 12.09
11/14/2021 2:00:00 PM 7.1 44.78 0.041 6.68 3.06 12.08
11/14/2021 2:15:00 PM 7.11 44.798 0.04 6.68 3.27 12.07
11/14/2021 2:30:00 PM 7.12 44.816 0.04 6.67 3.76 12.06
11/14/2021 2:45:00 PM 7.13 44.834 0.035 6.67 3.48 12.03
11/14/2021 3:00:00 PM 7.13 44.834 0.041 6.67 4.04 12.02
11/14/2021 3:15:00 PM 7.14 44.852 0.041 6.65 3.69 11.99
11/14/2021 3:30:00 PM 7.14 44.852 0.041 6.66 2.53 11.98
11/14/2021 3:45:00 PM 7.14 44.852 0.042 6.64 3.33 11.94
11/14/2021 4:00:00 PM 7.14 44.852 0.042 6.63 3.95 11.93
11/14/2021 4:15:00 PM 7.14 44.852 0.042 6.65 3.08 11.91
11/14/2021 4:30:00 PM 7.14 44.852 0.042 6.63 3.37 11.89
11/14/2021 4:45:00 PM 7.14 44.852 0.042 6.65 3.05 11.88
11/14/2021 5:00:00 PM 7.13 44.834 0.042 6.62 2.63 11.87
11/14/2021 5:15:00 PM 7.13 44.834 0.042 6.62 3.07 11.87
11/14/2021 5:30:00 PM 7.13 44.834 0.041 6.61 3.98 11.86
11/14/2021 5:45:00 PM 7.12 44.816 0.042 6.62 3.8 11.87
11/14/2021 6:00:00 PM 7.11 44.798 0.042 6.61 4.19 11.87
11/14/2021 6:15:00 PM 7.11 44.798 0.042 6.61 3.86 11.88
11/14/2021 6:30:00 PM 7.1 44.78 0.042 6.61 3.75 11.88
11/14/2021 6:45:00 PM 7.09 44.762 0.042 6.61 3.09 11.88
11/14/2021 7:00:00 PM 7.08 44.744 0.041 6.62 3.23 11.88
11/14/2021 7:15:00 PM 7.06 44.708 0.042 6.6 4.97 11.88
11/14/2021 7:30:00 PM 7.05 44.69 0.04 6.6 3.89 11.88
11/14/2021 7:45:00 PM 7.02 44.636 0.039 6.6 3.15 11.89
11/14/2021 8:00:00 PM 6.99 44.582 0.042 6.62 3.16 11.9
11/14/2021 8:15:00 PM 6.97 44.546 0.042 6.6 2.82 11.9
11/14/2021 8:30:00 PM 6.95 44.51 0.042 6.6 4.23 11.91
11/14/2021 8:45:00 PM 6.92 44.456 0.042 6.62 3.93 11.91
11/14/2021 9:00:00 PM 6.9 44.42 0.042 6.6 9.05 11.92
11/14/2021 9:15:00 PM 6.88 44.384 0.042 6.6 3.61 11.93
11/14/2021 9:30:00 PM 6.86 44.348 0.042 6.6 2.66 11.94
11/14/2021 9:45:00 PM 6.83 44.294 0.042 6.6 3.54 11.94
11/14/2021 10:00:00 PM 6.81 44.258 0.042 6.6 2.75 11.94
11/14/2021 10:15:00 PM 6.79 44.222 0.042 6.61 3.08 11.95
11/14/2021 10:30:00 PM 6.76 44.168 0.042 6.61 2.98 11.95
11/14/2021 10:45:00 PM 6.74 44.132 0.042 6.6 3.21 11.96
11/14/2021 11:00:00 PM 6.71 44.078 0.042 6.6 3.07 11.97
11/14/2021 11:15:00 PM 6.69 44.042 0.041 6.6 3.87 11.98
11/14/2021 11:30:00 PM 6.67 44.006 0.042 6.61 4.06 11.99
11/14/2021 11:45:00 PM 6.65 43.97 0.042 6.6 3.41 11.99
11/15/2021 12:00:00 AM 6.63 43.934 0.042 6.63 3.51 12
11/15/2021 12:15:00 AM 6.61 43.898 0.042 6.61 3.61 12.01
11/15/2021 12:30:00 AM 6.59 43.862 0.042 6.59 3.51 12.02
11/15/2021 12:45:00 AM 6.56 43.808 0.042 6.61 2.53 12.02
11/15/2021 1:00:00 AM 6.53 43.754 0.042 6.6 3.73 12.04
11/15/2021 1:15:00 AM 6.51 43.718 0.042 6.61 3.96 12.04
11/15/2021 1:30:00 AM 6.49 43.682 0.04 6.6 3.22 12.05
11/15/2021 1:45:00 AM 6.47 43.646 0.039 6.58 3.75 12.05
11/15/2021 2:00:00 AM 6.45 43.61 0.042 6.6 2.85 12.05
11/15/2021 2:15:00 AM 6.43 43.574 0.042 6.6 3.55 12.06
11/15/2021 2:30:00 AM 6.42 43.556 0.042 6.61 2.94 12.06
11/15/2021 2:45:00 AM 6.41 43.538 0.042 6.6 3.45 12.07
11/15/2021 3:00:00 AM 6.4 43.52 0.042 6.61 3.43 12.07
11/15/2021 3:15:00 AM 6.39 43.502 0.042 6.6 4.42 12.07
11/15/2021 3:30:00 AM 6.38 43.484 0.042 6.59 3.48 12.07
11/15/2021 3:45:00 AM 6.37 43.466 0.042 6.61 3.9 12.07
11/15/2021 4:00:00 AM 6.36 43.448 0.042 6.6 3.52 12.07
11/15/2021 4:15:00 AM 6.36 43.448 0.04 6.59 3.68 12.07
11/15/2021 4:30:00 AM 6.35 43.43 0.042 6.6 3.55 12.08
11/15/2021 4:45:00 AM 6.34 43.412 0.041 6.59 4.47 12.08
11/15/2021 5:00:00 AM 6.33 43.394 0.042 6.59 3.71 12.08
11/15/2021 5:15:00 AM 6.31 43.358 0.042 6.58 3.89 12.08
11/15/2021 5:30:00 AM 6.29 43.322 0.04 6.6 13 12.08
11/15/2021 5:45:00 AM 6.28 43.304 0.038 6.59 3.94 12.09
11/15/2021 6:00:00 AM 6.25 43.25 0.042 6.62 3.76 12.1
11/15/2021 6:15:00 AM 6.24 43.232 0.042 6.61 4.03 12.11
11/15/2021 6:30:00 AM 6.23 43.214 0.042 6.61 3.36 12.11
11/15/2021 6:45:00 AM 6.22 43.196 0.042 6.61 2.88 12.12
11/15/2021 7:00:00 AM 6.22 43.196 0.042 6.61 3 12.12
11/15/2021 7:15:00 AM 6.21 43.178 0.042 6.61 3.72 12.13
11/15/2021 7:30:00 AM 6.21 43.178 0.042 6.6 3.41 12.15
11/15/2021 7:45:00 AM 6.21 43.178 0.042 6.61 3.77 12.16
11/15/2021 8:00:00 AM 6.21 43.178 0.041 6.62 2.74 12.17
11/15/2021 8:15:00 AM 6.21 43.178 0.042 6.62 2.41 12.19
11/15/2021 8:30:00 AM 6.23 43.214 0.042 6.61 4.09 12.22
11/15/2021 8:45:00 AM 6.24 43.232 0.042 6.67 2.36 12.26
11/15/2021 9:00:00 AM 6.26 43.268